Darstellungsparameter: Aktuell verwendete Einstellungen:
Skalierung der Graphiken ... ?
xyx+y,   Skalierungsfaktor:      Skalierung: Modus: x, Faktor: 1
Darstellungszeitraum ... ?
Vom - - bis: - -   Zeitraum: 04.04.2020 - 24.04.2020
Min/Max/Avg-Anzeige ... ?
Zeige MMA aktuell
Zeige MMA Monat
Zeige MMA alles
Zeige --A aktuell
Zeige --A Monat
Zeige --A alles
Keine MMA-Anzeige
MMA:
Keine MMA-Graphiken
MMA-Basis: 04.04.2020 - 24.04.2020
Quicknavigation für Darstellung... ?
Tage:      1T, 2T, 3T, 5T -1T -2T -3T -5T +1T +2T +3T +5T
Wochen: 1W, 2W, 3W -1W -2W -3W +1W +2W +3W
Monate: 1M, 3M, 6M -1M -3M -6M +1M +3M +6M
Jahre:    1J, 3J, 5J, 10J -1J -3J -5J -10J +1J +3J +5J +10J
Nutze für die Darstellung ... ?
Originaldaten oder Mittelwerte auf ...
Stundenbasis Tagesbasis Wochenbasis
Monatsbasis Jahresbasis      Datenbasis: Original-Daten
Darstellen als:
Statistik (Auto) Statistik J:M      Darstellung:
Zur Graphik,    zurück zur Übersicht aller Sensoren.
 
Tabellarische Datenbersicht: ?
 
Sensor: Nr:Datum:Temp:Feuchte:Taupunkt:
Aussen-T/F 1 04-04-2020 00:00:00 5.7 C 68 % 0.27 C
2 04-04-2020 00:05:00 5.7 C 68 % 0.27 C
3 04-04-2020 00:10:00 5.7 C 68 % 0.27 C
4 04-04-2020 00:15:00 5.7 C 67 % 0.06 C
5 04-04-2020 00:20:00 5.7 C 67 % 0.06 C
6 04-04-2020 00:25:00 5.8 C 66 % -0.05 C
7 04-04-2020 00:30:00 5.8 C 66 % -0.05 C
8 04-04-2020 00:35:00 5.8 C 66 % -0.05 C
9 04-04-2020 00:40:00 5.7 C 66 % -0.14 C
10 04-04-2020 00:45:00 5.6 C 67 % -0.03 C
11 04-04-2020 00:50:00 5.4 C 68 % -0.02 C
12 04-04-2020 00:55:00 5.2 C 68 % -0.21 C
13 04-04-2020 01:00:00 5.1 C 69 % -0.11 C
14 04-04-2020 01:05:00 5.1 C 69 % -0.11 C
15 04-04-2020 01:10:00 5.1 C 69 % -0.11 C
16 04-04-2020 01:15:00 5 C 69 % -0.2 C
17 04-04-2020 01:20:00 4.9 C 69 % -0.3 C
18 04-04-2020 01:25:00 4.9 C 70 % -0.1 C
19 04-04-2020 01:30:00 4.8 C 71 % 0 C
20 04-04-2020 01:35:00 4.7 C 72 % 0.09 C
21 04-04-2020 01:40:00 4.5 C 73 % 0.09 C
22 04-04-2020 01:45:00 4.3 C 73 % -0.1 C
23 04-04-2020 01:50:00 4.1 C 74 % -0.11 C
24 04-04-2020 01:55:00 3.8 C 75 % -0.21 C
25 04-04-2020 02:00:00 3.6 C 76 % -0.22 C
Sensor: Nr:Datum:Temp:Feuchte:Taupunkt:
Aussen-T/F 26 04-04-2020 02:05:00 3.3 C 77 % -0.34 C
27 04-04-2020 02:10:00 3 C 78 % -0.45 C
28 04-04-2020 02:15:00 2.8 C 78 % -0.65 C
29 04-04-2020 02:20:00 2.6 C 79 % -0.67 C
30 04-04-2020 02:25:00 2.5 C 80 % -0.59 C
31 04-04-2020 02:30:00 2.3 C 80 % -0.79 C
32 04-04-2020 02:35:00 2.2 C 81 % -0.71 C
33 04-04-2020 02:40:00 2.1 C 81 % -0.81 C
34 04-04-2020 02:45:00 1.9 C 82 % -0.84 C
35 04-04-2020 02:50:00 1.9 C 83 % -0.67 C
36 04-04-2020 02:55:00 1.9 C 83 % -0.67 C
37 04-04-2020 03:00:00 1.8 C 83 % -0.77 C
38 04-04-2020 03:05:00 1.7 C 83 % -0.87 C
39 04-04-2020 03:10:00 1.7 C 83 % -0.87 C
40 04-04-2020 03:15:00 1.5 C 83 % -1.06 C
41 04-04-2020 03:20:00 1.4 C 84 % -1 C
42 04-04-2020 03:25:00 1.3 C 85 % -0.94 C
43 04-04-2020 03:30:00 1.3 C 85 % -0.94 C
44 04-04-2020 03:35:00 1.4 C 86 % -0.68 C
45 04-04-2020 03:40:00 1.4 C 86 % -0.68 C
46 04-04-2020 03:45:00 1.3 C 85 % -0.94 C
47 04-04-2020 03:50:00 1.2 C 85 % -1.03 C
48 04-04-2020 03:55:00 1 C 85 % -1.23 C
49 04-04-2020 04:00:00 0.9 C 85 % -1.33 C
50 04-04-2020 04:05:00 0.8 C 86 % -1.27 C
Sensor: Nr:Datum:Temp:Feuchte:Taupunkt:
Aussen-T/F 51 04-04-2020 04:10:00 0.7 C 86 % -1.37 C
52 04-04-2020 04:15:00 0.6 C 86 % -1.46 C
53 04-04-2020 04:20:00 0.5 C 87 % -1.41 C
54 04-04-2020 04:25:00 0.4 C 87 % -1.5 C
55 04-04-2020 04:30:00 0.4 C 87 % -1.5 C
56 04-04-2020 04:35:00 0.3 C 87 % -1.6 C
57 04-04-2020 04:40:00 0.3 C 88 % -1.45 C
58 04-04-2020 04:45:00 0.3 C 88 % -1.45 C
59 04-04-2020 04:50:00 0.2 C 87 % -1.7 C
60 04-04-2020 04:55:00 0.2 C 88 % -1.55 C
61 04-04-2020 05:00:00 0.2 C 88 % -1.55 C
62 04-04-2020 05:05:00 0.2 C 88 % -1.55 C
63 04-04-2020 05:10:00 0.1 C 88 % -1.65 C
64 04-04-2020 05:15:00 0.1 C 88 % -1.65 C
65 04-04-2020 05:20:00 -0.1 C 88 % -1.84 C
66 04-04-2020 05:25:00 -0.1 C 89 % -1.69 C
67 04-04-2020 05:30:00 -0.1 C 89 % -1.69 C
68 04-04-2020 05:35:00 -0.1 C 89 % -1.69 C
69 04-04-2020 05:40:00 -0.2 C 89 % -1.79 C
70 04-04-2020 05:45:00 -0.2 C 89 % -1.79 C
71 04-04-2020 05:50:00 -0.2 C 89 % -1.79 C
72 04-04-2020 05:55:00 -0.2 C 89 % -1.79 C
73 04-04-2020 06:00:00 -0.2 C 89 % -1.79 C
74 04-04-2020 06:05:00 -0.3 C 89 % -1.89 C
75 04-04-2020 06:10:00 -0.4 C 89 % -1.99 C
Sensor: Nr:Datum:Temp:Feuchte:Taupunkt:
Aussen-T/F 76 04-04-2020 06:15:00 -0.4 C 89 % -1.99 C
77 04-04-2020 06:20:00 -0.4 C 90 % -1.84 C
78 04-04-2020 06:25:00 -0.5 C 89 % -2.09 C
79 04-04-2020 06:30:00 -0.4 C 90 % -1.84 C
80 04-04-2020 06:35:00 -0.6 C 89 % -2.18 C
81 04-04-2020 06:40:00 -0.4 C 90 % -1.84 C
82 04-04-2020 06:45:00 -0.4 C 90 % -1.84 C
83 04-04-2020 06:50:00 -0.4 C 90 % -1.84 C
84 04-04-2020 06:55:00 -0.6 C 90 % -2.03 C
85 04-04-2020 07:00:00 -0.6 C 90 % -2.03 C
86 04-04-2020 07:05:00 -0.7 C 90 % -2.13 C
87 04-04-2020 07:10:00 -0.7 C 90 % -2.13 C
88 04-04-2020 07:15:00 -0.7 C 90 % -2.13 C
89 04-04-2020 07:20:00 -0.8 C 90 % -2.23 C
90 04-04-2020 07:25:00 -0.8 C 91 % -2.08 C
91 04-04-2020 07:30:00 -0.8 C 91 % -2.08 C
92 04-04-2020 07:35:00 -0.8 C 91 % -2.08 C
93 04-04-2020 07:40:00 -0.8 C 90 % -2.23 C
94 04-04-2020 07:45:00 -0.8 C 90 % -2.23 C
95 04-04-2020 07:50:00 -0.8 C 91 % -2.08 C
96 04-04-2020 07:55:00 -0.9 C 91 % -2.18 C
97 04-04-2020 08:00:00 -0.9 C 91 % -2.18 C
98 04-04-2020 08:05:00 -0.9 C 91 % -2.18 C
99 04-04-2020 08:10:00 -0.8 C 91 % -2.08 C
100 04-04-2020 08:15:00 -0.8 C 92 % -1.93 C
Sensor: Nr:Datum:Temp:Feuchte:Taupunkt:
Aussen-T/F 101 04-04-2020 08:20:00 -0.7 C 92 % -1.83 C
102 04-04-2020 08:25:00 -0.6 C 92 % -1.74 C
103 04-04-2020 08:30:00 -0.4 C 92 % -1.54 C
104 04-04-2020 08:35:00 -0.3 C 92 % -1.44 C
105 04-04-2020 08:40:00 -0.3 C 92 % -1.44 C
106 04-04-2020 08:45:00 -0.2 C 92 % -1.34 C
107 04-04-2020 08:50:00 -0.1 C 92 % -1.24 C
108 04-04-2020 08:55:00 -0.1 C 92 % -1.24 C
109 04-04-2020 09:00:00 0 C 92 % -1.14 C
110 04-04-2020 09:05:00 0.1 C 92 % -1.04 C
111 04-04-2020 09:10:00 0.2 C 91 % -1.09 C
112 04-04-2020 09:15:00 0.3 C 91 % -0.99 C
113 04-04-2020 09:20:00 0.3 C 91 % -0.99 C
114 04-04-2020 09:25:00 0.4 C 91 % -0.89 C
115 04-04-2020 09:30:00 0.5 C 91 % -0.79 C
116 04-04-2020 09:35:00 0.7 C 91 % -0.6 C
117 04-04-2020 09:40:00 0.8 C 91 % -0.5 C
118 04-04-2020 09:45:00 1 C 91 % -0.3 C
119 04-04-2020 09:50:00 1.1 C 91 % -0.2 C
120 04-04-2020 09:55:00 1.3 C 91 % 0 C
121 04-04-2020 10:00:00 1.5 C 91 % 0.19 C
122 04-04-2020 10:05:00 1.8 C 91 % 0.49 C
123 04-04-2020 10:10:00 2 C 90 % 0.54 C
124 04-04-2020 10:15:00 2.2 C 90 % 0.73 C
125 04-04-2020 10:20:00 2.3 C 89 % 0.68 C
Sensor: Nr:Datum:Temp:Feuchte:Taupunkt:
Aussen-T/F 126 04-04-2020 10:25:00 2.6 C 89 % 0.97 C
127 04-04-2020 10:30:00 2.7 C 88 % 0.92 C
128 04-04-2020 10:35:00 3 C 88 % 1.21 C
129 04-04-2020 10:40:00 3.3 C 88 % 1.51 C
130 04-04-2020 10:45:00 3.7 C 87 % 1.74 C
131 04-04-2020 10:50:00 4 C 86 % 1.88 C
132 04-04-2020 10:55:00 4.3 C 84 % 1.84 C
133 04-04-2020 11:00:00 4.8 C 83 % 2.16 C
134 04-04-2020 11:05:00 5.2 C 82 % 2.39 C
135 04-04-2020 11:10:00 5.7 C 80 % 2.53 C
136 04-04-2020 11:15:00 6.1 C 78 % 2.56 C
137 04-04-2020 11:20:00 6.5 C 76 % 2.58 C
138 04-04-2020 11:25:00 6.8 C 76 % 2.87 C
139 04-04-2020 11:30:00 7.2 C 73 % 2.69 C
140 04-04-2020 11:35:00 7.4 C 69 % 2.1 C
141 04-04-2020 11:40:00 7.8 C 68 % 2.27 C
142 04-04-2020 11:45:00 8.2 C 67 % 2.45 C
143 04-04-2020 11:50:00 8.5 C 66 % 2.52 C
144 04-04-2020 11:55:00 8.8 C 63 % 2.16 C
145 04-04-2020 12:00:00 9 C 63 % 2.35 C
146 04-04-2020 12:05:00 9.2 C 61 % 2.08 C
147 04-04-2020 12:10:00 9.3 C 61 % 2.18 C
148 04-04-2020 12:15:00 9.6 C 60 % 2.23 C
149 04-04-2020 12:20:00 9.9 C 59 % 2.27 C
150 04-04-2020 12:25:00 10.1 C 57 % 1.98 C
Sensor: Nr:Datum:Temp:Feuchte:Taupunkt:
Aussen-T/F 151 04-04-2020 12:30:00 10.3 C 55 % 1.67 C
152 04-04-2020 12:35:00 10.3 C 54 % 1.41 C
153 04-04-2020 12:40:00 10.3 C 55 % 1.67 C
154 04-04-2020 12:45:00 10.3 C 55 % 1.67 C
155 04-04-2020 12:50:00 10.4 C 54 % 1.51 C
156 04-04-2020 12:55:00 10.6 C 55 % 1.95 C
157 04-04-2020 13:00:00 10.7 C 53 % 1.52 C
158 04-04-2020 13:05:00 10.8 C 53 % 1.62 C
159 04-04-2020 13:10:00 10.9 C 54 % 1.97 C
160 04-04-2020 13:15:00 11.2 C 54 % 2.25 C
161 04-04-2020 13:20:00 11.3 C 52 % 1.81 C
162 04-04-2020 13:25:00 11.4 C 53 % 2.17 C
163 04-04-2020 13:30:00 11.5 C 51 % 1.73 C
164 04-04-2020 13:35:00 11.6 C 51 % 1.82 C
165 04-04-2020 13:40:00 11.7 C 52 % 2.18 C
166 04-04-2020 13:45:00 11.8 C 50 % 1.73 C
167 04-04-2020 13:50:00 12 C 51 % 2.19 C
168 04-04-2020 13:55:00 12.2 C 49 % 1.82 C
169 04-04-2020 14:00:00 12.1 C 48 % 1.44 C
170 04-04-2020 14:05:00 12.1 C 49 % 1.72 C
171 04-04-2020 14:10:00 12.3 C 47 % 1.33 C
172 04-04-2020 14:15:00 12.6 C 48 % 1.89 C
173 04-04-2020 14:20:00 12.7 C 47 % 1.69 C
174 04-04-2020 14:25:00 12.8 C 47 % 1.78 C
175 04-04-2020 14:30:00 12.9 C 47 % 1.87 C
Sensor: Nr:Datum:Temp:Feuchte:Taupunkt:
Aussen-T/F 176 04-04-2020 14:35:00 13 C 47 % 1.97 C
177 04-04-2020 14:40:00 13.1 C 46 % 1.76 C
178 04-04-2020 14:45:00 13.2 C 47 % 2.15 C
179 04-04-2020 14:50:00 13.2 C 46 % 1.85 C
180 04-04-2020 14:55:00 13.2 C 47 % 2.15 C
181 04-04-2020 15:00:00 13.3 C 45 % 1.63 C
182 04-04-2020 15:05:00 13.2 C 47 % 2.15 C
183 04-04-2020 15:10:00 13.3 C 46 % 1.94 C
184 04-04-2020 15:15:00 13.3 C 45 % 1.63 C
185 04-04-2020 15:20:00 13.3 C 45 % 1.63 C
186 04-04-2020 15:25:00 13.3 C 46 % 1.94 C
187 04-04-2020 15:30:00 13.6 C 46 % 2.21 C
188 04-04-2020 15:35:00 13.7 C 46 % 2.3 C
189 04-04-2020 15:40:00 13.8 C 45 % 2.09 C
190 04-04-2020 15:45:00 13.9 C 45 % 2.18 C
191 04-04-2020 15:50:00 14 C 44 % 1.95 C
192 04-04-2020 15:55:00 14 C 44 % 1.95 C
193 04-04-2020 16:00:00 14.2 C 44 % 2.14 C
194 04-04-2020 16:05:00 14.4 C 43 % 2 C
195 04-04-2020 16:10:00 14.4 C 43 % 2 C
196 04-04-2020 16:15:00 14.7 C 43 % 2.27 C
197 04-04-2020 16:20:00 14.8 C 42 % 2.03 C
198 04-04-2020 16:25:00 14.7 C 42 % 1.94 C
199 04-04-2020 16:30:00 14.7 C 43 % 2.27 C
200 04-04-2020 16:35:00 14.9 C 43 % 2.45 C
Sensor: Nr:Datum:Temp:Feuchte:Taupunkt:
Aussen-T/F 201 04-04-2020 16:40:00 15.2 C 43 % 2.72 C
202 04-04-2020 16:45:00 15.3 C 42 % 2.48 C
203 04-04-2020 16:50:00 15.4 C 42 % 2.57 C
204 04-04-2020 16:55:00 15.6 C 41 % 2.41 C
205 04-04-2020 17:00:00 15.7 C 42 % 2.84 C
206 04-04-2020 17:05:00 15.9 C 42 % 3.02 C
207 04-04-2020 17:10:00 16.1 C 40 % 2.51 C
208 04-04-2020 17:15:00 16.1 C 41 % 2.86 C
209 04-04-2020 17:20:00 15.9 C 41 % 2.68 C
210 04-04-2020 17:25:00 15.9 C 41 % 2.68 C
211 04-04-2020 17:30:00 15.8 C 42 % 2.93 C
212 04-04-2020 17:35:00 15.8 C 41 % 2.59 C
213 04-04-2020 17:40:00 15.7 C 43 % 3.17 C
214 04-04-2020 17:45:00 15.9 C 43 % 3.35 C
215 04-04-2020 17:50:00 16 C 42 % 3.11 C
216 04-04-2020 17:55:00 16.1 C 42 % 3.2 C
217 04-04-2020 18:00:00 16.3 C 44 % 4.04 C
218 04-04-2020 18:05:00 16.5 C 41 % 3.22 C
219 04-04-2020 18:10:00 16.5 C 43 % 3.89 C
220 04-04-2020 18:15:00 16.5 C 42 % 3.56 C
221 04-04-2020 18:20:00 16.4 C 42 % 3.47 C
222 04-04-2020 18:25:00 16.3 C 43 % 3.71 C
223 04-04-2020 18:30:00 16.1 C 43 % 3.53 C
224 04-04-2020 18:35:00 16.1 C 44 % 3.86 C
225 04-04-2020 18:40:00 16.2 C 44 % 3.95 C
Sensor: Nr:Datum:Temp:Feuchte:Taupunkt:
Aussen-T/F 226 04-04-2020 18:45:00 16.3 C 43 % 3.71 C
227 04-04-2020 18:50:00 16.1 C 44 % 3.86 C
228 04-04-2020 18:55:00 16 C 44 % 3.77 C
229 04-04-2020 19:00:00 16 C 45 % 4.09 C
230 04-04-2020 19:05:00 16 C 44 % 3.77 C
231 04-04-2020 19:10:00 15.9 C 44 % 3.68 C
232 04-04-2020 19:15:00 15.8 C 44 % 3.59 C
233 04-04-2020 19:20:00 15.6 C 45 % 3.72 C
234 04-04-2020 19:25:00 15.4 C 48 % 4.46 C
235 04-04-2020 19:30:00 15.3 C 46 % 3.76 C
236 04-04-2020 19:35:00 15.1 C 49 % 4.48 C
237 04-04-2020 19:40:00 14.9 C 51 % 4.86 C
238 04-04-2020 19:45:00 14.4 C 52 % 4.68 C
239 04-04-2020 19:50:00 13.9 C 53 % 4.49 C
240 04-04-2020 19:55:00 13.2 C 54 % 4.11 C
241 04-04-2020 20:00:00 12.6 C 56 % 4.07 C
242 04-04-2020 20:05:00 12.1 C 57 % 3.85 C
243 04-04-2020 20:10:00 11.7 C 58 % 3.72 C
244 04-04-2020 20:15:00 11.3 C 59 % 3.59 C
245 04-04-2020 20:20:00 10.9 C 61 % 3.69 C
246 04-04-2020 20:25:00 10.6 C 62 % 3.63 C
247 04-04-2020 20:30:00 10.3 C 63 % 3.58 C
248 04-04-2020 20:35:00 9.9 C 63 % 3.2 C
249 04-04-2020 20:40:00 9.7 C 63 % 3.01 C
250 04-04-2020 20:45:00 9.4 C 63 % 2.72 C
Sensor: Nr:Datum:Temp:Feuchte:Taupunkt:
Aussen-T/F 251 04-04-2020 20:50:00 9.2 C 63 % 2.53 C
252 04-04-2020 20:55:00 9 C 64 % 2.57 C
253 04-04-2020 21:00:00 8.8 C 64 % 2.38 C
254 04-04-2020 21:05:00 8.7 C 64 % 2.28 C
255 04-04-2020 21:10:00 8.6 C 65 % 2.4 C
256 04-04-2020 21:15:00 8.5 C 65 % 2.31 C
257 04-04-2020 21:20:00 8.4 C 65 % 2.21 C
258 04-04-2020 21:25:00 8.3 C 65 % 2.12 C
259 04-04-2020 21:30:00 8.2 C 66 % 2.24 C
260 04-04-2020 21:35:00 8.1 C 67 % 2.35 C
261 04-04-2020 21:40:00 8 C 67 % 2.26 C
262 04-04-2020 21:45:00 7.8 C 68 % 2.27 C
263 04-04-2020 21:50:00 7.7 C 68 % 2.18 C
264 04-04-2020 21:55:00 7.5 C 69 % 2.19 C
265 04-04-2020 22:00:00 7.3 C 69 % 2 C
266 04-04-2020 22:05:00 7.1 C 70 % 2.01 C
267 04-04-2020 22:10:00 6.8 C 71 % 1.92 C
268 04-04-2020 22:15:00 6.6 C 71 % 1.73 C
269 04-04-2020 22:20:00 6.4 C 72 % 1.73 C
270 04-04-2020 22:25:00 6.2 C 73 % 1.73 C
271 04-04-2020 22:30:00 6.2 C 74 % 1.92 C
272 04-04-2020 22:35:00 6.2 C 74 % 1.92 C
273 04-04-2020 22:40:00 6 C 74 % 1.73 C
274 04-04-2020 22:45:00 5.8 C 74 % 1.53 C
275 04-04-2020 22:50:00 5.7 C 74 % 1.44 C
Sensor: Nr:Datum:Temp:Feuchte:Taupunkt:
Aussen-T/F 276 04-04-2020 22:55:00 5.6 C 74 % 1.34 C
277 04-04-2020 23:00:00 5.4 C 74 % 1.15 C
278 04-04-2020 23:05:00 5.3 C 74 % 1.05 C
279 04-04-2020 23:10:00 5.2 C 74 % 0.95 C
280 04-04-2020 23:15:00 5.1 C 75 % 1.04 C
281 04-04-2020 23:20:00 4.9 C 75 % 0.85 C
282 04-04-2020 23:25:00 4.8 C 76 % 0.94 C
283 04-04-2020 23:30:00 4.6 C 77 % 0.92 C
284 04-04-2020 23:35:00 4.4 C 77 % 0.73 C
285 04-04-2020 23:40:00 4.4 C 78 % 0.91 C
286 04-04-2020 23:45:00 4.3 C 78 % 0.81 C
287 04-04-2020 23:50:00 4.3 C 78 % 0.81 C
288 04-04-2020 23:55:00 4.2 C 78 % 0.71 C
289 05-04-2020 00:00:00 4.1 C 78 % 0.62 C
290 05-04-2020 00:05:00 4 C 78 % 0.52 C
291 05-04-2020 00:10:00 3.9 C 79 % 0.6 C
292 05-04-2020 00:15:00 3.8 C 79 % 0.5 C
293 05-04-2020 00:20:00 3.7 C 80 % 0.58 C
294 05-04-2020 00:25:00 3.6 C 81 % 0.65 C
295 05-04-2020 00:30:00 3.5 C 81 % 0.55 C
296 05-04-2020 00:35:00 3.4 C 81 % 0.46 C
297 05-04-2020 00:40:00 3.3 C 82 % 0.53 C
298 05-04-2020 00:45:00 3.3 C 82 % 0.53 C
299 05-04-2020 00:50:00 3.3 C 82 % 0.53 C
300 05-04-2020 00:55:00 3.2 C 82 % 0.43 C
Sensor: Nr:Datum:Temp:Feuchte:Taupunkt:
Aussen-T/F 301 05-04-2020 01:00:00 3.1 C 82 % 0.33 C
302 05-04-2020 01:05:00 3.1 C 83 % 0.5 C
303 05-04-2020 01:10:00 2.9 C 83 % 0.31 C
304 05-04-2020 01:15:00 2.9 C 84 % 0.47 C
305 05-04-2020 01:20:00 2.9 C 84 % 0.47 C
306 05-04-2020 01:25:00 2.9 C 84 % 0.47 C
307 05-04-2020 01:30:00 2.9 C 85 % 0.63 C
308 05-04-2020 01:35:00 2.9 C 85 % 0.63 C
309 05-04-2020 01:40:00 2.9 C 84 % 0.47 C
310 05-04-2020 01:45:00 2.8 C 84 % 0.37 C
311 05-04-2020 01:50:00 2.8 C 85 % 0.54 C
312 05-04-2020 01:55:00 2.7 C 84 % 0.27 C
313 05-04-2020 02:00:00 2.6 C 85 % 0.34 C
314 05-04-2020 02:05:00 2.5 C 85 % 0.24 C
315 05-04-2020 02:10:00 2.4 C 86 % 0.3 C
316 05-04-2020 02:15:00 2.3 C 86 % 0.21 C
317 05-04-2020 02:20:00 2.3 C 87 % 0.36 C
318 05-04-2020 02:25:00 2.3 C 87 % 0.36 C
319 05-04-2020 02:30:00 2.3 C 87 % 0.36 C
320 05-04-2020 02:35:00 2.3 C 86 % 0.21 C
321 05-04-2020 02:40:00 2.3 C 87 % 0.36 C
322 05-04-2020 02:45:00 2.2 C 86 % 0.11 C
323 05-04-2020 02:50:00 2.2 C 87 % 0.27 C
324 05-04-2020 02:55:00 2.1 C 87 % 0.17 C
325 05-04-2020 03:00:00 2.1 C 87 % 0.17 C
Sensor: Nr:Datum:Temp:Feuchte:Taupunkt:
Aussen-T/F 326 05-04-2020 03:05:00 2 C 87 % 0.07 C
327 05-04-2020 03:10:00 1.9 C 87 % -0.03 C
328 05-04-2020 03:15:00 1.9 C 87 % -0.03 C
329 05-04-2020 03:20:00 1.9 C 88 % 0.13 C
330 05-04-2020 03:25:00 1.9 C 88 % 0.13 C
331 05-04-2020 03:30:00 1.8 C 88 % 0.03 C
332 05-04-2020 03:35:00 1.8 C 88 % 0.03 C
333 05-04-2020 03:40:00 1.7 C 88 % -0.07 C
334 05-04-2020 03:45:00 1.6 C 88 % -0.17 C
335 05-04-2020 03:50:00 1.6 C 88 % -0.17 C
336 05-04-2020 03:55:00 1.6 C 89 % -0.01 C
337 05-04-2020 04:00:00 1.5 C 89 % -0.11 C
338 05-04-2020 04:05:00 1.4 C 89 % -0.21 C
339 05-04-2020 04:10:00 1.4 C 89 % -0.21 C
340 05-04-2020 04:15:00 1.3 C 89 % -0.31 C
341 05-04-2020 04:20:00 1.3 C 90 % -0.15 C
342 05-04-2020 04:25:00 1.3 C 90 % -0.15 C
343 05-04-2020 04:30:00 1.3 C 90 % -0.15 C
344 05-04-2020 04:35:00 1.3 C 90 % -0.15 C
345 05-04-2020 04:40:00 1.2 C 90 % -0.25 C
346 05-04-2020 04:45:00 1.2 C 90 % -0.25 C
347 05-04-2020 04:50:00 1.1 C 90 % -0.35 C
348 05-04-2020 04:55:00 1.1 C 90 % -0.35 C
349 05-04-2020 05:00:00 1 C 90 % -0.45 C
350 05-04-2020 05:05:00 0.9 C 90 % -0.55 C
Sensor: Nr:Datum:Temp:Feuchte:Taupunkt:
Aussen-T/F 351 05-04-2020 05:10:00 0.9 C 91 % -0.4 C
352 05-04-2020 05:15:00 0.8 C 91 % -0.5 C
353 05-04-2020 05:20:00 0.8 C 91 % -0.5 C
354 05-04-2020 05:25:00 0.8 C 91 % -0.5 C
355 05-04-2020 05:30:00 0.7 C 91 % -0.6 C
356 05-04-2020 05:35:00 0.7 C 91 % -0.6 C
357 05-04-2020 05:40:00 0.6 C 91 % -0.7 C
358 05-04-2020 05:45:00 0.6 C 91 % -0.7 C
359 05-04-2020 05:50:00 0.5 C 91 % -0.79 C
360 05-04-2020 05:55:00 0.5 C 92 % -0.65 C
361 05-04-2020 06:00:00 0.5 C 92 % -0.65 C
362 05-04-2020 06:05:00 0.4 C 92 % -0.74 C
363 05-04-2020 06:10:00 0.4 C 92 % -0.74 C
364 05-04-2020 06:15:00 0.4 C 92 % -0.74 C
365 05-04-2020 06:20:00 0.4 C 92 % -0.74 C
366 05-04-2020 06:25:00 0.4 C 92 % -0.74 C
367 05-04-2020 06:30:00 0.4 C 92 % -0.74 C
368 05-04-2020 06:35:00 0.3 C 92 % -0.84 C
369 05-04-2020 06:40:00 0.3 C 92 % -0.84 C
370 05-04-2020 06:45:00 0.3 C 93 % -0.7 C
371 05-04-2020 06:50:00 0.3 C 93 % -0.7 C
372 05-04-2020 06:55:00 0.3 C 93 % -0.7 C
373 05-04-2020 07:00:00 0.3 C 93 % -0.7 C
374 05-04-2020 07:05:00 0.2 C 93 % -0.79 C
375 05-04-2020 07:10:00 0.2 C 93 % -0.79 C
Sensor: Nr:Datum:Temp:Feuchte:Taupunkt:
Aussen-T/F 376 05-04-2020 07:15:00 0.3 C 93 % -0.7 C
377 05-04-2020 07:20:00 0.3 C 93 % -0.7 C
378 05-04-2020 07:25:00 0.3 C 93 % -0.7 C
379 05-04-2020 07:30:00 0.3 C 93 % -0.7 C
380 05-04-2020 07:35:00 0.3 C 93 % -0.7 C
381 05-04-2020 07:40:00 0.4 C 93 % -0.6 C
382 05-04-2020 07:45:00 0.4 C 93 % -0.6 C
383 05-04-2020 07:50:00 0.4 C 93 % -0.6 C
384 05-04-2020 07:55:00 0.5 C 93 % -0.5 C
385 05-04-2020 08:00:00 0.5 C 93 % -0.5 C
386 05-04-2020 08:05:00 0.6 C 94 % -0.25 C
387 05-04-2020 08:10:00 0.6 C 94 % -0.25 C
388 05-04-2020 08:15:00 0.7 C 94 % -0.15 C
389 05-04-2020 08:20:00 0.7 C 94 % -0.15 C
390 05-04-2020 08:25:00 0.8 C 94 % -0.05 C
391 05-04-2020 08:30:00 0.9 C 94 % 0.05 C
392 05-04-2020 08:35:00 1.1 C 94 % 0.24 C
393 05-04-2020 08:40:00 1.2 C 94 % 0.34 C
394 05-04-2020 08:45:00 1.2 C 94 % 0.34 C
395 05-04-2020 08:50:00 1.3 C 94 % 0.44 C
396 05-04-2020 08:55:00 1.5 C 94 % 0.64 C
397 05-04-2020 09:00:00 1.6 C 94 % 0.74 C
398 05-04-2020 09:05:00 1.7 C 94 % 0.84 C
399 05-04-2020 09:10:00 1.8 C 94 % 0.94 C
400 05-04-2020 09:15:00 1.9 C 94 % 1.04 C
Sensor: Nr:Datum:Temp:Feuchte:Taupunkt:
Aussen-T/F 401 05-04-2020 09:20:00 2.2 C 94 % 1.34 C
402 05-04-2020 09:25:00 2.3 C 95 % 1.58 C
403 05-04-2020 09:30:00 2.6 C 95 % 1.88 C
404 05-04-2020 09:35:00 2.8 C 95 % 2.08 C
405 05-04-2020 09:40:00 3 C 95 % 2.28 C
406 05-04-2020 09:45:00 3.3 C 95 % 2.58 C
407 05-04-2020 09:50:00 3.4 C 94 % 2.53 C
408 05-04-2020 09:55:00 3.7 C 94 % 2.83 C
409 05-04-2020 10:00:00 3.8 C 94 % 2.93 C
410 05-04-2020 10:05:00 4.1 C 93 % 3.07 C
411 05-04-2020 10:10:00 4.4 C 93 % 3.37 C
412 05-04-2020 10:15:00 4.7 C 92 % 3.51 C
413 05-04-2020 10:20:00 4.9 C 92 % 3.71 C
414 05-04-2020 10:25:00 5.2 C 91 % 3.85 C
415 05-04-2020 10:30:00 5.6 C 90 % 4.09 C
416 05-04-2020 10:35:00 6.1 C 88 % 4.27 C
417 05-04-2020 10:40:00 6.5 C 87 % 4.5 C
418 05-04-2020 10:45:00 6.9 C 85 % 4.56 C
419 05-04-2020 10:50:00 7.3 C 84 % 4.78 C
420 05-04-2020 10:55:00 7.8 C 82 % 4.92 C
421 05-04-2020 11:00:00 8.3 C 80 % 5.06 C
422 05-04-2020 11:05:00 8.9 C 79 % 5.46 C
423 05-04-2020 11:10:00 9.4 C 76 % 5.39 C
424 05-04-2020 11:15:00 9.9 C 75 % 5.68 C
425 05-04-2020 11:20:00 10.3 C 71 % 5.28 C
Sensor: Nr:Datum:Temp:Feuchte:Taupunkt:
Aussen-T/F 426 05-04-2020 11:25:00 10.7 C 71 % 5.66 C
427 05-04-2020 11:30:00 11.4 C 64 % 4.84 C
428 05-04-2020 11:35:00 12.4 C 59 % 4.62 C
429 05-04-2020 11:40:00 13.1 C 56 % 4.53 C
430 05-04-2020 11:45:00 13.7 C 49 % 3.19 C
431 05-04-2020 11:50:00 14.2 C 47 % 3.06 C
432 05-04-2020 11:55:00 14.8 C 45 % 3 C
433 05-04-2020 12:00:00 15.3 C 43 % 2.81 C
434 05-04-2020 12:05:00 15.6 C 41 % 2.41 C
435 05-04-2020 12:10:00 15.8 C 42 % 2.93 C
436 05-04-2020 12:15:00 16.1 C 42 % 3.2 C
437 05-04-2020 12:20:00 16.2 C 40 % 2.6 C
438 05-04-2020 12:25:00 16.3 C 39 % 2.34 C
439 05-04-2020 12:30:00 16.4 C 38 % 2.06 C
440 05-04-2020 12:35:00 16.6 C 39 % 2.6 C
441 05-04-2020 12:40:00 16.7 C 40 % 3.05 C
442 05-04-2020 12:45:00 16.8 C 38 % 2.42 C
443 05-04-2020 12:50:00 16.8 C 39 % 2.78 C
444 05-04-2020 12:55:00 16.8 C 37 % 2.04 C
445 05-04-2020 13:00:00 16.8 C 38 % 2.42 C
446 05-04-2020 13:05:00 16.9 C 37 % 2.13 C
447 05-04-2020 13:10:00 17.1 C 38 % 2.68 C
448 05-04-2020 13:15:00 17.3 C 38 % 2.86 C
449 05-04-2020 13:20:00 17.2 C 37 % 2.4 C
450 05-04-2020 13:25:00 17.3 C 37 % 2.49 C
Sensor: Nr:Datum:Temp:Feuchte:Taupunkt:
Aussen-T/F 451 05-04-2020 13:30:00 17.4 C 37 % 2.58 C
452 05-04-2020 13:35:00 17.4 C 37 % 2.58 C
453 05-04-2020 13:40:00 17.3 C 38 % 2.86 C
454 05-04-2020 13:45:00 17.3 C 36 % 2.1 C
455 05-04-2020 13:50:00 17.3 C 37 % 2.49 C
456 05-04-2020 13:55:00 17.4 C 36 % 2.19 C
457 05-04-2020 14:00:00 17.6 C 37 % 2.75 C
458 05-04-2020 14:05:00 17.7 C 37 % 2.84 C
459 05-04-2020 14:10:00 17.9 C 35 % 2.24 C
460 05-04-2020 14:15:00 17.9 C 37 % 3.02 C
461 05-04-2020 14:20:00 18.1 C 36 % 2.81 C
462 05-04-2020 14:25:00 18.2 C 36 % 2.9 C
463 05-04-2020 14:30:00 18.2 C 35 % 2.5 C
464 05-04-2020 14:35:00 18.3 C 36 % 2.99 C
465 05-04-2020 14:40:00 18.6 C 35 % 2.86 C
466 05-04-2020 14:45:00 18.7 C 35 % 2.94 C
467 05-04-2020 14:50:00 18.8 C 34 % 2.62 C
468 05-04-2020 14:55:00 18.6 C 35 % 2.86 C
469 05-04-2020 15:00:00 18.6 C 35 % 2.86 C
470 05-04-2020 15:05:00 18.8 C 35 % 3.03 C
471 05-04-2020 15:10:00 18.9 C 34 % 2.71 C
472 05-04-2020 15:15:00 19 C 33 % 2.38 C
473 05-04-2020 15:20:00 18.9 C 34 % 2.71 C
474 05-04-2020 15:25:00 18.9 C 33 % 2.29 C
475 05-04-2020 15:30:00 19.1 C 33 % 2.47 C
Sensor: Nr:Datum:Temp:Feuchte:Taupunkt:
Aussen-T/F 476 05-04-2020 15:35:00 18.9 C 32 % 1.86 C
477 05-04-2020 15:40:00 18.8 C 33 % 2.21 C
478 05-04-2020 15:45:00 18.9 C 35 % 3.12 C
479 05-04-2020 15:50:00 19 C 34 % 2.8 C
480 05-04-2020 15:55:00 19.2 C 33 % 2.56 C
481 05-04-2020 16:00:00 19.2 C 33 % 2.56 C
482 05-04-2020 16:05:00 19.3 C 32 % 2.21 C
483 05-04-2020 16:10:00 19.3 C 33 % 2.64 C
484 05-04-2020 16:15:00 19.4 C 33 % 2.73 C
485 05-04-2020 16:20:00 19.5 C 33 % 2.82 C
486 05-04-2020 16:25:00 19.6 C 32 % 2.47 C
487 05-04-2020 16:30:00 19.6 C 34 % 3.33 C
488 05-04-2020 16:35:00 19.8 C 33 % 3.08 C
489 05-04-2020 16:40:00 19.9 C 33 % 3.17 C
490 05-04-2020 16:45:00 20.3 C 32 % 3.08 C
491 05-04-2020 16:50:00 20.3 C 31 % 2.64 C
492 05-04-2020 16:55:00 20.2 C 31 % 2.55 C
493 05-04-2020 17:00:00 20.2 C 31 % 2.55 C
494 05-04-2020 17:05:00 20.1 C 33 % 3.34 C
495 05-04-2020 17:10:00 20.5 C 32 % 3.26 C
496 05-04-2020 17:15:00 20.9 C 32 % 3.61 C
497 05-04-2020 17:20:00 21.2 C 30 % 2.95 C
498 05-04-2020 17:25:00 21.1 C 31 % 3.33 C
499 05-04-2020 17:30:00 21.2 C 30 % 2.95 C
500 05-04-2020 17:35:00 21.2 C 30 % 2.95 C
Sensor: Nr:Datum:Temp:Feuchte:Taupunkt:
Aussen-T/F 501 05-04-2020 17:40:00 21.2 C 30 % 2.95 C
502 05-04-2020 17:45:00 21.1 C 30 % 2.87 C
503 05-04-2020 17:50:00 21 C 30 % 2.78 C
504 05-04-2020 17:55:00 21.1 C 30 % 2.87 C
505 05-04-2020 18:00:00 20.9 C 31 % 3.16 C
506 05-04-2020 18:05:00 20.9 C 30 % 2.69 C
507 05-04-2020 18:10:00 20.7 C 30 % 2.52 C
508 05-04-2020 18:15:00 20.4 C 31 % 2.72 C
509 05-04-2020 18:20:00 20.5 C 31 % 2.81 C
510 05-04-2020 18:25:00 20.7 C 32 % 3.43 C
511 05-04-2020 18:30:00 20.7 C 31 % 2.98 C
512 05-04-2020 18:35:00 20.7 C 32 % 3.43 C
513 05-04-2020 18:40:00 20.6 C 31 % 2.9 C
514 05-04-2020 18:45:00 20.4 C 31 % 2.72 C
515 05-04-2020 18:50:00 20.4 C 31 % 2.72 C
516 05-04-2020 18:55:00 20.4 C 31 % 2.72 C
517 05-04-2020 19:00:00 20.3 C 31 % 2.64 C
518 05-04-2020 19:05:00 20.3 C 31 % 2.64 C
519 05-04-2020 19:10:00 20.2 C 31 % 2.55 C
520 05-04-2020 19:15:00 20.1 C 32 % 2.91 C
521 05-04-2020 19:20:00 19.9 C 33 % 3.17 C
522 05-04-2020 19:25:00 19.8 C 36 % 4.31 C
523 05-04-2020 19:30:00 19.6 C 35 % 3.74 C
524 05-04-2020 19:35:00 19.4 C 36 % 3.96 C
525 05-04-2020 19:40:00 19.1 C 38 % 4.46 C
Sensor: Nr:Datum:Temp:Feuchte:Taupunkt:
Aussen-T/F 526 05-04-2020 19:45:00 18.6 C 39 % 4.39 C
527 05-04-2020 19:50:00 17.9 C 40 % 4.12 C
528 05-04-2020 19:55:00 17.2 C 42 % 4.19 C
529 05-04-2020 20:00:00 16.4 C 44 % 4.13 C
530 05-04-2020 20:05:00 15.8 C 45 % 3.9 C
531 05-04-2020 20:10:00 15.1 C 47 % 3.88 C
532 05-04-2020 20:15:00 14.6 C 47 % 3.43 C
533 05-04-2020 20:20:00 14.2 C 50 % 3.94 C
534 05-04-2020 20:25:00 13.8 C 50 % 3.57 C
535 05-04-2020 20:30:00 13.4 C 51 % 3.48 C
536 05-04-2020 20:35:00 13.1 C 52 % 3.48 C
537 05-04-2020 20:40:00 12.8 C 53 % 3.47 C
538 05-04-2020 20:45:00 12.6 C 54 % 3.55 C
539 05-04-2020 20:50:00 12.4 C 54 % 3.36 C
540 05-04-2020 20:55:00 12.3 C 54 % 3.27 C
541 05-04-2020 21:00:00 12.1 C 56 % 3.6 C
542 05-04-2020 21:05:00 11.9 C 56 % 3.41 C
543 05-04-2020 21:10:00 11.8 C 57 % 3.57 C
544 05-04-2020 21:15:00 11.7 C 57 % 3.48 C
545 05-04-2020 21:20:00 11.6 C 57 % 3.38 C
546 05-04-2020 21:25:00 11.4 C 57 % 3.2 C
547 05-04-2020 21:30:00 11.3 C 58 % 3.35 C
548 05-04-2020 21:35:00 11.2 C 58 % 3.25 C
549 05-04-2020 21:40:00 11.1 C 58 % 3.16 C
550 05-04-2020 21:45:00 10.9 C 59 % 3.21 C
Sensor: Nr:Datum:Temp:Feuchte:Taupunkt:
Aussen-T/F 551 05-04-2020 21:50:00 10.8 C 59 % 3.12 C
552 05-04-2020 21:55:00 10.6 C 60 % 3.17 C
553 05-04-2020 22:00:00 10.4 C 60 % 2.98 C
554 05-04-2020 22:05:00 10.3 C 61 % 3.12 C
555 05-04-2020 22:10:00 10.1 C 62 % 3.16 C
556 05-04-2020 22:15:00 9.9 C 62 % 2.97 C
557 05-04-2020 22:20:00 9.7 C 62 % 2.78 C
558 05-04-2020 22:25:00 9.6 C 63 % 2.91 C
559 05-04-2020 22:30:00 9.5 C 63 % 2.82 C
560 05-04-2020 22:35:00 9.4 C 64 % 2.95 C
561 05-04-2020 22:40:00 9.2 C 64 % 2.76 C
562 05-04-2020 22:45:00 9.1 C 64 % 2.66 C
563 05-04-2020 22:50:00 8.9 C 65 % 2.69 C
564 05-04-2020 22:55:00 8.9 C 66 % 2.9 C
565 05-04-2020 23:00:00 8.8 C 67 % 3.02 C
566 05-04-2020 23:05:00 8.6 C 68 % 3.04 C
567 05-04-2020 23:10:00 8.4 C 68 % 2.85 C
568 05-04-2020 23:15:00 8.2 C 69 % 2.86 C
569 05-04-2020 23:20:00 8.1 C 69 % 2.77 C
570 05-04-2020 23:25:00 8 C 69 % 2.67 C
571 05-04-2020 23:30:00 7.9 C 69 % 2.57 C
572 05-04-2020 23:35:00 7.8 C 69 % 2.48 C
573 05-04-2020 23:40:00 7.7 C 69 % 2.38 C
574 05-04-2020 23:45:00 7.7 C 70 % 2.58 C
575 05-04-2020 23:50:00 7.6 C 70 % 2.49 C
Sensor: Nr:Datum:Temp:Feuchte:Taupunkt:
Aussen-T/F 576 05-04-2020 23:55:00 7.4 C 70 % 2.3 C
577 06-04-2020 00:00:00 7.3 C 71 % 2.4 C
578 06-04-2020 00:05:00 7.2 C 71 % 2.3 C
579 06-04-2020 00:10:00 7.1 C 72 % 2.4 C
580 06-04-2020 00:15:00 7.1 C 73 % 2.6 C
581 06-04-2020 00:20:00 7.1 C 73 % 2.6 C
582 06-04-2020 00:25:00 7 C 73 % 2.5 C
583 06-04-2020 00:30:00 6.9 C 72 % 2.21 C
584 06-04-2020 00:35:00 6.9 C 73 % 2.4 C
585 06-04-2020 00:40:00 6.7 C 73 % 2.21 C
586 06-04-2020 00:45:00 6.6 C 73 % 2.12 C
587 06-04-2020 00:50:00 6.5 C 75 % 2.4 C
588 06-04-2020 00:55:00 6.4 C 75 % 2.3 C
589 06-04-2020 01:00:00 6.3 C 76 % 2.39 C
590 06-04-2020 01:05:00 6.2 C 76 % 2.29 C
591 06-04-2020 01:10:00 6.2 C 77 % 2.48 C
592 06-04-2020 01:15:00 6.1 C 76 % 2.2 C
593 06-04-2020 01:20:00 6 C 77 % 2.28 C
594 06-04-2020 01:25:00 5.9 C 77 % 2.19 C
595 06-04-2020 01:30:00 5.8 C 77 % 2.09 C
596 06-04-2020 01:35:00 5.7 C 78 % 2.17 C
597 06-04-2020 01:40:00 5.6 C 78 % 2.07 C
598 06-04-2020 01:45:00 5.5 C 79 % 2.16 C
599 06-04-2020 01:50:00 5.4 C 79 % 2.06 C
600 06-04-2020 01:55:00 5.4 C 79 % 2.06 C
Sensor: Nr:Datum:Temp:Feuchte:Taupunkt:
Aussen-T/F 601 06-04-2020 02:00:00 5.4 C 80 % 2.23 C
602 06-04-2020 02:05:00 5.3 C 79 % 1.96 C
603 06-04-2020 02:10:00 5.1 C 80 % 1.94 C
604 06-04-2020 02:15:00 5 C 81 % 2.02 C
605 06-04-2020 02:20:00 5 C 81 % 2.02 C
606 06-04-2020 02:25:00 4.9 C 80 % 1.75 C
607 06-04-2020 02:30:00 4.9 C 81 % 1.92 C
608 06-04-2020 02:35:00 4.8 C 81 % 1.82 C
609 06-04-2020 02:40:00 4.8 C 81 % 1.82 C
610 06-04-2020 02:45:00 4.8 C 81 % 1.82 C
611 06-04-2020 02:50:00 4.7 C 81 % 1.73 C
612 06-04-2020 02:55:00 4.6 C 81 % 1.63 C
613 06-04-2020 03:00:00 4.4 C 82 % 1.6 C
614 06-04-2020 03:05:00 4.4 C 82 % 1.6 C
615 06-04-2020 03:10:00 4.3 C 82 % 1.51 C
616 06-04-2020 03:15:00 4.3 C 82 % 1.51 C
617 06-04-2020 03:20:00 4.2 C 83 % 1.58 C
618 06-04-2020 03:25:00 4.2 C 83 % 1.58 C
619 06-04-2020 03:30:00 4.2 C 83 % 1.58 C
620 06-04-2020 03:35:00 4.1 C 83 % 1.48 C
621 06-04-2020 03:40:00 4.1 C 83 % 1.48 C
622 06-04-2020 03:45:00 4 C 83 % 1.38 C
623 06-04-2020 03:50:00 3.9 C 83 % 1.28 C
624 06-04-2020 03:55:00 3.9 C 84 % 1.45 C
625 06-04-2020 04:00:00 3.8 C 84 % 1.35 C
Sensor: Nr:Datum:Temp:Feuchte:Taupunkt:
Aussen-T/F 626 06-04-2020 04:05:00 3.8 C 84 % 1.35 C
627 06-04-2020 04:10:00 3.8 C 84 % 1.35 C
628 06-04-2020 04:15:00 3.8 C 84 % 1.35 C
629 06-04-2020 04:20:00 3.8 C 84 % 1.35 C
630 06-04-2020 04:25:00 3.8 C 84 % 1.35 C
631 06-04-2020 04:30:00 3.7 C 84 % 1.25 C
632 06-04-2020 04:35:00 3.6 C 84 % 1.16 C
633 06-04-2020 04:40:00 3.5 C 85 % 1.22 C
634 06-04-2020 04:45:00 3.4 C 85 % 1.12 C
635 06-04-2020 04:50:00 3.3 C 85 % 1.03 C
636 06-04-2020 04:55:00 3.2 C 86 % 1.09 C
637 06-04-2020 05:00:00 3.2 C 86 % 1.09 C
638 06-04-2020 05:05:00 3.2 C 86 % 1.09 C
639 06-04-2020 05:10:00 3.2 C 86 % 1.09 C
640 06-04-2020 05:15:00 3.2 C 86 % 1.09 C
641 06-04-2020 05:20:00 3.1 C 86 % 0.99 C
642 06-04-2020 05:25:00 3 C 86 % 0.89 C
643 06-04-2020 05:30:00 2.9 C 86 % 0.8 C
644 06-04-2020 05:35:00 2.9 C 87 % 0.96 C
645 06-04-2020 05:40:00 2.9 C 87 % 0.96 C
646 06-04-2020 05:45:00 2.8 C 87 % 0.86 C
647 06-04-2020 05:50:00 2.8 C 87 % 0.86 C
648 06-04-2020 05:55:00 2.7 C 87 % 0.76 C
649 06-04-2020 06:00:00 2.6 C 87 % 0.66 C
650 06-04-2020 06:05:00 2.6 C 88 % 0.82 C
Sensor: Nr:Datum:Temp:Feuchte:Taupunkt:
Aussen-T/F 651 06-04-2020 06:10:00 2.4 C 88 % 0.62 C
652 06-04-2020 06:15:00 2.4 C 88 % 0.62 C
653 06-04-2020 06:20:00 2.3 C 88 % 0.52 C
654 06-04-2020 06:25:00 2.2 C 88 % 0.42 C
655 06-04-2020 06:30:00 2.2 C 89 % 0.58 C
656 06-04-2020 06:35:00 2.1 C 89 % 0.48 C
657 06-04-2020 06:40:00 2.1 C 89 % 0.48 C
658 06-04-2020 06:45:00 2.1 C 89 % 0.48 C
659 06-04-2020 06:50:00 2.1 C 89 % 0.48 C
660 06-04-2020 06:55:00 2.1 C 89 % 0.48 C
661 06-04-2020 07:00:00 2.1 C 90 % 0.64 C
662 06-04-2020 07:05:00 2.2 C 90 % 0.73 C
663 06-04-2020 07:10:00 2.2 C 90 % 0.73 C
664 06-04-2020 07:15:00 2.3 C 90 % 0.83 C
665 06-04-2020 07:20:00 2.4 C 91 % 1.08 C
666 06-04-2020 07:25:00 2.4 C 90 % 0.93 C
667 06-04-2020 07:30:00 2.4 C 90 % 0.93 C
668 06-04-2020 07:35:00 2.4 C 90 % 0.93 C
669 06-04-2020 07:40:00 2.4 C 90 % 0.93 C
670 06-04-2020 07:45:00 2.4 C 90 % 0.93 C
671 06-04-2020 07:50:00 2.6 C 91 % 1.28 C
672 06-04-2020 07:55:00 2.7 C 90 % 1.23 C
673 06-04-2020 08:00:00 2.6 C 90 % 1.13 C
674 06-04-2020 08:05:00 2.7 C 90 % 1.23 C
675 06-04-2020 08:10:00 2.7 C 91 % 1.38 C
Sensor: Nr:Datum:Temp:Feuchte:Taupunkt:
Aussen-T/F 676 06-04-2020 08:15:00 2.8 C 91 % 1.48 C
677 06-04-2020 08:20:00 2.9 C 91 % 1.58 C
678 06-04-2020 08:25:00 3.1 C 91 % 1.78 C
679 06-04-2020 08:30:00 3.4 C 90 % 1.92 C
680 06-04-2020 08:35:00 3.6 C 90 % 2.12 C
681 06-04-2020 08:40:00 3.7 C 89 % 2.06 C
682 06-04-2020 08:45:00 3.8 C 89 % 2.16 C
683 06-04-2020 08:50:00 3.9 C 89 % 2.26 C
684 06-04-2020 08:55:00 3.9 C 88 % 2.1 C
685 06-04-2020 09:00:00 3.9 C 88 % 2.1 C
686 06-04-2020 09:05:00 4 C 88 % 2.2 C
687 06-04-2020 09:10:00 4.1 C 88 % 2.3 C
688 06-04-2020 09:15:00 4.2 C 88 % 2.39 C
689 06-04-2020 09:20:00 4.2 C 88 % 2.39 C
690 06-04-2020 09:25:00 4.3 C 88 % 2.49 C
691 06-04-2020 09:30:00 4.4 C 88 % 2.59 C
692 06-04-2020 09:35:00 4.6 C 88 % 2.79 C
693 06-04-2020 09:40:00 4.8 C 88 % 2.99 C
694 06-04-2020 09:45:00 5 C 88 % 3.18 C
695 06-04-2020 09:50:00 5.2 C 88 % 3.38 C
696 06-04-2020 09:55:00 5.3 C 88 % 3.48 C
697 06-04-2020 10:00:00 5.6 C 87 % 3.61 C
698 06-04-2020 10:05:00 5.9 C 86 % 3.74 C
699 06-04-2020 10:10:00 6.2 C 85 % 3.87 C
700 06-04-2020 10:15:00 6.4 C 85 % 4.07 C
Sensor: Nr:Datum:Temp:Feuchte:Taupunkt:
Aussen-T/F 701 06-04-2020 10:20:00 6.7 C 84 % 4.19 C
702 06-04-2020 10:25:00 7.1 C 83 % 4.41 C
703 06-04-2020 10:30:00 7.4 C 82 % 4.53 C
704 06-04-2020 10:35:00 8 C 80 % 4.77 C
705 06-04-2020 10:40:00 8.4 C 78 % 4.79 C
706 06-04-2020 10:45:00 8.8 C 77 % 5 C
707 06-04-2020 10:50:00 9.4 C 76 % 5.39 C
708 06-04-2020 10:55:00 9.9 C 73 % 5.29 C
709 06-04-2020 11:00:00 10.5 C 72 % 5.67 C
710 06-04-2020 11:05:00 11.2 C 68 % 5.52 C
711 06-04-2020 11:10:00 11.7 C 66 % 5.57 C
712 06-04-2020 11:15:00 12.3 C 67 % 6.36 C
713 06-04-2020 11:20:00 12.7 C 62 % 5.62 C
714 06-04-2020 11:25:00 13.3 C 56 % 4.72 C
715 06-04-2020 11:30:00 14.2 C 54 % 5.04 C
716 06-04-2020 11:35:00 15.3 C 49 % 4.66 C
717 06-04-2020 11:40:00 16.1 C 45 % 4.18 C
718 06-04-2020 11:45:00 16.7 C 42 % 3.74 C
719 06-04-2020 11:50:00 17.1 C 43 % 4.43 C
720 06-04-2020 11:55:00 17.3 C 41 % 3.94 C
721 06-04-2020 12:00:00 17.6 C 40 % 3.86 C
722 06-04-2020 12:05:00 17.9 C 38 % 3.4 C
723 06-04-2020 12:10:00 18.1 C 38 % 3.57 C
724 06-04-2020 12:15:00 18.3 C 37 % 3.38 C
725 06-04-2020 12:20:00 18.6 C 38 % 4.02 C
Sensor: Nr:Datum:Temp:Feuchte:Taupunkt:
Aussen-T/F 726 06-04-2020 12:25:00 18.7 C 36 % 3.34 C
727 06-04-2020 12:30:00 18.9 C 35 % 3.12 C
728 06-04-2020 12:35:00 19.1 C 35 % 3.3 C
729 06-04-2020 12:40:00 19.2 C 35 % 3.38 C
730 06-04-2020 12:45:00 19.3 C 35 % 3.47 C
731 06-04-2020 12:50:00 19.4 C 35 % 3.56 C
732 06-04-2020 12:55:00 19.4 C 36 % 3.96 C
733 06-04-2020 13:00:00 19.6 C 34 % 3.33 C
734 06-04-2020 13:05:00 19.7 C 35 % 3.82 C
735 06-04-2020 13:10:00 19.8 C 35 % 3.91 C
736 06-04-2020 13:15:00 19.9 C 34 % 3.59 C
737 06-04-2020 13:20:00 20.1 C 34 % 3.77 C
738 06-04-2020 13:25:00 20.2 C 34 % 3.85 C
739 06-04-2020 13:30:00 20.2 C 35 % 4.26 C
740 06-04-2020 13:35:00 20.3 C 35 % 4.35 C
741 06-04-2020 13:40:00 20.4 C 36 % 4.84 C
742 06-04-2020 13:45:00 20.5 C 36 % 4.93 C
743 06-04-2020 13:50:00 20.7 C 34 % 4.29 C
744 06-04-2020 13:55:00 20.8 C 34 % 4.38 C
745 06-04-2020 14:00:00 21 C 34 % 4.55 C
746 06-04-2020 14:05:00 21.2 C 34 % 4.73 C
747 06-04-2020 14:10:00 21.2 C 33 % 4.3 C
748 06-04-2020 14:15:00 21.3 C 35 % 5.23 C
749 06-04-2020 14:20:00 21.5 C 32 % 4.13 C
750 06-04-2020 14:25:00 21.7 C 32 % 4.3 C
Sensor: Nr:Datum:Temp:Feuchte:Taupunkt:
Aussen-T/F 751 06-04-2020 14:30:00 21.9 C 33 % 4.92 C
752 06-04-2020 14:35:00 22.2 C 32 % 4.74 C
753 06-04-2020 14:40:00 22.4 C 30 % 3.99 C
754 06-04-2020 14:45:00 22.6 C 30 % 4.16 C
755 06-04-2020 14:50:00 22.6 C 28 % 3.19 C
756 06-04-2020 14:55:00 22.7 C 25 % 1.68 C
757 06-04-2020 15:00:00 22.8 C 25 % 1.77 C
758 06-04-2020 15:05:00 22.9 C 23 % 0.69 C
759 06-04-2020 15:10:00 22.8 C 24 % 1.2 C
760 06-04-2020 15:15:00 22.7 C 25 % 1.68 C
761 06-04-2020 15:20:00 22.6 C 26 % 2.14 C
762 06-04-2020 15:25:00 22.6 C 26 % 2.14 C
763 06-04-2020 15:30:00 22.6 C 24 % 1.03 C
764 06-04-2020 15:35:00 22.6 C 25 % 1.6 C
765 06-04-2020 15:40:00 22.6 C 25 % 1.6 C
766 06-04-2020 15:45:00 22.6 C 25 % 1.6 C
767 06-04-2020 15:50:00 22.6 C 25 % 1.6 C
768 06-04-2020 15:55:00 22.8 C 26 % 2.31 C
769 06-04-2020 16:00:00 23 C 26 % 2.48 C
770 06-04-2020 16:05:00 23.2 C 26 % 2.65 C
771 06-04-2020 16:10:00 23.4 C 25 % 2.27 C
772 06-04-2020 16:15:00 23.6 C 25 % 2.44 C
773 06-04-2020 16:20:00 23.8 C 24 % 2.04 C
774 06-04-2020 16:25:00 23.8 C 23 % 1.44 C
775 06-04-2020 16:30:00 23.9 C 26 % 3.25 C
Sensor: Nr:Datum:Temp:Feuchte:Taupunkt:
Aussen-T/F 776 06-04-2020 16:35:00 23.9 C 26 % 3.25 C
777 06-04-2020 16:40:00 24.1 C 27 % 3.95 C
778 06-04-2020 16:45:00 24.3 C 26 % 3.59 C
779 06-04-2020 16:50:00 24.3 C 26 % 3.59 C
780 06-04-2020 16:55:00 24.1 C 28 % 4.47 C
781 06-04-2020 17:00:00 23.8 C 27 % 3.7 C
782 06-04-2020 17:05:00 23.8 C 28 % 4.21 C
783 06-04-2020 17:10:00 23.6 C 27 % 3.53 C
784 06-04-2020 17:15:00 23.7 C 28 % 4.13 C
785 06-04-2020 17:20:00 23.8 C 28 % 4.21 C
786 06-04-2020 17:25:00 23.9 C 26 % 3.25 C
787 06-04-2020 17:30:00 23.9 C 27 % 3.78 C
788 06-04-2020 17:35:00 23.8 C 26 % 3.16 C
789 06-04-2020 17:40:00 23.7 C 27 % 3.61 C
790 06-04-2020 17:45:00 23.9 C 28 % 4.3 C
791 06-04-2020 17:50:00 24.1 C 26 % 3.42 C
792 06-04-2020 17:55:00 23.9 C 26 % 3.25 C
793 06-04-2020 18:00:00 23.8 C 27 % 3.7 C
794 06-04-2020 18:05:00 23.7 C 26 % 3.08 C
795 06-04-2020 18:10:00 23.7 C 26 % 3.08 C
796 06-04-2020 18:15:00 23.4 C 26 % 2.82 C
797 06-04-2020 18:20:00 23.5 C 27 % 3.44 C
798 06-04-2020 18:25:00 23.6 C 26 % 2.99 C
799 06-04-2020 18:30:00 23.5 C 26 % 2.91 C
800 06-04-2020 18:35:00 23.4 C 27 % 3.35 C
Sensor: Nr:Datum:Temp:Feuchte:Taupunkt:
Aussen-T/F 801 06-04-2020 18:40:00 23.3 C 26 % 2.74 C
802 06-04-2020 18:45:00 23.3 C 26 % 2.74 C
803 06-04-2020 18:50:00 23.2 C 27 % 3.18 C
804 06-04-2020 18:55:00 23.1 C 27 % 3.1 C
805 06-04-2020 19:00:00 22.9 C 27 % 2.93 C
806 06-04-2020 19:05:00 22.8 C 28 % 3.36 C
807 06-04-2020 19:10:00 22.7 C 29 % 3.77 C
808 06-04-2020 19:15:00 22.6 C 31 % 4.63 C
809 06-04-2020 19:20:00 22.3 C 31 % 4.37 C
810 06-04-2020 19:25:00 22 C 31 % 4.11 C
811 06-04-2020 19:30:00 21.7 C 31 % 3.85 C
812 06-04-2020 19:35:00 21.3 C 34 % 4.82 C
813 06-04-2020 19:40:00 20.8 C 36 % 5.2 C
814 06-04-2020 19:45:00 20.4 C 35 % 4.44 C
815 06-04-2020 19:50:00 20 C 37 % 4.88 C
816 06-04-2020 19:55:00 19.5 C 38 % 4.82 C
817 06-04-2020 20:00:00 18.9 C 40 % 5.02 C
818 06-04-2020 20:05:00 18.2 C 41 % 4.75 C
819 06-04-2020 20:10:00 17.6 C 43 % 4.89 C
820 06-04-2020 20:15:00 17.1 C 45 % 5.08 C
821 06-04-2020 20:20:00 16.6 C 45 % 4.63 C
822 06-04-2020 20:25:00 16.2 C 46 % 4.58 C
823 06-04-2020 20:30:00 15.8 C 48 % 4.82 C
824 06-04-2020 20:35:00 15.5 C 48 % 4.55 C
825 06-04-2020 20:40:00 15.3 C 50 % 4.95 C
Sensor: Nr:Datum:Temp:Feuchte:Taupunkt:
Aussen-T/F 826 06-04-2020 20:45:00 15 C 50 % 4.67 C
827 06-04-2020 20:50:00 14.7 C 52 % 4.96 C
828 06-04-2020 20:55:00 14.5 C 53 % 5.05 C
829 06-04-2020 21:00:00 14.2 C 53 % 4.77 C
830 06-04-2020 21:05:00 14 C 54 % 4.85 C
831 06-04-2020 21:10:00 13.9 C 54 % 4.76 C
832 06-04-2020 21:15:00 13.7 C 55 % 4.83 C
833 06-04-2020 21:20:00 13.6 C 56 % 5 C
834 06-04-2020 21:25:00 13.3 C 56 % 4.72 C
835 06-04-2020 21:30:00 13.2 C 57 % 4.88 C
836 06-04-2020 21:35:00 12.9 C 57 % 4.6 C
837 06-04-2020 21:40:00 12.8 C 58 % 4.75 C
838 06-04-2020 21:45:00 12.6 C 57 % 4.32 C
839 06-04-2020 21:50:00 12.3 C 58 % 4.28 C
840 06-04-2020 21:55:00 12.1 C 59 % 4.34 C
841 06-04-2020 22:00:00 12 C 60 % 4.49 C
842 06-04-2020 22:05:00 11.9 C 60 % 4.39 C
843 06-04-2020 22:10:00 11.8 C 62 % 4.77 C
844 06-04-2020 22:15:00 11.6 C 62 % 4.58 C
845 06-04-2020 22:20:00 11.3 C 62 % 4.29 C
846 06-04-2020 22:25:00 11 C 63 % 4.24 C
847 06-04-2020 22:30:00 10.8 C 64 % 4.27 C
848 06-04-2020 22:35:00 10.7 C 64 % 4.18 C
849 06-04-2020 22:40:00 10.6 C 65 % 4.3 C
850 06-04-2020 22:45:00 10.4 C 64 % 3.89 C
Sensor: Nr:Datum:Temp:Feuchte:Taupunkt:
Aussen-T/F 851 06-04-2020 22:50:00 10.4 C 64 % 3.89 C
852 06-04-2020 22:55:00 10.3 C 65 % 4.02 C
853 06-04-2020 23:00:00 10.2 C 65 % 3.92 C
854 06-04-2020 23:05:00 10.2 C 65 % 3.92 C
855 06-04-2020 23:10:00 10.1 C 65 % 3.83 C
856 06-04-2020 23:15:00 10.1 C 64 % 3.61 C
857 06-04-2020 23:20:00 10.1 C 65 % 3.83 C
858 06-04-2020 23:25:00 10.1 C 65 % 3.83 C
859 06-04-2020 23:30:00 10.1 C 65 % 3.83 C
860 06-04-2020 23:35:00 9.9 C 65 % 3.64 C
861 06-04-2020 23:40:00 9.8 C 65 % 3.54 C
862 06-04-2020 23:45:00 9.8 C 66 % 3.76 C
863 06-04-2020 23:50:00 9.8 C 67 % 3.97 C
864 06-04-2020 23:55:00 9.9 C 68 % 4.28 C
865 07-04-2020 00:00:00 10 C 68 % 4.38 C
866 07-04-2020 00:05:00 10.1 C 68 % 4.47 C
867 07-04-2020 00:10:00 10.1 C 69 % 4.68 C
868 07-04-2020 00:15:00 9.8 C 69 % 4.39 C
869 07-04-2020 00:20:00 9.6 C 70 % 4.41 C
870 07-04-2020 00:25:00 9.4 C 70 % 4.21 C
871 07-04-2020 00:30:00 9.3 C 70 % 4.12 C
872 07-04-2020 00:35:00 9.3 C 70 % 4.12 C
873 07-04-2020 00:40:00 9.3 C 70 % 4.12 C
874 07-04-2020 00:45:00 9.3 C 70 % 4.12 C
875 07-04-2020 00:50:00 9.3 C 70 % 4.12 C
Sensor: Nr:Datum:Temp:Feuchte:Taupunkt:
Aussen-T/F 876 07-04-2020 00:55:00 9.3 C 71 % 4.32 C
877 07-04-2020 01:00:00 9.2 C 71 % 4.22 C
878 07-04-2020 01:05:00 9.2 C 72 % 4.42 C
879 07-04-2020 01:10:00 9.2 C 72 % 4.42 C
880 07-04-2020 01:15:00 9.3 C 72 % 4.52 C
881 07-04-2020 01:20:00 9.4 C 71 % 4.42 C
882 07-04-2020 01:25:00 9.6 C 72 % 4.81 C
883 07-04-2020 01:30:00 9.7 C 71 % 4.7 C
884 07-04-2020 01:35:00 9.8 C 70 % 4.6 C
885 07-04-2020 01:40:00 10 C 73 % 5.39 C
886 07-04-2020 01:45:00 10.2 C 71 % 5.18 C
887 07-04-2020 01:50:00 10.3 C 71 % 5.28 C
888 07-04-2020 01:55:00 10.3 C 70 % 5.08 C
889 07-04-2020 02:00:00 10.3 C 70 % 5.08 C
890 07-04-2020 02:05:00 10.1 C 71 % 5.09 C
891 07-04-2020 02:10:00 9.9 C 71 % 4.9 C
892 07-04-2020 02:15:00 9.8 C 71 % 4.8 C
893 07-04-2020 02:20:00 9.6 C 72 % 4.81 C
894 07-04-2020 02:25:00 9.3 C 73 % 4.72 C
895 07-04-2020 02:30:00 9.1 C 74 % 4.72 C
896 07-04-2020 02:35:00 8.9 C 74 % 4.53 C
897 07-04-2020 02:40:00 8.8 C 75 % 4.62 C
898 07-04-2020 02:45:00 8.6 C 75 % 4.43 C
899 07-04-2020 02:50:00 8.3 C 76 % 4.33 C
900 07-04-2020 02:55:00 8.2 C 77 % 4.42 C
Sensor: Nr:Datum:Temp:Feuchte:Taupunkt:
Aussen-T/F 901 07-04-2020 03:00:00 8.2 C 78 % 4.6 C
902 07-04-2020 03:05:00 8.1 C 78 % 4.5 C
903 07-04-2020 03:10:00 8.1 C 79 % 4.68 C
904 07-04-2020 03:15:00 8 C 79 % 4.59 C
905 07-04-2020 03:20:00 8.1 C 80 % 4.86 C
906 07-04-2020 03:25:00 8.1 C 81 % 5.04 C
907 07-04-2020 03:30:00 8.2 C 80 % 4.96 C
908 07-04-2020 03:35:00 8.2 C 80 % 4.96 C
909 07-04-2020 03:40:00 8.2 C 80 % 4.96 C
910 07-04-2020 03:45:00 8.2 C 80 % 4.96 C
911 07-04-2020 03:50:00 8.2 C 81 % 5.14 C
912 07-04-2020 03:55:00 8.2 C 81 % 5.14 C
913 07-04-2020 04:00:00 8.2 C 81 % 5.14 C
914 07-04-2020 04:05:00 8.3 C 81 % 5.24 C
915 07-04-2020 04:10:00 8.3 C 81 % 5.24 C
916 07-04-2020 04:15:00 8.2 C 81 % 5.14 C
917 07-04-2020 04:20:00 8.2 C 80 % 4.96 C
918 07-04-2020 04:25:00 8.2 C 80 % 4.96 C
919 07-04-2020 04:30:00 8.1 C 80 % 4.86 C
920 07-04-2020 04:35:00 7.9 C 80 % 4.67 C
921 07-04-2020 04:40:00 7.7 C 81 % 4.65 C
922 07-04-2020 04:45:00 7.6 C 82 % 4.73 C
923 07-04-2020 04:50:00 7.6 C 82 % 4.73 C
924 07-04-2020 04:55:00 7.5 C 82 % 4.63 C
925 07-04-2020 05:00:00 7.3 C 82 % 4.44 C
Sensor: Nr:Datum:Temp:Feuchte:Taupunkt:
Aussen-T/F 926 07-04-2020 05:05:00 7.2 C 83 % 4.51 C
927 07-04-2020 05:10:00 7.1 C 83 % 4.41 C
928 07-04-2020 05:15:00 6.9 C 83 % 4.22 C
929 07-04-2020 05:20:00 6.8 C 84 % 4.29 C
930 07-04-2020 05:25:00 6.7 C 84 % 4.19 C
931 07-04-2020 05:30:00 6.7 C 85 % 4.36 C
932 07-04-2020 05:35:00 6.6 C 85 % 4.26 C
933 07-04-2020 05:40:00 6.4 C 85 % 4.07 C
934 07-04-2020 05:45:00 6.4 C 86 % 4.23 C
935 07-04-2020 05:50:00 6.3 C 86 % 4.14 C
936 07-04-2020 05:55:00 6.3 C 87 % 4.3 C
937 07-04-2020 06:00:00 6.3 C 87 % 4.3 C
938 07-04-2020 06:05:00 6.3 C 87 % 4.3 C
939 07-04-2020 06:10:00 6.2 C 86 % 4.04 C
940 07-04-2020 06:15:00 6.1 C 87 % 4.1 C
941 07-04-2020 06:20:00 6.1 C 87 % 4.1 C
942 07-04-2020 06:25:00 6.1 C 87 % 4.1 C
943 07-04-2020 06:30:00 5.9 C 87 % 3.91 C
944 07-04-2020 06:35:00 5.8 C 87 % 3.81 C
945 07-04-2020 06:40:00 5.8 C 88 % 3.97 C
946 07-04-2020 06:45:00 5.8 C 88 % 3.97 C
947 07-04-2020 06:50:00 5.7 C 88 % 3.87 C
948 07-04-2020 06:55:00 5.6 C 88 % 3.77 C
949 07-04-2020 07:00:00 5.5 C 88 % 3.67 C
950 07-04-2020 07:05:00 5.4 C 89 % 3.74 C
Sensor: Nr:Datum:Temp:Feuchte:Taupunkt:
Aussen-T/F 951 07-04-2020 07:10:00 5.4 C 89 % 3.74 C
952 07-04-2020 07:15:00 5.4 C 90 % 3.89 C
953 07-04-2020 07:20:00 5.5 C 90 % 3.99 C
954 07-04-2020 07:25:00 5.6 C 90 % 4.09 C
955 07-04-2020 07:30:00 5.6 C 91 % 4.25 C
956 07-04-2020 07:35:00 5.7 C 90 % 4.19 C
957 07-04-2020 07:40:00 5.8 C 91 % 4.45 C
958 07-04-2020 07:45:00 5.9 C 91 % 4.55 C
959 07-04-2020 07:50:00 6 C 91 % 4.65 C
960 07-04-2020 07:55:00 6.1 C 90 % 4.59 C
961 07-04-2020 08:00:00 6.2 C 90 % 4.69 C
962 07-04-2020 08:05:00 6.2 C 90 % 4.69 C
963 07-04-2020 08:10:00 6.3 C 90 % 4.78 C
964 07-04-2020 08:15:00 6.3 C 90 % 4.78 C
965 07-04-2020 08:20:00 6.4 C 90 % 4.88 C
966 07-04-2020 08:25:00 6.5 C 89 % 4.82 C
967 07-04-2020 08:30:00 6.6 C 89 % 4.92 C
968 07-04-2020 08:35:00 6.6 C 89 % 4.92 C
969 07-04-2020 08:40:00 6.6 C 89 % 4.92 C
970 07-04-2020 08:45:00 6.7 C 90 % 5.18 C
971 07-04-2020 08:50:00 6.8 C 90 % 5.28 C
972 07-04-2020 08:55:00 6.9 C 90 % 5.38 C
973 07-04-2020 09:00:00 7.1 C 90 % 5.57 C
974 07-04-2020 09:05:00 7.2 C 90 % 5.67 C
975 07-04-2020 09:10:00 7.3 C 89 % 5.61 C
Sensor: Nr:Datum:Temp:Feuchte:Taupunkt:
Aussen-T/F 976 07-04-2020 09:15:00 7.4 C 89 % 5.71 C
977 07-04-2020 09:20:00 7.5 C 90 % 5.97 C
978 07-04-2020 09:25:00 7.6 C 90 % 6.07 C
979 07-04-2020 09:30:00 7.8 C 90 % 6.27 C
980 07-04-2020 09:35:00 7.9 C 90 % 6.36 C
981 07-04-2020 09:40:00 8.2 C 90 % 6.66 C
982 07-04-2020 09:45:00 8.4 C 90 % 6.86 C
983 07-04-2020 09:50:00 8.7 C 88 % 6.83 C
984 07-04-2020 09:55:00 8.9 C 88 % 7.02 C
985 07-04-2020 10:00:00 9.2 C 87 % 7.15 C
986 07-04-2020 10:05:00 9.4 C 87 % 7.35 C
987 07-04-2020 10:10:00 9.6 C 88 % 7.71 C
988 07-04-2020 10:15:00 9.9 C 88 % 8.01 C
989 07-04-2020 10:20:00 10.2 C 87 % 8.14 C
990 07-04-2020 10:25:00 10.5 C 86 % 8.26 C
991 07-04-2020 10:30:00 10.8 C 85 % 8.38 C
992 07-04-2020 10:35:00 11.2 C 85 % 8.77 C
993 07-04-2020 10:40:00 11.4 C 84 % 8.8 C
994 07-04-2020 10:45:00 11.8 C 83 % 9.01 C
995 07-04-2020 10:50:00 12.2 C 82 % 9.22 C
996 07-04-2020 10:55:00 12.6 C 81 % 9.43 C
997 07-04-2020 11:00:00 13 C 79 % 9.45 C
998 07-04-2020 11:05:00 13.4 C 77 % 9.45 C
999 07-04-2020 11:10:00 13.8 C 76 % 9.65 C
1000 07-04-2020 11:15:00 14.2 C 74 % 9.64 C
Sensor: Nr:Datum:Temp:Feuchte:Taupunkt:
Aussen-T/F 1001 07-04-2020 11:20:00 14.6 C 73 % 9.82 C
1002 07-04-2020 11:25:00 14.8 C 73 % 10.01 C
1003 07-04-2020 11:30:00 15.1 C 71 % 9.89 C
1004 07-04-2020 11:35:00 15.4 C 70 % 9.96 C
1005 07-04-2020 11:40:00 15.7 C 68 % 9.82 C
1006 07-04-2020 11:45:00 16.1 C 67 % 9.98 C
1007 07-04-2020 11:50:00 16.2 C 67 % 10.07 C
1008 07-04-2020 11:55:00 16.4 C 66 % 10.04 C
1009 07-04-2020 12:00:00 16.6 C 65 % 10 C
1010 07-04-2020 12:05:00 16.8 C 64 % 9.96 C
1011 07-04-2020 12:10:00 17.1 C 63 % 10.01 C
1012 07-04-2020 12:15:00 17.2 C 62 % 9.86 C
1013 07-04-2020 12:20:00 17.4 C 63 % 10.29 C
1014 07-04-2020 12:25:00 17.6 C 61 % 10 C
1015 07-04-2020 12:30:00 17.8 C 61 % 10.18 C
1016 07-04-2020 12:35:00 18 C 60 % 10.13 C
1017 07-04-2020 12:40:00 18.2 C 60 % 10.31 C
1018 07-04-2020 12:45:00 18.3 C 59 % 10.16 C
1019 07-04-2020 12:50:00 18.4 C 59 % 10.25 C
1020 07-04-2020 12:55:00 18.5 C 59 % 10.34 C
1021 07-04-2020 13:00:00 18.6 C 59 % 10.44 C
1022 07-04-2020 13:05:00 18.8 C 58 % 10.37 C
1023 07-04-2020 13:10:00 18.9 C 57 % 10.2 C
1024 07-04-2020 13:15:00 19.2 C 56 % 10.22 C
1025 07-04-2020 13:20:00 19.3 C 56 % 10.31 C
Sensor: Nr:Datum:Temp:Feuchte:Taupunkt:
Aussen-T/F 1026 07-04-2020 13:25:00 19.4 C 53 % 9.58 C
1027 07-04-2020 13:30:00 19.5 C 54 % 9.95 C
1028 07-04-2020 13:35:00 19.6 C 54 % 10.05 C
1029 07-04-2020 13:40:00 19.7 C 53 % 9.86 C
1030 07-04-2020 13:45:00 19.8 C 53 % 9.95 C
1031 07-04-2020 13:50:00 19.9 C 52 % 9.76 C
1032 07-04-2020 13:55:00 20.1 C 52 % 9.94 C
1033 07-04-2020 14:00:00 20.3 C 51 % 9.84 C
1034 07-04-2020 14:05:00 20.3 C 51 % 9.84 C
1035 07-04-2020 14:10:00 20.4 C 51 % 9.93 C
1036 07-04-2020 14:15:00 20.6 C 50 % 9.82 C
1037 07-04-2020 14:20:00 20.8 C 51 % 10.3 C
1038 07-04-2020 14:25:00 20.9 C 49 % 9.79 C
1039 07-04-2020 14:30:00 21.1 C 50 % 10.28 C
1040 07-04-2020 14:35:00 21.3 C 48 % 9.85 C
1041 07-04-2020 14:40:00 21.3 C 48 % 9.85 C
1042 07-04-2020 14:45:00 21.2 C 48 % 9.76 C
1043 07-04-2020 14:50:00 21.1 C 48 % 9.67 C
1044 07-04-2020 14:55:00 21.2 C 48 % 9.76 C
1045 07-04-2020 15:00:00 21.4 C 47 % 9.63 C
1046 07-04-2020 15:05:00 21.6 C 47 % 9.81 C
1047 07-04-2020 15:10:00 21.7 C 47 % 9.9 C
1048 07-04-2020 15:15:00 21.8 C 46 % 9.67 C
1049 07-04-2020 15:20:00 21.8 C 45 % 9.35 C
1050 07-04-2020 15:25:00 21.8 C 45 % 9.35 C
Sensor: Nr:Datum:Temp:Feuchte:Taupunkt:
Aussen-T/F 1051 07-04-2020 15:30:00 21.9 C 45 % 9.44 C
1052 07-04-2020 15:35:00 21.9 C 44 % 9.1 C
1053 07-04-2020 15:40:00 22.1 C 44 % 9.29 C
1054 07-04-2020 15:45:00 22.1 C 45 % 9.62 C
1055 07-04-2020 15:50:00 22.1 C 45 % 9.62 C
1056 07-04-2020 15:55:00 22.2 C 44 % 9.38 C
1057 07-04-2020 16:00:00 22.3 C 43 % 9.13 C
1058 07-04-2020 16:05:00 22.3 C 43 % 9.13 C
1059 07-04-2020 16:10:00 22.3 C 43 % 9.13 C
1060 07-04-2020 16:15:00 22.2 C 43 % 9.04 C
1061 07-04-2020 16:20:00 22.2 C 43 % 9.04 C
1062 07-04-2020 16:25:00 22.4 C 42 % 8.87 C
1063 07-04-2020 16:30:00 22.5 C 42 % 8.96 C
1064 07-04-2020 16:35:00 22.3 C 42 % 8.78 C
1065 07-04-2020 16:40:00 22.1 C 42 % 8.6 C
1066 07-04-2020 16:45:00 22.3 C 43 % 9.13 C
1067 07-04-2020 16:50:00 22.9 C 40 % 8.59 C
1068 07-04-2020 16:55:00 23.4 C 40 % 9.04 C
1069 07-04-2020 17:00:00 23.9 C 38 % 8.73 C
1070 07-04-2020 17:05:00 24.1 C 36 % 8.11 C
1071 07-04-2020 17:10:00 23.9 C 37 % 8.33 C
1072 07-04-2020 17:15:00 23.4 C 38 % 8.28 C
1073 07-04-2020 17:20:00 23.2 C 38 % 8.11 C
1074 07-04-2020 17:25:00 22.9 C 40 % 8.59 C
1075 07-04-2020 17:30:00 22.8 C 37 % 7.36 C
Sensor: Nr:Datum:Temp:Feuchte:Taupunkt:
Aussen-T/F 1076 07-04-2020 17:35:00 22.8 C 36 % 6.96 C
1077 07-04-2020 17:40:00 23.1 C 36 % 7.23 C
1078 07-04-2020 17:45:00 23.4 C 35 % 7.08 C
1079 07-04-2020 17:50:00 23.4 C 34 % 6.66 C
1080 07-04-2020 17:55:00 23.4 C 35 % 7.08 C
1081 07-04-2020 18:00:00 23.6 C 36 % 7.67 C
1082 07-04-2020 18:05:00 23.6 C 36 % 7.67 C
1083 07-04-2020 18:10:00 23.8 C 35 % 7.43 C
1084 07-04-2020 18:15:00 23.9 C 35 % 7.52 C
1085 07-04-2020 18:20:00 23.8 C 35 % 7.43 C
1086 07-04-2020 18:25:00 23.8 C 36 % 7.84 C
1087 07-04-2020 18:30:00 23.6 C 36 % 7.67 C
1088 07-04-2020 18:35:00 23.4 C 37 % 7.89 C
1089 07-04-2020 18:40:00 23.1 C 38 % 8.02 C
1090 07-04-2020 18:45:00 23.1 C 40 % 8.77 C
1091 07-04-2020 18:50:00 23 C 38 % 7.93 C
1092 07-04-2020 18:55:00 22.9 C 37 % 7.45 C
1093 07-04-2020 19:00:00 22.7 C 37 % 7.27 C
1094 07-04-2020 19:05:00 22.7 C 38 % 7.66 C
1095 07-04-2020 19:10:00 22.6 C 40 % 8.33 C
1096 07-04-2020 19:15:00 22.4 C 43 % 9.22 C
1097 07-04-2020 19:20:00 22.1 C 45 % 9.62 C
1098 07-04-2020 19:25:00 21.6 C 45 % 9.17 C
1099 07-04-2020 19:30:00 21 C 47 % 9.27 C
1100 07-04-2020 19:35:00 20.4 C 49 % 9.34 C
Sensor: Nr:Datum:Temp:Feuchte:Taupunkt:
Aussen-T/F 1101 07-04-2020 19:40:00 19.9 C 49 % 8.88 C
1102 07-04-2020 19:45:00 19.4 C 51 % 9.01 C
1103 07-04-2020 19:50:00 19.1 C 51 % 8.73 C
1104 07-04-2020 19:55:00 18.7 C 52 % 8.65 C
1105 07-04-2020 20:00:00 18.3 C 52 % 8.28 C
1106 07-04-2020 20:05:00 17.9 C 52 % 7.91 C
1107 07-04-2020 20:10:00 17.6 C 53 % 7.92 C
1108 07-04-2020 20:15:00 17.3 C 54 % 7.91 C
1109 07-04-2020 20:20:00 17 C 55 % 7.9 C
1110 07-04-2020 20:25:00 16.8 C 56 % 7.98 C
1111 07-04-2020 20:30:00 16.6 C 57 % 8.06 C
1112 07-04-2020 20:35:00 16.3 C 57 % 7.77 C
1113 07-04-2020 20:40:00 16.2 C 59 % 8.19 C
1114 07-04-2020 20:45:00 16 C 59 % 8 C
1115 07-04-2020 20:50:00 15.8 C 60 % 8.06 C
1116 07-04-2020 20:55:00 15.7 C 60 % 7.97 C
1117 07-04-2020 21:00:00 15.6 C 60 % 7.87 C
1118 07-04-2020 21:05:00 15.4 C 61 % 7.93 C
1119 07-04-2020 21:10:00 15.3 C 62 % 8.07 C
1120 07-04-2020 21:15:00 15.2 C 63 % 8.21 C
1121 07-04-2020 21:20:00 15.1 C 64 % 8.35 C
1122 07-04-2020 21:25:00 14.9 C 64 % 8.16 C
1123 07-04-2020 21:30:00 14.8 C 65 % 8.29 C
1124 07-04-2020 21:35:00 14.7 C 65 % 8.2 C
1125 07-04-2020 21:40:00 14.7 C 66 % 8.42 C
Sensor: Nr:Datum:Temp:Feuchte:Taupunkt:
Aussen-T/F 1126 07-04-2020 21:45:00 14.7 C 66 % 8.42 C
1127 07-04-2020 21:50:00 14.6 C 66 % 8.33 C
1128 07-04-2020 21:55:00 14.5 C 67 % 8.45 C
1129 07-04-2020 22:00:00 14.4 C 67 % 8.36 C
1130 07-04-2020 22:05:00 14.3 C 68 % 8.48 C
1131 07-04-2020 22:10:00 14.1 C 68 % 8.29 C
1132 07-04-2020 22:15:00 13.8 C 69 % 8.22 C
1133 07-04-2020 22:20:00 13.7 C 70 % 8.33 C
1134 07-04-2020 22:25:00 13.4 C 70 % 8.05 C
1135 07-04-2020 22:30:00 13.3 C 71 % 8.16 C
1136 07-04-2020 22:35:00 13.2 C 72 % 8.27 C
1137 07-04-2020 22:40:00 13.2 C 72 % 8.27 C
1138 07-04-2020 22:45:00 13.2 C 72 % 8.27 C
1139 07-04-2020 22:50:00 13.2 C 72 % 8.27 C
1140 07-04-2020 22:55:00 13.1 C 72 % 8.17 C
1141 07-04-2020 23:00:00 13.1 C 72 % 8.17 C
1142 07-04-2020 23:05:00 13.1 C 73 % 8.38 C
1143 07-04-2020 23:10:00 13 C 73 % 8.28 C
1144 07-04-2020 23:15:00 13 C 74 % 8.48 C
1145 07-04-2020 23:20:00 13 C 74 % 8.48 C
1146 07-04-2020 23:25:00 13 C 74 % 8.48 C
1147 07-04-2020 23:30:00 13 C 74 % 8.48 C
1148 07-04-2020 23:35:00 12.9 C 74 % 8.38 C
1149 07-04-2020 23:40:00 12.9 C 75 % 8.58 C
1150 07-04-2020 23:45:00 12.8 C 75 % 8.48 C
Sensor: Nr:Datum:Temp:Feuchte:Taupunkt:
Aussen-T/F 1151 07-04-2020 23:50:00 12.8 C 75 % 8.48 C
1152 07-04-2020 23:55:00 12.7 C 75 % 8.39 C
1153 08-04-2020 00:00:00 12.6 C 75 % 8.29 C
1154 08-04-2020 00:05:00 12.4 C 76 % 8.29 C
1155 08-04-2020 00:10:00 12.3 C 77 % 8.39 C
1156 08-04-2020 00:15:00 12.2 C 77 % 8.29 C
1157 08-04-2020 00:20:00 12.2 C 78 % 8.48 C
1158 08-04-2020 00:25:00 12.2 C 78 % 8.48 C
1159 08-04-2020 00:30:00 12.1 C 78 % 8.38 C
1160 08-04-2020 00:35:00 12 C 79 % 8.48 C
1161 08-04-2020 00:40:00 12 C 79 % 8.48 C
1162 08-04-2020 00:45:00 11.9 C 79 % 8.38 C
1163 08-04-2020 00:50:00 11.8 C 79 % 8.28 C
1164 08-04-2020 00:55:00 11.7 C 79 % 8.18 C
1165 08-04-2020 01:00:00 11.5 C 80 % 8.17 C
1166 08-04-2020 01:05:00 11.4 C 80 % 8.08 C
1167 08-04-2020 01:10:00 11.3 C 81 % 8.16 C
1168 08-04-2020 01:15:00 11.3 C 80 % 7.98 C
1169 08-04-2020 01:20:00 11.2 C 81 % 8.06 C
1170 08-04-2020 01:25:00 11.1 C 81 % 7.97 C
1171 08-04-2020 01:30:00 10.9 C 82 % 7.95 C
1172 08-04-2020 01:35:00 10.8 C 82 % 7.85 C
1173 08-04-2020 01:40:00 10.8 C 82 % 7.85 C
1174 08-04-2020 01:45:00 10.7 C 82 % 7.76 C
1175 08-04-2020 01:50:00 10.5 C 83 % 7.74 C
Sensor: Nr:Datum:Temp:Feuchte:Taupunkt:
Aussen-T/F 1176 08-04-2020 01:55:00 10.4 C 83 % 7.64 C
1177 08-04-2020 02:00:00 10.3 C 83 % 7.54 C
1178 08-04-2020 02:05:00 10.1 C 83 % 7.35 C
1179 08-04-2020 02:10:00 10 C 84 % 7.43 C
1180 08-04-2020 02:15:00 9.8 C 84 % 7.23 C
1181 08-04-2020 02:20:00 9.6 C 85 % 7.21 C
1182 08-04-2020 02:25:00 9.5 C 85 % 7.11 C
1183 08-04-2020 02:30:00 9.3 C 85 % 6.91 C
1184 08-04-2020 02:35:00 9.2 C 86 % 6.98 C
1185 08-04-2020 02:40:00 9.1 C 86 % 6.89 C
1186 08-04-2020 02:45:00 8.9 C 86 % 6.69 C
1187 08-04-2020 02:50:00 8.8 C 87 % 6.76 C
1188 08-04-2020 02:55:00 8.7 C 87 % 6.66 C
1189 08-04-2020 03:00:00 8.6 C 87 % 6.56 C
1190 08-04-2020 03:05:00 8.3 C 87 % 6.27 C
1191 08-04-2020 03:10:00 8.2 C 88 % 6.33 C
1192 08-04-2020 03:15:00 8.1 C 88 % 6.24 C
1193 08-04-2020 03:20:00 7.9 C 88 % 6.04 C
1194 08-04-2020 03:25:00 7.9 C 89 % 6.2 C
1195 08-04-2020 03:30:00 7.9 C 90 % 6.36 C
1196 08-04-2020 03:35:00 7.9 C 90 % 6.36 C
1197 08-04-2020 03:40:00 7.8 C 90 % 6.27 C
1198 08-04-2020 03:45:00 7.7 C 90 % 6.17 C
1199 08-04-2020 03:50:00 7.6 C 90 % 6.07 C
1200 08-04-2020 03:55:00 7.5 C 90 % 5.97 C
Sensor: Nr:Datum:Temp:Feuchte:Taupunkt:
Aussen-T/F 1201 08-04-2020 04:00:00 7.4 C 90 % 5.87 C
1202 08-04-2020 04:05:00 7.4 C 91 % 6.03 C
1203 08-04-2020 04:10:00 7.4 C 91 % 6.03 C
1204 08-04-2020 04:15:00 7.3 C 91 % 5.93 C
1205 08-04-2020 04:20:00 7.3 C 91 % 5.93 C
1206 08-04-2020 04:25:00 7.2 C 92 % 5.99 C
1207 08-04-2020 04:30:00 7.3 C 92 % 6.09 C
1208 08-04-2020 04:35:00 7.2 C 91 % 5.83 C
1209 08-04-2020 04:40:00 7 C 91 % 5.63 C
1210 08-04-2020 04:45:00 6.9 C 92 % 5.69 C
1211 08-04-2020 04:50:00 6.9 C 92 % 5.69 C
1212 08-04-2020 04:55:00 6.8 C 92 % 5.59 C
1213 08-04-2020 05:00:00 6.8 C 92 % 5.59 C
1214 08-04-2020 05:05:00 6.8 C 92 % 5.59 C
1215 08-04-2020 05:10:00 6.7 C 92 % 5.49 C
1216 08-04-2020 05:15:00 6.7 C 93 % 5.65 C
1217 08-04-2020 05:20:00 6.6 C 92 % 5.4 C
1218 08-04-2020 05:25:00 6.5 C 92 % 5.3 C
1219 08-04-2020 05:30:00 6.4 C 92 % 5.2 C
1220 08-04-2020 05:35:00 6.4 C 93 % 5.35 C
1221 08-04-2020 05:40:00 6.3 C 93 % 5.25 C
1222 08-04-2020 05:45:00 6.2 C 93 % 5.15 C
1223 08-04-2020 05:50:00 6.2 C 93 % 5.15 C
1224 08-04-2020 05:55:00 6.2 C 93 % 5.15 C
1225 08-04-2020 06:00:00 6.2 C 93 % 5.15 C
Sensor: Nr:Datum:Temp:Feuchte:Taupunkt:
Aussen-T/F 1226 08-04-2020 06:05:00 6.2 C 93 % 5.15 C
1227 08-04-2020 06:10:00 6.1 C 93 % 5.06 C
1228 08-04-2020 06:15:00 6.1 C 93 % 5.06 C
1229 08-04-2020 06:20:00 6 C 93 % 4.96 C
1230 08-04-2020 06:25:00 6 C 94 % 5.11 C
1231 08-04-2020 06:30:00 6.1 C 94 % 5.21 C
1232 08-04-2020 06:35:00 5.9 C 94 % 5.01 C
1233 08-04-2020 06:40:00 5.8 C 93 % 4.76 C
1234 08-04-2020 06:45:00 5.7 C 94 % 4.81 C
1235 08-04-2020 06:50:00 5.7 C 94 % 4.81 C
1236 08-04-2020 06:55:00 5.6 C 94 % 4.71 C
1237 08-04-2020 07:00:00 5.7 C 94 % 4.81 C
1238 08-04-2020 07:05:00 5.7 C 94 % 4.81 C
1239 08-04-2020 07:10:00 5.7 C 94 % 4.81 C
1240 08-04-2020 07:15:00 5.7 C 94 % 4.81 C
1241 08-04-2020 07:20:00 5.8 C 94 % 4.91 C
1242 08-04-2020 07:25:00 5.8 C 94 % 4.91 C
1243 08-04-2020 07:30:00 5.8 C 94 % 4.91 C
1244 08-04-2020 07:35:00 5.8 C 95 % 5.06 C
1245 08-04-2020 07:40:00 5.8 C 95 % 5.06 C
1246 08-04-2020 07:45:00 6 C 95 % 5.26 C
1247 08-04-2020 07:50:00 6.2 C 95 % 5.46 C
1248 08-04-2020 07:55:00 6.3 C 95 % 5.56 C
1249 08-04-2020 08:00:00 6.3 C 95 % 5.56 C
1250 08-04-2020 08:05:00 6.3 C 95 % 5.56 C
Sensor: Nr:Datum:Temp:Feuchte:Taupunkt:
Aussen-T/F 1251 08-04-2020 08:10:00 6.3 C 95 % 5.56 C
1252 08-04-2020 08:15:00 6.3 C 95 % 5.56 C
1253 08-04-2020 08:20:00 6.4 C 95 % 5.66 C
1254 08-04-2020 08:25:00 6.7 C 95 % 5.96 C
1255 08-04-2020 08:30:00 6.7 C 96 % 6.11 C
1256 08-04-2020 08:35:00 6.8 C 96 % 6.21 C
1257 08-04-2020 08:40:00 6.9 C 96 % 6.31 C
1258 08-04-2020 08:45:00 6.9 C 95 % 6.16 C
1259 08-04-2020 08:50:00 7 C 95 % 6.26 C
1260 08-04-2020 08:55:00 7.1 C 95 % 6.35 C
1261 08-04-2020 09:00:00 7.2 C 96 % 6.61 C
1262 08-04-2020 09:05:00 7.3 C 96 % 6.71 C
1263 08-04-2020 09:10:00 7.4 C 96 % 6.8 C
1264 08-04-2020 09:15:00 7.4 C 96 % 6.8 C
1265 08-04-2020 09:20:00 7.6 C 96 % 7 C
1266 08-04-2020 09:25:00 7.7 C 96 % 7.1 C
1267 08-04-2020 09:30:00 7.9 C 96 % 7.3 C
1268 08-04-2020 09:35:00 8.1 C 96 % 7.5 C
1269 08-04-2020 09:40:00 8.2 C 96 % 7.6 C
1270 08-04-2020 09:45:00 8.4 C 96 % 7.8 C
1271 08-04-2020 09:50:00 8.6 C 96 % 8 C
1272 08-04-2020 09:55:00 8.7 C 96 % 8.1 C
1273 08-04-2020 10:00:00 8.9 C 96 % 8.3 C
1274 08-04-2020 10:05:00 9.1 C 96 % 8.5 C
1275 08-04-2020 10:10:00 9.2 C 96 % 8.6 C
Sensor: Nr:Datum:Temp:Feuchte:Taupunkt:
Aussen-T/F 1276 08-04-2020 10:15:00 9.4 C 96 % 8.8 C
1277 08-04-2020 10:20:00 9.7 C 96 % 9.09 C
1278 08-04-2020 10:25:00 9.9 C 96 % 9.29 C
1279 08-04-2020 10:30:00 10.2 C 95 % 9.44 C
1280 08-04-2020 10:35:00 10.4 C 95 % 9.63 C
1281 08-04-2020 10:40:00 10.8 C 94 % 9.87 C
1282 08-04-2020 10:45:00 11.2 C 93 % 10.11 C
1283 08-04-2020 10:50:00 11.6 C 92 % 10.35 C
1284 08-04-2020 10:55:00 12 C 90 % 10.41 C
1285 08-04-2020 11:00:00 12.4 C 88 % 10.47 C
1286 08-04-2020 11:05:00 12.9 C 87 % 10.79 C
1287 08-04-2020 11:10:00 13.3 C 85 % 10.83 C
1288 08-04-2020 11:15:00 13.8 C 83 % 10.97 C
1289 08-04-2020 11:20:00 14.3 C 82 % 11.27 C
1290 08-04-2020 11:25:00 14.8 C 81 % 11.57 C
1291 08-04-2020 11:30:00 15.1 C 80 % 11.68 C
1292 08-04-2020 11:35:00 15.4 C 78 % 11.59 C
1293 08-04-2020 11:40:00 15.9 C 74 % 11.28 C
1294 08-04-2020 11:45:00 16.4 C 71 % 11.13 C
1295 08-04-2020 11:50:00 17 C 70 % 11.49 C
1296 08-04-2020 11:55:00 17.5 C 69 % 11.75 C
1297 08-04-2020 12:00:00 18.1 C 62 % 10.71 C
1298 08-04-2020 12:05:00 18.5 C 62 % 11.09 C
1299 08-04-2020 12:10:00 18.9 C 58 % 10.46 C
1300 08-04-2020 12:15:00 19.3 C 56 % 10.31 C
Sensor: Nr:Datum:Temp:Feuchte:Taupunkt:
Aussen-T/F 1301 08-04-2020 12:20:00 19.7 C 55 % 10.41 C
1302 08-04-2020 12:25:00 19.9 C 52 % 9.76 C
1303 08-04-2020 12:30:00 20.2 C 49 % 9.15 C
1304 08-04-2020 12:35:00 20.4 C 48 % 9.03 C
1305 08-04-2020 12:40:00 20.6 C 47 % 8.9 C
1306 08-04-2020 12:45:00 20.8 C 47 % 9.08 C
1307 08-04-2020 12:50:00 20.9 C 44 % 8.2 C
1308 08-04-2020 12:55:00 21.1 C 43 % 8.04 C
1309 08-04-2020 13:00:00 21.2 C 43 % 8.13 C
1310 08-04-2020 13:05:00 21.3 C 41 % 7.53 C
1311 08-04-2020 13:10:00 21.5 C 41 % 7.7 C
1312 08-04-2020 13:15:00 21.7 C 37 % 6.39 C
1313 08-04-2020 13:20:00 21.8 C 36 % 6.08 C
1314 08-04-2020 13:25:00 21.8 C 35 % 5.67 C
1315 08-04-2020 13:30:00 21.7 C 35 % 5.58 C
1316 08-04-2020 13:35:00 21.8 C 35 % 5.67 C
1317 08-04-2020 13:40:00 22 C 32 % 4.56 C
1318 08-04-2020 13:45:00 22.1 C 30 % 3.73 C
1319 08-04-2020 13:50:00 22.1 C 30 % 3.73 C
1320 08-04-2020 13:55:00 22.2 C 30 % 3.82 C
1321 08-04-2020 14:00:00 22.2 C 29 % 3.34 C
1322 08-04-2020 14:05:00 22.3 C 29 % 3.42 C
1323 08-04-2020 14:10:00 22.4 C 29 % 3.51 C
1324 08-04-2020 14:15:00 22.6 C 30 % 4.16 C
1325 08-04-2020 14:20:00 22.7 C 30 % 4.25 C
Sensor: Nr:Datum:Temp:Feuchte:Taupunkt:
Aussen-T/F 1326 08-04-2020 14:25:00 22.9 C 29 % 3.94 C
1327 08-04-2020 14:30:00 23.1 C 29 % 4.11 C
1328 08-04-2020 14:35:00 23.2 C 28 % 3.7 C
1329 08-04-2020 14:40:00 23.2 C 28 % 3.7 C
1330 08-04-2020 14:45:00 23.2 C 28 % 3.7 C
1331 08-04-2020 14:50:00 23.3 C 28 % 3.78 C
1332 08-04-2020 14:55:00 23.3 C 28 % 3.78 C
1333 08-04-2020 15:00:00 23.4 C 28 % 3.87 C
1334 08-04-2020 15:05:00 23.4 C 28 % 3.87 C
1335 08-04-2020 15:10:00 23.2 C 35 % 6.9 C
1336 08-04-2020 15:15:00 22.8 C 32 % 5.26 C
1337 08-04-2020 15:20:00 22.8 C 30 % 4.34 C
1338 08-04-2020 15:25:00 23 C 31 % 4.98 C
1339 08-04-2020 15:30:00 22.9 C 30 % 4.42 C
1340 08-04-2020 15:35:00 22.9 C 29 % 3.94 C
1341 08-04-2020 15:40:00 23.1 C 29 % 4.11 C
1342 08-04-2020 15:45:00 23.2 C 29 % 4.2 C
1343 08-04-2020 15:50:00 23.2 C 30 % 4.68 C
1344 08-04-2020 15:55:00 23.3 C 29 % 4.28 C
1345 08-04-2020 16:00:00 23.4 C 28 % 3.87 C
1346 08-04-2020 16:05:00 23.6 C 28 % 4.04 C
1347 08-04-2020 16:10:00 23.6 C 27 % 3.53 C
1348 08-04-2020 16:15:00 23.7 C 28 % 4.13 C
1349 08-04-2020 16:20:00 23.7 C 27 % 3.61 C
1350 08-04-2020 16:25:00 23.8 C 27 % 3.7 C
Sensor: Nr:Datum:Temp:Feuchte:Taupunkt:
Aussen-T/F 1351 08-04-2020 16:30:00 24.1 C 29 % 4.97 C
1352 08-04-2020 16:35:00 24.3 C 28 % 4.64 C
1353 08-04-2020 16:40:00 24.6 C 27 % 4.38 C
1354 08-04-2020 16:45:00 24.8 C 27 % 4.55 C
1355 08-04-2020 16:50:00 25.2 C 27 % 4.89 C
1356 08-04-2020 16:55:00 25.7 C 25 % 4.21 C
1357 08-04-2020 17:00:00 25.7 C 24 % 3.63 C
1358 08-04-2020 17:05:00 25.3 C 24 % 3.3 C
1359 08-04-2020 17:10:00 25.2 C 25 % 3.79 C
1360 08-04-2020 17:15:00 25.2 C 25 % 3.79 C
1361 08-04-2020 17:20:00 25.2 C 24 % 3.21 C
1362 08-04-2020 17:25:00 25.2 C 25 % 3.79 C
1363 08-04-2020 17:30:00 25.2 C 24 % 3.21 C
1364 08-04-2020 17:35:00 25.2 C 25 % 3.79 C
1365 08-04-2020 17:40:00 25.5 C 26 % 4.6 C
1366 08-04-2020 17:45:00 25.3 C 25 % 3.88 C
1367 08-04-2020 17:50:00 25.2 C 27 % 4.89 C
1368 08-04-2020 17:55:00 25.3 C 27 % 4.97 C
1369 08-04-2020 18:00:00 25.3 C 26 % 4.43 C
1370 08-04-2020 18:05:00 25.6 C 27 % 5.23 C
1371 08-04-2020 18:10:00 25.7 C 26 % 4.77 C
1372 08-04-2020 18:15:00 25.6 C 25 % 4.13 C
1373 08-04-2020 18:20:00 25.6 C 27 % 5.23 C
1374 08-04-2020 18:25:00 25.6 C 27 % 5.23 C
1375 08-04-2020 18:30:00 25.4 C 26 % 4.52 C
Sensor: Nr:Datum:Temp:Feuchte:Taupunkt:
Aussen-T/F 1376 08-04-2020 18:35:00 25.3 C 27 % 4.97 C
1377 08-04-2020 18:40:00 25.2 C 27 % 4.89 C
1378 08-04-2020 18:45:00 25.2 C 26 % 4.35 C
1379 08-04-2020 18:50:00 25.1 C 26 % 4.26 C
1380 08-04-2020 18:55:00 24.9 C 27 % 4.63 C
1381 08-04-2020 19:00:00 24.8 C 27 % 4.55 C
1382 08-04-2020 19:05:00 24.8 C 32 % 7 C
1383 08-04-2020 19:10:00 24.9 C 32 % 7.08 C
1384 08-04-2020 19:15:00 24.6 C 34 % 7.71 C
1385 08-04-2020 19:20:00 24.2 C 33 % 6.92 C
1386 08-04-2020 19:25:00 23.5 C 34 % 6.74 C
1387 08-04-2020 19:30:00 22.9 C 36 % 7.05 C
1388 08-04-2020 19:35:00 22.3 C 36 % 6.52 C
1389 08-04-2020 19:40:00 21.7 C 38 % 6.77 C
1390 08-04-2020 19:45:00 21.1 C 40 % 6.99 C
1391 08-04-2020 19:50:00 20.6 C 40 % 6.54 C
1392 08-04-2020 19:55:00 20.1 C 41 % 6.45 C
1393 08-04-2020 20:00:00 19.6 C 42 % 6.35 C
1394 08-04-2020 20:05:00 19.1 C 43 % 6.24 C
1395 08-04-2020 20:10:00 18.7 C 44 % 6.21 C
1396 08-04-2020 20:15:00 18.3 C 45 % 6.17 C
1397 08-04-2020 20:20:00 17.9 C 46 % 6.13 C
1398 08-04-2020 20:25:00 17.7 C 46 % 5.95 C
1399 08-04-2020 20:30:00 17.4 C 47 % 5.98 C
1400 08-04-2020 20:35:00 17.1 C 48 % 6.01 C
Sensor: Nr:Datum:Temp:Feuchte:Taupunkt:
Aussen-T/F 1401 08-04-2020 20:40:00 16.8 C 49 % 6.04 C
1402 08-04-2020 20:45:00 16.4 C 49 % 5.67 C
1403 08-04-2020 20:50:00 16.2 C 51 % 6.06 C
1404 08-04-2020 20:55:00 16 C 52 % 6.16 C
1405 08-04-2020 21:00:00 15.8 C 51 % 5.69 C
1406 08-04-2020 21:05:00 15.6 C 52 % 5.79 C
1407 08-04-2020 21:10:00 15.4 C 54 % 6.15 C
1408 08-04-2020 21:15:00 15.1 C 53 % 5.6 C
1409 08-04-2020 21:20:00 14.8 C 54 % 5.59 C
1410 08-04-2020 21:25:00 14.7 C 57 % 6.28 C
1411 08-04-2020 21:30:00 14.3 C 56 % 5.65 C
1412 08-04-2020 21:35:00 14.2 C 56 % 5.56 C
1413 08-04-2020 21:40:00 14.2 C 58 % 6.06 C
1414 08-04-2020 21:45:00 14.1 C 59 % 6.22 C
1415 08-04-2020 21:50:00 13.9 C 59 % 6.03 C
1416 08-04-2020 21:55:00 13.7 C 60 % 6.09 C
1417 08-04-2020 22:00:00 13.5 C 59 % 5.65 C
1418 08-04-2020 22:05:00 13.3 C 60 % 5.71 C
1419 08-04-2020 22:10:00 13.1 C 60 % 5.52 C
1420 08-04-2020 22:15:00 12.9 C 60 % 5.33 C
1421 08-04-2020 22:20:00 12.8 C 62 % 5.71 C
1422 08-04-2020 22:25:00 12.7 C 63 % 5.85 C
1423 08-04-2020 22:30:00 12.7 C 64 % 6.07 C
1424 08-04-2020 22:35:00 12.6 C 63 % 5.75 C
1425 08-04-2020 22:40:00 12.6 C 64 % 5.98 C
Sensor: Nr:Datum:Temp:Feuchte:Taupunkt:
Aussen-T/F 1426 08-04-2020 22:45:00 12.3 C 65 % 5.92 C
1427 08-04-2020 22:50:00 12.1 C 66 % 5.95 C
1428 08-04-2020 22:55:00 11.9 C 66 % 5.76 C
1429 08-04-2020 23:00:00 12 C 64 % 5.41 C
1430 08-04-2020 23:05:00 12.2 C 64 % 5.6 C
1431 08-04-2020 23:10:00 12.2 C 65 % 5.82 C
1432 08-04-2020 23:15:00 12.1 C 65 % 5.73 C
1433 08-04-2020 23:20:00 11.8 C 66 % 5.66 C
1434 08-04-2020 23:25:00 11.6 C 67 % 5.69 C
1435 08-04-2020 23:30:00 11.3 C 68 % 5.62 C
1436 08-04-2020 23:35:00 11.2 C 69 % 5.73 C
1437 08-04-2020 23:40:00 11.1 C 68 % 5.43 C
1438 08-04-2020 23:45:00 11.2 C 68 % 5.52 C
1439 08-04-2020 23:50:00 11.5 C 68 % 5.81 C
1440 08-04-2020 23:55:00 11.7 C 67 % 5.78 C
1441 09-04-2020 00:00:00 11.7 C 67 % 5.78 C
1442 09-04-2020 00:05:00 11.6 C 68 % 5.9 C
1443 09-04-2020 00:10:00 11.5 C 67 % 5.59 C
1444 09-04-2020 00:15:00 11.6 C 67 % 5.69 C
1445 09-04-2020 00:20:00 11.7 C 67 % 5.78 C
1446 09-04-2020 00:25:00 11.6 C 68 % 5.9 C
1447 09-04-2020 00:30:00 11.3 C 68 % 5.62 C
1448 09-04-2020 00:35:00 11.1 C 69 % 5.64 C
1449 09-04-2020 00:40:00 11.2 C 68 % 5.52 C
1450 09-04-2020 00:45:00 11.2 C 69 % 5.73 C
Sensor: Nr:Datum:Temp:Feuchte:Taupunkt:
Aussen-T/F 1451 09-04-2020 00:50:00 11.2 C 69 % 5.73 C
1452 09-04-2020 00:55:00 11.1 C 70 % 5.84 C
1453 09-04-2020 01:00:00 11.1 C 70 % 5.84 C
1454 09-04-2020 01:05:00 10.9 C 71 % 5.86 C
1455 09-04-2020 01:10:00 10.8 C 71 % 5.76 C
1456 09-04-2020 01:15:00 10.6 C 71 % 5.57 C
1457 09-04-2020 01:20:00 10.3 C 72 % 5.48 C
1458 09-04-2020 01:25:00 10.1 C 73 % 5.49 C
1459 09-04-2020 01:30:00 10 C 74 % 5.59 C
1460 09-04-2020 01:35:00 10.1 C 76 % 6.07 C
1461 09-04-2020 01:40:00 10.1 C 76 % 6.07 C
1462 09-04-2020 01:45:00 10 C 76 % 5.97 C
1463 09-04-2020 01:50:00 10 C 77 % 6.16 C
1464 09-04-2020 01:55:00 10 C 77 % 6.16 C
1465 09-04-2020 02:00:00 9.8 C 76 % 5.78 C
1466 09-04-2020 02:05:00 9.7 C 76 % 5.68 C
1467 09-04-2020 02:10:00 9.6 C 76 % 5.58 C
1468 09-04-2020 02:15:00 9.5 C 77 % 5.68 C
1469 09-04-2020 02:20:00 9.4 C 77 % 5.58 C
1470 09-04-2020 02:25:00 9.4 C 78 % 5.76 C
1471 09-04-2020 02:30:00 9.3 C 78 % 5.67 C
1472 09-04-2020 02:35:00 9.3 C 79 % 5.85 C
1473 09-04-2020 02:40:00 9.2 C 78 % 5.57 C
1474 09-04-2020 02:45:00 9.2 C 78 % 5.57 C
1475 09-04-2020 02:50:00 9.2 C 79 % 5.75 C
Sensor: Nr:Datum:Temp:Feuchte:Taupunkt:
Aussen-T/F 1476 09-04-2020 02:55:00 9.3 C 78 % 5.67 C
1477 09-04-2020 03:00:00 9.4 C 78 % 5.76 C
1478 09-04-2020 03:05:00 9.5 C 78 % 5.86 C
1479 09-04-2020 03:10:00 9.6 C 78 % 5.96 C
1480 09-04-2020 03:15:00 9.7 C 77 % 5.87 C
1481 09-04-2020 03:20:00 9.7 C 77 % 5.87 C
1482 09-04-2020 03:25:00 9.7 C 78 % 6.06 C
1483 09-04-2020 03:30:00 9.7 C 78 % 6.06 C
1484 09-04-2020 03:35:00 9.7 C 78 % 6.06 C
1485 09-04-2020 03:40:00 9.7 C 78 % 6.06 C
1486 09-04-2020 03:45:00 9.8 C 79 % 6.34 C
1487 09-04-2020 03:50:00 9.8 C 77 % 5.97 C
1488 09-04-2020 03:55:00 9.9 C 77 % 6.06 C
1489 09-04-2020 04:00:00 10 C 78 % 6.35 C
1490 09-04-2020 04:05:00 10.1 C 78 % 6.44 C
1491 09-04-2020 04:10:00 10.1 C 78 % 6.44 C
1492 09-04-2020 04:15:00 10.1 C 78 % 6.44 C
1493 09-04-2020 04:20:00 10.2 C 78 % 6.54 C
1494 09-04-2020 04:25:00 10.2 C 78 % 6.54 C
1495 09-04-2020 04:30:00 10.1 C 78 % 6.44 C
1496 09-04-2020 04:35:00 10 C 78 % 6.35 C
1497 09-04-2020 04:40:00 9.9 C 79 % 6.43 C
1498 09-04-2020 04:45:00 9.8 C 79 % 6.34 C
1499 09-04-2020 04:50:00 9.7 C 79 % 6.24 C
1500 09-04-2020 04:55:00 9.6 C 79 % 6.14 C
Sensor: Nr:Datum:Temp:Feuchte:Taupunkt:
Aussen-T/F 1501 09-04-2020 05:00:00 9.4 C 79 % 5.95 C
1502 09-04-2020 05:05:00 9.4 C 79 % 5.95 C
1503 09-04-2020 05:10:00 9.3 C 80 % 6.03 C
1504 09-04-2020 05:15:00 9.2 C 80 % 5.94 C
1505 09-04-2020 05:20:00 9.2 C 80 % 5.94 C
1506 09-04-2020 05:25:00 9.2 C 80 % 5.94 C
1507 09-04-2020 05:30:00 9.1 C 80 % 5.84 C
1508 09-04-2020 05:35:00 9 C 81 % 5.92 C
1509 09-04-2020 05:40:00 8.9 C 82 % 6 C
1510 09-04-2020 05:45:00 8.8 C 82 % 5.9 C
1511 09-04-2020 05:50:00 8.7 C 82 % 5.8 C
1512 09-04-2020 05:55:00 8.6 C 83 % 5.88 C
1513 09-04-2020 06:00:00 8.6 C 83 % 5.88 C
1514 09-04-2020 06:05:00 8.5 C 83 % 5.78 C
1515 09-04-2020 06:10:00 8.4 C 83 % 5.69 C
1516 09-04-2020 06:15:00 8.3 C 83 % 5.59 C
1517 09-04-2020 06:20:00 8.1 C 83 % 5.39 C
1518 09-04-2020 06:25:00 7.9 C 83 % 5.2 C
1519 09-04-2020 06:30:00 7.8 C 84 % 5.27 C
1520 09-04-2020 06:35:00 7.7 C 84 % 5.17 C
1521 09-04-2020 06:40:00 7.6 C 84 % 5.07 C
1522 09-04-2020 06:45:00 7.4 C 85 % 5.05 C
1523 09-04-2020 06:50:00 7.3 C 85 % 4.95 C
1524 09-04-2020 06:55:00 7.3 C 86 % 5.12 C
1525 09-04-2020 07:00:00 7.3 C 86 % 5.12 C
Sensor: Nr:Datum:Temp:Feuchte:Taupunkt:
Aussen-T/F 1526 09-04-2020 07:05:00 7.3 C 86 % 5.12 C
1527 09-04-2020 07:10:00 7.4 C 87 % 5.38 C
1528 09-04-2020 07:15:00 7.5 C 87 % 5.48 C
1529 09-04-2020 07:20:00 7.7 C 87 % 5.68 C
1530 09-04-2020 07:25:00 7.7 C 86 % 5.51 C
1531 09-04-2020 07:30:00 7.7 C 86 % 5.51 C
1532 09-04-2020 07:35:00 7.7 C 86 % 5.51 C
1533 09-04-2020 07:40:00 7.6 C 86 % 5.41 C
1534 09-04-2020 07:45:00 7.6 C 86 % 5.41 C
1535 09-04-2020 07:50:00 7.6 C 87 % 5.58 C
1536 09-04-2020 07:55:00 7.6 C 87 % 5.58 C
1537 09-04-2020 08:00:00 7.6 C 87 % 5.58 C
1538 09-04-2020 08:05:00 7.6 C 87 % 5.58 C
1539 09-04-2020 08:10:00 7.7 C 88 % 5.84 C
1540 09-04-2020 08:15:00 7.7 C 88 % 5.84 C
1541 09-04-2020 08:20:00 7.8 C 88 % 5.94 C
1542 09-04-2020 08:25:00 7.8 C 88 % 5.94 C
1543 09-04-2020 08:30:00 7.9 C 88 % 6.04 C
1544 09-04-2020 08:35:00 7.9 C 88 % 6.04 C
1545 09-04-2020 08:40:00 8.1 C 88 % 6.24 C
1546 09-04-2020 08:45:00 8.2 C 88 % 6.33 C
1547 09-04-2020 08:50:00 8.3 C 88 % 6.43 C
1548 09-04-2020 08:55:00 8.4 C 87 % 6.37 C
1549 09-04-2020 09:00:00 8.6 C 88 % 6.73 C
1550 09-04-2020 09:05:00 8.7 C 87 % 6.66 C
Sensor: Nr:Datum:Temp:Feuchte:Taupunkt:
Aussen-T/F 1551 09-04-2020 09:10:00 8.8 C 87 % 6.76 C
1552 09-04-2020 09:15:00 8.9 C 87 % 6.86 C
1553 09-04-2020 09:20:00 9 C 87 % 6.96 C
1554 09-04-2020 09:25:00 9.1 C 87 % 7.05 C
1555 09-04-2020 09:30:00 9.2 C 87 % 7.15 C
1556 09-04-2020 09:35:00 9.4 C 87 % 7.35 C
1557 09-04-2020 09:40:00 9.6 C 87 % 7.55 C
1558 09-04-2020 09:45:00 9.8 C 87 % 7.74 C
1559 09-04-2020 09:50:00 9.9 C 87 % 7.84 C
1560 09-04-2020 09:55:00 10.1 C 86 % 7.87 C
1561 09-04-2020 10:00:00 10.3 C 86 % 8.06 C
1562 09-04-2020 10:05:00 10.5 C 86 % 8.26 C
1563 09-04-2020 10:10:00 10.7 C 85 % 8.28 C
1564 09-04-2020 10:15:00 10.9 C 83 % 8.13 C
1565 09-04-2020 10:20:00 11.2 C 83 % 8.42 C
1566 09-04-2020 10:25:00 11.6 C 82 % 8.64 C
1567 09-04-2020 10:30:00 11.8 C 81 % 8.65 C
1568 09-04-2020 10:35:00 12.2 C 80 % 8.86 C
1569 09-04-2020 10:40:00 12.5 C 78 % 8.77 C
1570 09-04-2020 10:45:00 12.8 C 78 % 9.06 C
1571 09-04-2020 10:50:00 13.2 C 77 % 9.26 C
1572 09-04-2020 10:55:00 13.6 C 77 % 9.65 C
1573 09-04-2020 11:00:00 14 C 74 % 9.44 C
1574 09-04-2020 11:05:00 14.4 C 70 % 9 C
1575 09-04-2020 11:10:00 14.9 C 70 % 9.48 C
Sensor: Nr:Datum:Temp:Feuchte:Taupunkt:
Aussen-T/F 1576 09-04-2020 11:15:00 15.4 C 69 % 9.75 C
1577 09-04-2020 11:20:00 15.8 C 66 % 9.47 C
1578 09-04-2020 11:25:00 16.3 C 63 % 9.25 C
1579 09-04-2020 11:30:00 16.7 C 63 % 9.63 C
1580 09-04-2020 11:35:00 17.1 C 60 % 9.28 C
1581 09-04-2020 11:40:00 17.4 C 60 % 9.56 C
1582 09-04-2020 11:45:00 17.7 C 59 % 9.59 C
1583 09-04-2020 11:50:00 18.1 C 56 % 9.19 C
1584 09-04-2020 11:55:00 18.3 C 57 % 9.64 C
1585 09-04-2020 12:00:00 18.6 C 56 % 9.66 C
1586 09-04-2020 12:05:00 18.8 C 55 % 9.58 C
1587 09-04-2020 12:10:00 19.1 C 53 % 9.3 C
1588 09-04-2020 12:15:00 19.3 C 53 % 9.49 C
1589 09-04-2020 12:20:00 19.6 C 53 % 9.77 C
1590 09-04-2020 12:25:00 19.8 C 53 % 9.95 C
1591 09-04-2020 12:30:00 20.1 C 53 % 10.23 C
1592 09-04-2020 12:35:00 20.3 C 51 % 9.84 C
1593 09-04-2020 12:40:00 20.6 C 50 % 9.82 C
1594 09-04-2020 12:45:00 20.8 C 48 % 9.4 C
1595 09-04-2020 12:50:00 21 C 49 % 9.89 C
1596 09-04-2020 12:55:00 21.2 C 49 % 10.07 C
1597 09-04-2020 13:00:00 21.3 C 47 % 9.54 C
1598 09-04-2020 13:05:00 21.3 C 48 % 9.85 C
1599 09-04-2020 13:10:00 21.4 C 46 % 9.31 C
1600 09-04-2020 13:15:00 21.6 C 45 % 9.17 C
Sensor: Nr:Datum:Temp:Feuchte:Taupunkt:
Aussen-T/F 1601 09-04-2020 13:20:00 21.7 C 46 % 9.58 C
1602 09-04-2020 13:25:00 21.8 C 46 % 9.67 C
1603 09-04-2020 13:30:00 21.9 C 44 % 9.1 C
1604 09-04-2020 13:35:00 22.1 C 45 % 9.62 C
1605 09-04-2020 13:40:00 22.1 C 41 % 8.24 C
1606 09-04-2020 13:45:00 22.1 C 39 % 7.51 C
1607 09-04-2020 13:50:00 22.3 C 36 % 6.52 C
1608 09-04-2020 13:55:00 22.3 C 38 % 7.31 C
1609 09-04-2020 14:00:00 22.5 C 38 % 7.48 C
1610 09-04-2020 14:05:00 22.6 C 36 % 6.78 C
1611 09-04-2020 14:10:00 22.6 C 36 % 6.78 C
1612 09-04-2020 14:15:00 22.7 C 36 % 6.87 C
1613 09-04-2020 14:20:00 22.8 C 34 % 6.13 C
1614 09-04-2020 14:25:00 23.1 C 34 % 6.39 C
1615 09-04-2020 14:30:00 23.2 C 34 % 6.48 C
1616 09-04-2020 14:35:00 23.3 C 34 % 6.57 C
1617 09-04-2020 14:40:00 23.4 C 34 % 6.66 C
1618 09-04-2020 14:45:00 23.5 C 35 % 7.17 C
1619 09-04-2020 14:50:00 23.7 C 36 % 7.75 C
1620 09-04-2020 14:55:00 23.7 C 35 % 7.34 C
1621 09-04-2020 15:00:00 23.7 C 34 % 6.92 C
1622 09-04-2020 15:05:00 23.7 C 34 % 6.92 C
1623 09-04-2020 15:10:00 23.7 C 33 % 6.49 C
1624 09-04-2020 15:15:00 23.7 C 33 % 6.49 C
1625 09-04-2020 15:20:00 23.7 C 34 % 6.92 C
Sensor: Nr:Datum:Temp:Feuchte:Taupunkt:
Aussen-T/F 1626 09-04-2020 15:25:00 23.6 C 34 % 6.83 C
1627 09-04-2020 15:30:00 23.6 C 34 % 6.83 C
1628 09-04-2020 15:35:00 23.7 C 36 % 7.75 C
1629 09-04-2020 15:40:00 23.8 C 34 % 7.01 C
1630 09-04-2020 15:45:00 23.8 C 35 % 7.43 C
1631 09-04-2020 15:50:00 23.8 C 35 % 7.43 C
1632 09-04-2020 15:55:00 23.8 C 34 % 7.01 C
1633 09-04-2020 16:00:00 23.8 C 33 % 6.57 C
1634 09-04-2020 16:05:00 23.8 C 34 % 7.01 C
1635 09-04-2020 16:10:00 23.9 C 34 % 7.1 C
1636 09-04-2020 16:15:00 24.1 C 34 % 7.27 C
1637 09-04-2020 16:20:00 24.2 C 34 % 7.36 C
1638 09-04-2020 16:25:00 24.3 C 34 % 7.45 C
1639 09-04-2020 16:30:00 24.3 C 33 % 7.01 C
1640 09-04-2020 16:35:00 24.3 C 33 % 7.01 C
1641 09-04-2020 16:40:00 24.6 C 35 % 8.13 C
1642 09-04-2020 16:45:00 24.7 C 33 % 7.36 C
1643 09-04-2020 16:50:00 24.7 C 34 % 7.8 C
1644 09-04-2020 16:55:00 24.9 C 34 % 7.97 C
1645 09-04-2020 17:00:00 24.9 C 34 % 7.97 C
1646 09-04-2020 17:05:00 24.8 C 33 % 7.45 C
1647 09-04-2020 17:10:00 24.7 C 33 % 7.36 C
1648 09-04-2020 17:15:00 24.8 C 33 % 7.45 C
1649 09-04-2020 17:20:00 24.8 C 32 % 7 C
1650 09-04-2020 17:25:00 24.8 C 33 % 7.45 C
Sensor: Nr:Datum:Temp:Feuchte:Taupunkt:
Aussen-T/F 1651 09-04-2020 17:30:00 24.8 C 32 % 7 C
1652 09-04-2020 17:35:00 24.7 C 32 % 6.91 C
1653 09-04-2020 17:40:00 24.7 C 34 % 7.8 C
1654 09-04-2020 17:45:00 24.6 C 33 % 7.27 C
1655 09-04-2020 17:50:00 24.4 C 34 % 7.53 C
1656 09-04-2020 17:55:00 24.4 C 34 % 7.53 C
1657 09-04-2020 18:00:00 24.6 C 35 % 8.13 C
1658 09-04-2020 18:05:00 24.6 C 34 % 7.71 C
1659 09-04-2020 18:10:00 24.4 C 34 % 7.53 C
1660 09-04-2020 18:15:00 24.2 C 35 % 7.78 C
1661 09-04-2020 18:20:00 24.2 C 35 % 7.78 C
1662 09-04-2020 18:25:00 24.1 C 35 % 7.69 C
1663 09-04-2020 18:30:00 23.9 C 37 % 8.33 C
1664 09-04-2020 18:35:00 23.7 C 37 % 8.16 C
1665 09-04-2020 18:40:00 23.7 C 37 % 8.16 C
1666 09-04-2020 18:45:00 23.7 C 36 % 7.75 C
1667 09-04-2020 18:50:00 23.6 C 37 % 8.07 C
1668 09-04-2020 18:55:00 23.4 C 36 % 7.49 C
1669 09-04-2020 19:00:00 23.3 C 37 % 7.8 C
1670 09-04-2020 19:05:00 23.4 C 38 % 8.28 C
1671 09-04-2020 19:10:00 23.3 C 38 % 8.19 C
1672 09-04-2020 19:15:00 23.2 C 38 % 8.11 C
1673 09-04-2020 19:20:00 22.9 C 38 % 7.84 C
1674 09-04-2020 19:25:00 22.6 C 39 % 7.95 C
1675 09-04-2020 19:30:00 22.2 C 42 % 8.69 C
Sensor: Nr:Datum:Temp:Feuchte:Taupunkt:
Aussen-T/F 1676 09-04-2020 19:35:00 21.9 C 43 % 8.76 C
1677 09-04-2020 19:40:00 21.6 C 43 % 8.49 C
1678 09-04-2020 19:45:00 21.3 C 43 % 8.22 C
1679 09-04-2020 19:50:00 21.1 C 43 % 8.04 C
1680 09-04-2020 19:55:00 20.9 C 44 % 8.2 C
1681 09-04-2020 20:00:00 20.7 C 44 % 8.02 C
1682 09-04-2020 20:05:00 20.4 C 48 % 9.03 C
1683 09-04-2020 20:10:00 19.9 C 48 % 8.57 C
1684 09-04-2020 20:15:00 19.3 C 51 % 8.92 C
1685 09-04-2020 20:20:00 18.7 C 53 % 8.93 C
1686 09-04-2020 20:25:00 18.2 C 54 % 8.75 C
1687 09-04-2020 20:30:00 17.8 C 56 % 8.91 C
1688 09-04-2020 20:35:00 17.4 C 57 % 8.8 C
1689 09-04-2020 20:40:00 17.2 C 57 % 8.62 C
1690 09-04-2020 20:45:00 16.9 C 59 % 8.84 C
1691 09-04-2020 20:50:00 16.7 C 59 % 8.66 C
1692 09-04-2020 20:55:00 16.4 C 60 % 8.62 C
1693 09-04-2020 21:00:00 16.2 C 61 % 8.68 C
1694 09-04-2020 21:05:00 16 C 61 % 8.49 C
1695 09-04-2020 21:10:00 16.1 C 61 % 8.58 C
1696 09-04-2020 21:15:00 16.2 C 60 % 8.43 C
1697 09-04-2020 21:20:00 16.3 C 60 % 8.53 C
1698 09-04-2020 21:25:00 16.3 C 60 % 8.53 C
1699 09-04-2020 21:30:00 16.2 C 61 % 8.68 C
1700 09-04-2020 21:35:00 16 C 61 % 8.49 C
Sensor: Nr:Datum:Temp:Feuchte:Taupunkt:
Aussen-T/F 1701 09-04-2020 21:40:00 15.8 C 62 % 8.54 C
1702 09-04-2020 21:45:00 15.6 C 62 % 8.35 C
1703 09-04-2020 21:50:00 15.4 C 63 % 8.4 C
1704 09-04-2020 21:55:00 15.2 C 64 % 8.44 C
1705 09-04-2020 22:00:00 15.1 C 64 % 8.35 C
1706 09-04-2020 22:05:00 15 C 64 % 8.25 C
1707 09-04-2020 22:10:00 14.9 C 65 % 8.39 C
1708 09-04-2020 22:15:00 14.9 C 65 % 8.39 C
1709 09-04-2020 22:20:00 15 C 65 % 8.48 C
1710 09-04-2020 22:25:00 14.9 C 65 % 8.39 C
1711 09-04-2020 22:30:00 14.8 C 65 % 8.29 C
1712 09-04-2020 22:35:00 14.7 C 66 % 8.42 C
1713 09-04-2020 22:40:00 14.6 C 66 % 8.33 C
1714 09-04-2020 22:45:00 14.4 C 67 % 8.36 C
1715 09-04-2020 22:50:00 14.3 C 67 % 8.26 C
1716 09-04-2020 22:55:00 14.2 C 68 % 8.39 C
1717 09-04-2020 23:00:00 14.1 C 68 % 8.29 C
1718 09-04-2020 23:05:00 13.9 C 68 % 8.1 C
1719 09-04-2020 23:10:00 13.8 C 69 % 8.22 C
1720 09-04-2020 23:15:00 13.8 C 69 % 8.22 C
1721 09-04-2020 23:20:00 13.7 C 69 % 8.12 C
1722 09-04-2020 23:25:00 13.6 C 69 % 8.03 C
1723 09-04-2020 23:30:00 13.4 C 70 % 8.05 C
1724 09-04-2020 23:35:00 13.3 C 70 % 7.95 C
1725 09-04-2020 23:40:00 13.3 C 71 % 8.16 C
Sensor: Nr:Datum:Temp:Feuchte:Taupunkt:
Aussen-T/F 1726 09-04-2020 23:45:00 13.2 C 71 % 8.06 C
1727 09-04-2020 23:50:00 13.1 C 71 % 7.97 C
1728 09-04-2020 23:55:00 12.9 C 72 % 7.98 C
1729 10-04-2020 00:00:00 12.8 C 73 % 8.09 C
1730 10-04-2020 00:05:00 12.7 C 73 % 7.99 C
1731 10-04-2020 00:10:00 12.6 C 73 % 7.89 C
1732 10-04-2020 00:15:00 12.4 C 74 % 7.9 C
1733 10-04-2020 00:20:00 12.3 C 74 % 7.8 C
1734 10-04-2020 00:25:00 12.2 C 74 % 7.71 C
1735 10-04-2020 00:30:00 12 C 75 % 7.71 C
1736 10-04-2020 00:35:00 11.9 C 76 % 7.81 C
1737 10-04-2020 00:40:00 11.7 C 76 % 7.62 C
1738 10-04-2020 00:45:00 11.5 C 76 % 7.42 C
1739 10-04-2020 00:50:00 11.3 C 77 % 7.42 C
1740 10-04-2020 00:55:00 11.1 C 78 % 7.41 C
1741 10-04-2020 01:00:00 10.9 C 79 % 7.41 C
1742 10-04-2020 01:05:00 10.8 C 79 % 7.31 C
1743 10-04-2020 01:10:00 10.7 C 79 % 7.21 C
1744 10-04-2020 01:15:00 10.6 C 79 % 7.11 C
1745 10-04-2020 01:20:00 10.4 C 80 % 7.1 C
1746 10-04-2020 01:25:00 10.3 C 81 % 7.19 C
1747 10-04-2020 01:30:00 10.2 C 81 % 7.09 C
1748 10-04-2020 01:35:00 10.2 C 81 % 7.09 C
1749 10-04-2020 01:40:00 10.2 C 81 % 7.09 C
1750 10-04-2020 01:45:00 10.1 C 81 % 6.99 C
Sensor: Nr:Datum:Temp:Feuchte:Taupunkt:
Aussen-T/F 1751 10-04-2020 01:50:00 9.9 C 82 % 6.98 C
1752 10-04-2020 01:55:00 9.8 C 82 % 6.88 C
1753 10-04-2020 02:00:00 9.7 C 83 % 6.96 C
1754 10-04-2020 02:05:00 9.6 C 82 % 6.68 C
1755 10-04-2020 02:10:00 9.6 C 83 % 6.86 C
1756 10-04-2020 02:15:00 9.6 C 83 % 6.86 C
1757 10-04-2020 02:20:00 9.4 C 83 % 6.66 C
1758 10-04-2020 02:25:00 9.3 C 83 % 6.57 C
1759 10-04-2020 02:30:00 9.3 C 83 % 6.57 C
1760 10-04-2020 02:35:00 9.2 C 83 % 6.47 C
1761 10-04-2020 02:40:00 9.1 C 84 % 6.54 C
1762 10-04-2020 02:45:00 9 C 84 % 6.45 C
1763 10-04-2020 02:50:00 8.9 C 84 % 6.35 C
1764 10-04-2020 02:55:00 8.8 C 84 % 6.25 C
1765 10-04-2020 03:00:00 8.8 C 85 % 6.42 C
1766 10-04-2020 03:05:00 8.7 C 85 % 6.32 C
1767 10-04-2020 03:10:00 8.6 C 85 % 6.23 C
1768 10-04-2020 03:15:00 8.4 C 85 % 6.03 C
1769 10-04-2020 03:20:00 8.4 C 85 % 6.03 C
1770 10-04-2020 03:25:00 8.3 C 86 % 6.1 C
1771 10-04-2020 03:30:00 8.2 C 86 % 6 C
1772 10-04-2020 03:35:00 8.1 C 86 % 5.9 C
1773 10-04-2020 03:40:00 8.1 C 86 % 5.9 C
1774 10-04-2020 03:45:00 8.1 C 87 % 6.07 C
1775 10-04-2020 03:50:00 8 C 87 % 5.97 C
Sensor: Nr:Datum:Temp:Feuchte:Taupunkt:
Aussen-T/F 1776 10-04-2020 03:55:00 7.9 C 87 % 5.87 C
1777 10-04-2020 04:00:00 7.8 C 87 % 5.78 C
1778 10-04-2020 04:05:00 7.7 C 87 % 5.68 C
1779 10-04-2020 04:10:00 7.7 C 87 % 5.68 C
1780 10-04-2020 04:15:00 7.6 C 87 % 5.58 C
1781 10-04-2020 04:20:00 7.6 C 88 % 5.74 C
1782 10-04-2020 04:25:00 7.5 C 88 % 5.64 C
1783 10-04-2020 04:30:00 7.4 C 88 % 5.55 C
1784 10-04-2020 04:35:00 7.3 C 88 % 5.45 C
1785 10-04-2020 04:40:00 7.3 C 89 % 5.61 C
1786 10-04-2020 04:45:00 7.2 C 89 % 5.51 C
1787 10-04-2020 04:50:00 7.2 C 89 % 5.51 C
1788 10-04-2020 04:55:00 7.1 C 89 % 5.41 C
1789 10-04-2020 05:00:00 7.1 C 89 % 5.41 C
1790 10-04-2020 05:05:00 7.1 C 89 % 5.41 C
1791 10-04-2020 05:10:00 6.9 C 89 % 5.22 C
1792 10-04-2020 05:15:00 7 C 90 % 5.48 C
1793 10-04-2020 05:20:00 7 C 90 % 5.48 C
1794 10-04-2020 05:25:00 7.1 C 90 % 5.57 C
1795 10-04-2020 05:30:00 7.1 C 90 % 5.57 C
1796 10-04-2020 05:35:00 7 C 90 % 5.48 C
1797 10-04-2020 05:40:00 6.9 C 90 % 5.38 C
1798 10-04-2020 05:45:00 6.8 C 90 % 5.28 C
1799 10-04-2020 05:50:00 6.7 C 90 % 5.18 C
1800 10-04-2020 05:55:00 6.6 C 90 % 5.08 C
Sensor: Nr:Datum:Temp:Feuchte:Taupunkt:
Aussen-T/F 1801 10-04-2020 06:00:00 6.5 C 90 % 4.98 C
1802 10-04-2020 06:05:00 6.4 C 90 % 4.88 C
1803 10-04-2020 06:10:00 6.5 C 91 % 5.14 C
1804 10-04-2020 06:15:00 6.4 C 91 % 5.04 C
1805 10-04-2020 06:20:00 6.4 C 91 % 5.04 C
1806 10-04-2020 06:25:00 6.3 C 91 % 4.94 C
1807 10-04-2020 06:30:00 6.3 C 91 % 4.94 C
1808 10-04-2020 06:35:00 6.3 C 92 % 5.1 C
1809 10-04-2020 06:40:00 6.2 C 91 % 4.84 C
1810 10-04-2020 06:45:00 6.2 C 91 % 4.84 C
1811 10-04-2020 06:50:00 6.1 C 92 % 4.9 C
1812 10-04-2020 06:55:00 6.1 C 92 % 4.9 C
1813 10-04-2020 07:00:00 6.1 C 92 % 4.9 C
1814 10-04-2020 07:05:00 6.1 C 92 % 4.9 C
1815 10-04-2020 07:10:00 6 C 92 % 4.8 C
1816 10-04-2020 07:15:00 6 C 92 % 4.8 C
1817 10-04-2020 07:20:00 6 C 92 % 4.8 C
1818 10-04-2020 07:25:00 6 C 92 % 4.8 C
1819 10-04-2020 07:30:00 6 C 93 % 4.96 C
1820 10-04-2020 07:35:00 6 C 93 % 4.96 C
1821 10-04-2020 07:40:00 6 C 93 % 4.96 C
1822 10-04-2020 07:45:00 6.1 C 93 % 5.06 C
1823 10-04-2020 07:50:00 6.1 C 93 % 5.06 C
1824 10-04-2020 07:55:00 6.2 C 93 % 5.15 C
1825 10-04-2020 08:00:00 6.2 C 93 % 5.15 C
Sensor: Nr:Datum:Temp:Feuchte:Taupunkt:
Aussen-T/F 1826 10-04-2020 08:05:00 6.3 C 93 % 5.25 C
1827 10-04-2020 08:10:00 6.3 C 93 % 5.25 C
1828 10-04-2020 08:15:00 6.3 C 93 % 5.25 C
1829 10-04-2020 08:20:00 6.4 C 93 % 5.35 C
1830 10-04-2020 08:25:00 6.5 C 94 % 5.61 C
1831 10-04-2020 08:30:00 6.6 C 94 % 5.71 C
1832 10-04-2020 08:35:00 6.6 C 94 % 5.71 C
1833 10-04-2020 08:40:00 6.7 C 94 % 5.8 C
1834 10-04-2020 08:45:00 6.7 C 94 % 5.8 C
1835 10-04-2020 08:50:00 6.8 C 94 % 5.9 C
1836 10-04-2020 08:55:00 6.9 C 94 % 6 C
1837 10-04-2020 09:00:00 7.1 C 94 % 6.2 C
1838 10-04-2020 09:05:00 7.2 C 94 % 6.3 C
1839 10-04-2020 09:10:00 7.4 C 94 % 6.5 C
1840 10-04-2020 09:15:00 7.6 C 94 % 6.7 C
1841 10-04-2020 09:20:00 7.7 C 94 % 6.8 C
1842 10-04-2020 09:25:00 7.8 C 94 % 6.9 C
1843 10-04-2020 09:30:00 8 C 94 % 7.09 C
1844 10-04-2020 09:35:00 8.1 C 94 % 7.19 C
1845 10-04-2020 09:40:00 8.3 C 93 % 7.24 C
1846 10-04-2020 09:45:00 8.4 C 93 % 7.34 C
1847 10-04-2020 09:50:00 8.6 C 93 % 7.53 C
1848 10-04-2020 09:55:00 8.8 C 93 % 7.73 C
1849 10-04-2020 10:00:00 9 C 92 % 7.77 C
1850 10-04-2020 10:05:00 9.2 C 92 % 7.97 C
Sensor: Nr:Datum:Temp:Feuchte:Taupunkt:
Aussen-T/F 1851 10-04-2020 10:10:00 9.4 C 91 % 8.01 C
1852 10-04-2020 10:15:00 9.7 C 91 % 8.3 C
1853 10-04-2020 10:20:00 9.9 C 90 % 8.34 C
1854 10-04-2020 10:25:00 10.3 C 89 % 8.57 C
1855 10-04-2020 10:30:00 10.6 C 88 % 8.7 C
1856 10-04-2020 10:35:00 10.9 C 88 % 8.99 C
1857 10-04-2020 10:40:00 11.3 C 86 % 9.05 C
1858 10-04-2020 10:45:00 11.6 C 85 % 9.17 C
1859 10-04-2020 10:50:00 12 C 84 % 9.38 C
1860 10-04-2020 10:55:00 12.5 C 82 % 9.51 C
1861 10-04-2020 11:00:00 12.9 C 81 % 9.72 C
1862 10-04-2020 11:05:00 13.2 C 79 % 9.64 C
1863 10-04-2020 11:10:00 13.7 C 78 % 9.94 C
1864 10-04-2020 11:15:00 14.1 C 75 % 9.74 C
1865 10-04-2020 11:20:00 14.6 C 74 % 10.02 C
1866 10-04-2020 11:25:00 15.1 C 72 % 10.09 C
1867 10-04-2020 11:30:00 15.4 C 72 % 10.38 C
1868 10-04-2020 11:35:00 15.7 C 70 % 10.25 C
1869 10-04-2020 11:40:00 16.1 C 70 % 10.63 C
1870 10-04-2020 11:45:00 16.4 C 65 % 9.81 C
1871 10-04-2020 11:50:00 16.8 C 64 % 9.96 C
1872 10-04-2020 11:55:00 17.1 C 62 % 9.77 C
1873 10-04-2020 12:00:00 17.4 C 60 % 9.56 C
1874 10-04-2020 12:05:00 17.8 C 58 % 9.43 C
1875 10-04-2020 12:10:00 18.1 C 56 % 9.19 C
Sensor: Nr:Datum:Temp:Feuchte:Taupunkt:
Aussen-T/F 1876 10-04-2020 12:15:00 18.3 C 56 % 9.38 C
1877 10-04-2020 12:20:00 18.6 C 53 % 8.84 C
1878 10-04-2020 12:25:00 18.8 C 53 % 9.03 C
1879 10-04-2020 12:30:00 19.1 C 51 % 8.73 C
1880 10-04-2020 12:35:00 19.1 C 48 % 7.84 C
1881 10-04-2020 12:40:00 19.2 C 48 % 7.93 C
1882 10-04-2020 12:45:00 19.4 C 47 % 7.81 C
1883 10-04-2020 12:50:00 19.4 C 46 % 7.49 C
1884 10-04-2020 12:55:00 19.6 C 47 % 7.99 C
1885 10-04-2020 13:00:00 19.8 C 47 % 8.17 C
1886 10-04-2020 13:05:00 19.7 C 46 % 7.77 C
1887 10-04-2020 13:10:00 19.7 C 47 % 8.08 C
1888 10-04-2020 13:15:00 19.7 C 48 % 8.39 C
1889 10-04-2020 13:20:00 19.8 C 44 % 7.21 C
1890 10-04-2020 13:25:00 20 C 44 % 7.39 C
1891 10-04-2020 13:30:00 20.1 C 44 % 7.48 C
1892 10-04-2020 13:35:00 20.2 C 45 % 7.9 C
1893 10-04-2020 13:40:00 20.3 C 44 % 7.66 C
1894 10-04-2020 13:45:00 20.3 C 44 % 7.66 C
1895 10-04-2020 13:50:00 20.3 C 44 % 7.66 C
1896 10-04-2020 13:55:00 20.3 C 44 % 7.66 C
1897 10-04-2020 14:00:00 20.6 C 44 % 7.93 C
1898 10-04-2020 14:05:00 20.7 C 44 % 8.02 C
1899 10-04-2020 14:10:00 20.8 C 44 % 8.11 C
1900 10-04-2020 14:15:00 20.8 C 41 % 7.08 C
Sensor: Nr:Datum:Temp:Feuchte:Taupunkt:
Aussen-T/F 1901 10-04-2020 14:20:00 20.8 C 43 % 7.77 C
1902 10-04-2020 14:25:00 20.9 C 40 % 6.81 C
1903 10-04-2020 14:30:00 21.1 C 40 % 6.99 C
1904 10-04-2020 14:35:00 21.1 C 40 % 6.99 C
1905 10-04-2020 14:40:00 21.2 C 42 % 7.79 C
1906 10-04-2020 14:45:00 21.4 C 38 % 6.51 C
1907 10-04-2020 14:50:00 21.6 C 38 % 6.69 C
1908 10-04-2020 14:55:00 21.8 C 36 % 6.08 C
1909 10-04-2020 15:00:00 21.8 C 35 % 5.67 C
1910 10-04-2020 15:05:00 21.9 C 35 % 5.76 C
1911 10-04-2020 15:10:00 21.9 C 34 % 5.34 C
1912 10-04-2020 15:15:00 21.9 C 35 % 5.76 C
1913 10-04-2020 15:20:00 21.9 C 34 % 5.34 C
1914 10-04-2020 15:25:00 21.8 C 36 % 6.08 C
1915 10-04-2020 15:30:00 21.8 C 35 % 5.67 C
1916 10-04-2020 15:35:00 21.9 C 38 % 6.95 C
1917 10-04-2020 15:40:00 22.1 C 36 % 6.34 C
1918 10-04-2020 15:45:00 22.2 C 36 % 6.43 C
1919 10-04-2020 15:50:00 22.2 C 38 % 7.22 C
1920 10-04-2020 15:55:00 22.3 C 37 % 6.92 C
1921 10-04-2020 16:00:00 22.3 C 38 % 7.31 C
1922 10-04-2020 16:05:00 22.4 C 38 % 7.4 C
1923 10-04-2020 16:10:00 22.6 C 38 % 7.57 C
1924 10-04-2020 16:15:00 22.7 C 37 % 7.27 C
1925 10-04-2020 16:20:00 22.7 C 37 % 7.27 C
Sensor: Nr:Datum:Temp:Feuchte:Taupunkt:
Aussen-T/F 1926 10-04-2020 16:25:00 22.9 C 37 % 7.45 C
1927 10-04-2020 16:30:00 23.2 C 36 % 7.31 C
1928 10-04-2020 16:35:00 23.4 C 37 % 7.89 C
1929 10-04-2020 16:40:00 23.6 C 35 % 7.25 C
1930 10-04-2020 16:45:00 23.4 C 36 % 7.49 C
1931 10-04-2020 16:50:00 23.5 C 35 % 7.17 C
1932 10-04-2020 16:55:00 23.8 C 36 % 7.84 C
1933 10-04-2020 17:00:00 23.9 C 34 % 7.1 C
1934 10-04-2020 17:05:00 24.1 C 35 % 7.69 C
1935 10-04-2020 17:10:00 24.2 C 34 % 7.36 C
1936 10-04-2020 17:15:00 24.1 C 33 % 6.84 C
1937 10-04-2020 17:20:00 23.8 C 33 % 6.57 C
1938 10-04-2020 17:25:00 23.6 C 34 % 6.83 C
1939 10-04-2020 17:30:00 23.8 C 35 % 7.43 C
1940 10-04-2020 17:35:00 24.1 C 34 % 7.27 C
1941 10-04-2020 17:40:00 24.2 C 35 % 7.78 C
1942 10-04-2020 17:45:00 24.3 C 33 % 7.01 C
1943 10-04-2020 17:50:00 24.1 C 32 % 6.39 C
1944 10-04-2020 17:55:00 23.8 C 34 % 7.01 C
1945 10-04-2020 18:00:00 23.5 C 33 % 6.31 C
1946 10-04-2020 18:05:00 23.4 C 34 % 6.66 C
1947 10-04-2020 18:10:00 23.2 C 35 % 6.9 C
1948 10-04-2020 18:15:00 23.2 C 35 % 6.9 C
1949 10-04-2020 18:20:00 23.2 C 35 % 6.9 C
1950 10-04-2020 18:25:00 23.2 C 36 % 7.31 C
Sensor: Nr:Datum:Temp:Feuchte:Taupunkt:
Aussen-T/F 1951 10-04-2020 18:30:00 23.2 C 36 % 7.31 C
1952 10-04-2020 18:35:00 23.1 C 37 % 7.63 C
1953 10-04-2020 18:40:00 23 C 38 % 7.93 C
1954 10-04-2020 18:45:00 22.9 C 36 % 7.05 C
1955 10-04-2020 18:50:00 22.7 C 36 % 6.87 C
1956 10-04-2020 18:55:00 22.6 C 36 % 6.78 C
1957 10-04-2020 19:00:00 22.4 C 37 % 7.01 C
1958 10-04-2020 19:05:00 22.3 C 37 % 6.92 C
1959 10-04-2020 19:10:00 22.2 C 37 % 6.83 C
1960 10-04-2020 19:15:00 22 C 37 % 6.65 C
1961 10-04-2020 19:20:00 21.7 C 39 % 7.15 C
1962 10-04-2020 19:25:00 21.5 C 38 % 6.6 C
1963 10-04-2020 19:30:00 21.3 C 38 % 6.42 C
1964 10-04-2020 19:35:00 21.2 C 39 % 6.71 C
1965 10-04-2020 19:40:00 21 C 39 % 6.53 C
1966 10-04-2020 19:45:00 20.8 C 39 % 6.35 C
1967 10-04-2020 19:50:00 20.7 C 40 % 6.63 C
1968 10-04-2020 19:55:00 20.5 C 41 % 6.81 C
1969 10-04-2020 20:00:00 20.3 C 41 % 6.63 C
1970 10-04-2020 20:05:00 20 C 44 % 7.39 C
1971 10-04-2020 20:10:00 19.6 C 46 % 7.67 C
1972 10-04-2020 20:15:00 19.1 C 47 % 7.53 C
1973 10-04-2020 20:20:00 18.4 C 50 % 7.8 C
1974 10-04-2020 20:25:00 17.8 C 51 % 7.54 C
1975 10-04-2020 20:30:00 17.2 C 53 % 7.55 C
Sensor: Nr:Datum:Temp:Feuchte:Taupunkt:
Aussen-T/F 1976 10-04-2020 20:35:00 16.7 C 55 % 7.62 C
1977 10-04-2020 20:40:00 16.3 C 55 % 7.25 C
1978 10-04-2020 20:45:00 16 C 57 % 7.49 C
1979 10-04-2020 20:50:00 15.6 C 57 % 7.12 C
1980 10-04-2020 20:55:00 15.4 C 58 % 7.19 C
1981 10-04-2020 21:00:00 15.3 C 58 % 7.09 C
1982 10-04-2020 21:05:00 15.2 C 59 % 7.25 C
1983 10-04-2020 21:10:00 15 C 59 % 7.06 C
1984 10-04-2020 21:15:00 14.8 C 60 % 7.12 C
1985 10-04-2020 21:20:00 14.6 C 61 % 7.17 C
1986 10-04-2020 21:25:00 14.4 C 61 % 6.98 C
1987 10-04-2020 21:30:00 14.3 C 61 % 6.89 C
1988 10-04-2020 21:35:00 14.2 C 60 % 6.56 C
1989 10-04-2020 21:40:00 14.2 C 61 % 6.8 C
1990 10-04-2020 21:45:00 14.2 C 62 % 7.03 C
1991 10-04-2020 21:50:00 14.1 C 62 % 6.94 C
1992 10-04-2020 21:55:00 14 C 62 % 6.84 C
1993 10-04-2020 22:00:00 13.9 C 64 % 7.21 C
1994 10-04-2020 22:05:00 13.9 C 64 % 7.21 C
1995 10-04-2020 22:10:00 13.9 C 63 % 6.98 C
1996 10-04-2020 22:15:00 14 C 64 % 7.31 C
1997 10-04-2020 22:20:00 14.1 C 64 % 7.4 C
1998 10-04-2020 22:25:00 14.2 C 65 % 7.72 C
1999 10-04-2020 22:30:00 14.2 C 63 % 7.27 C
2000 10-04-2020 22:35:00 14.2 C 64 % 7.5 C
Sensor: Nr:Datum:Temp:Feuchte:Taupunkt:
Aussen-T/F 2001 10-04-2020 22:40:00 14.2 C 64 % 7.5 C
2002 10-04-2020 22:45:00 14.1 C 64 % 7.4 C
2003 10-04-2020 22:50:00 14 C 63 % 7.08 C
2004 10-04-2020 22:55:00 13.9 C 63 % 6.98 C
2005 10-04-2020 23:00:00 13.7 C 63 % 6.79 C
2006 10-04-2020 23:05:00 13.6 C 63 % 6.7 C
2007 10-04-2020 23:10:00 13.4 C 64 % 6.74 C
2008 10-04-2020 23:15:00 13.2 C 65 % 6.77 C
2009 10-04-2020 23:20:00 13 C 65 % 6.58 C
2010 10-04-2020 23:25:00 12.8 C 65 % 6.39 C
2011 10-04-2020 23:30:00 12.7 C 66 % 6.52 C
2012 10-04-2020 23:35:00 12.6 C 67 % 6.64 C
2013 10-04-2020 23:40:00 12.4 C 68 % 6.67 C
2014 10-04-2020 23:45:00 12.3 C 68 % 6.57 C
2015 10-04-2020 23:50:00 12.1 C 69 % 6.59 C
2016 10-04-2020 23:55:00 11.9 C 69 % 6.4 C
2017 11-04-2020 00:00:00 11.8 C 70 % 6.51 C
2018 11-04-2020 00:05:00 11.7 C 70 % 6.42 C
2019 11-04-2020 00:10:00 11.5 C 71 % 6.43 C
2020 11-04-2020 00:15:00 11.4 C 71 % 6.34 C
2021 11-04-2020 00:20:00 11.3 C 71 % 6.24 C
2022 11-04-2020 00:25:00 11.2 C 72 % 6.35 C
2023 11-04-2020 00:30:00 11.1 C 72 % 6.25 C
2024 11-04-2020 00:35:00 11 C 72 % 6.15 C
2025 11-04-2020 00:40:00 10.8 C 73 % 6.16 C
Sensor: Nr:Datum:Temp:Feuchte:Taupunkt:
Aussen-T/F 2026 11-04-2020 00:45:00 10.8 C 72 % 5.96 C
2027 11-04-2020 00:50:00 10.7 C 73 % 6.07 C
2028 11-04-2020 00:55:00 10.7 C 72 % 5.87 C
2029 11-04-2020 01:00:00 10.6 C 72 % 5.77 C
2030 11-04-2020 01:05:00 10.5 C 72 % 5.67 C
2031 11-04-2020 01:10:00 10.4 C 72 % 5.58 C
2032 11-04-2020 01:15:00 10.3 C 73 % 5.68 C
2033 11-04-2020 01:20:00 10.2 C 73 % 5.58 C
2034 11-04-2020 01:25:00 10 C 73 % 5.39 C
2035 11-04-2020 01:30:00 9.9 C 74 % 5.49 C
2036 11-04-2020 01:35:00 9.8 C 74 % 5.39 C
2037 11-04-2020 01:40:00 9.7 C 73 % 5.1 C
2038 11-04-2020 01:45:00 9.6 C 73 % 5.01 C
2039 11-04-2020 01:50:00 9.6 C 74 % 5.2 C
2040 11-04-2020 01:55:00 9.4 C 74 % 5.01 C
2041 11-04-2020 02:00:00 9.3 C 74 % 4.91 C
2042 11-04-2020 02:05:00 9.2 C 74 % 4.81 C
2043 11-04-2020 02:10:00 9.1 C 74 % 4.72 C
2044 11-04-2020 02:15:00 9.1 C 75 % 4.91 C
2045 11-04-2020 02:20:00 9 C 74 % 4.62 C
2046 11-04-2020 02:25:00 8.9 C 74 % 4.53 C
2047 11-04-2020 02:30:00 8.9 C 74 % 4.53 C
2048 11-04-2020 02:35:00 8.9 C 74 % 4.53 C
2049 11-04-2020 02:40:00 8.9 C 74 % 4.53 C
2050 11-04-2020 02:45:00 8.9 C 74 % 4.53 C
Sensor: Nr:Datum:Temp:Feuchte:Taupunkt:
Aussen-T/F 2051 11-04-2020 02:50:00 8.8 C 74 % 4.43 C
2052 11-04-2020 02:55:00 8.7 C 74 % 4.33 C
2053 11-04-2020 03:00:00 8.7 C 74 % 4.33 C
2054 11-04-2020 03:05:00 8.6 C 73 % 4.04 C
2055 11-04-2020 03:10:00 8.6 C 73 % 4.04 C
2056 11-04-2020 03:15:00 8.6 C 71 % 3.65 C
2057 11-04-2020 03:20:00 8.6 C 70 % 3.45 C
2058 11-04-2020 03:25:00 8.6 C 70 % 3.45 C
2059 11-04-2020 03:30:00 8.6 C 70 % 3.45 C
2060 11-04-2020 03:35:00 8.5 C 70 % 3.35 C
2061 11-04-2020 03:40:00 8.4 C 72 % 3.65 C
2062 11-04-2020 03:45:00 8.3 C 71 % 3.36 C
2063 11-04-2020 03:50:00 8.3 C 71 % 3.36 C
2064 11-04-2020 03:55:00 8.2 C 70 % 3.06 C
2065 11-04-2020 04:00:00 8.2 C 71 % 3.26 C
2066 11-04-2020 04:05:00 8.1 C 71 % 3.17 C
2067 11-04-2020 04:10:00 8.1 C 71 % 3.17 C
2068 11-04-2020 04:15:00 8 C 70 % 2.87 C
2069 11-04-2020 04:20:00 7.9 C 69 % 2.57 C
2070 11-04-2020 04:25:00 7.9 C 70 % 2.78 C
2071 11-04-2020 04:30:00 7.8 C 69 % 2.48 C
2072 11-04-2020 04:35:00 7.8 C 70 % 2.68 C
2073 11-04-2020 04:40:00 7.7 C 70 % 2.58 C
2074 11-04-2020 04:45:00 7.7 C 70 % 2.58 C
2075 11-04-2020 04:50:00 7.6 C 69 % 2.29 C
Sensor: Nr:Datum:Temp:Feuchte:Taupunkt:
Aussen-T/F 2076 11-04-2020 04:55:00 7.6 C 68 % 2.08 C
2077 11-04-2020 05:00:00 7.5 C 68 % 1.99 C
2078 11-04-2020 05:05:00 7.5 C 69 % 2.19 C
2079 11-04-2020 05:10:00 7.4 C 69 % 2.1 C
2080 11-04-2020 05:15:00 7.3 C 68 % 1.8 C
2081 11-04-2020 05:20:00 7.3 C 70 % 2.2 C
2082 11-04-2020 05:25:00 7.2 C 69 % 1.9 C
2083 11-04-2020 05:30:00 7.1 C 70 % 2.01 C
2084 11-04-2020 05:35:00 6.9 C 70 % 1.82 C
2085 11-04-2020 05:40:00 6.8 C 72 % 2.12 C
2086 11-04-2020 05:45:00 6.7 C 73 % 2.21 C
2087 11-04-2020 05:50:00 6.6 C 72 % 1.92 C
2088 11-04-2020 05:55:00 6.5 C 73 % 2.02 C
2089 11-04-2020 06:00:00 6.4 C 73 % 1.92 C
2090 11-04-2020 06:05:00 6.3 C 74 % 2.02 C
2091 11-04-2020 06:10:00 6.2 C 75 % 2.11 C
2092 11-04-2020 06:15:00 6 C 76 % 2.1 C
2093 11-04-2020 06:20:00 5.8 C 76 % 1.91 C
2094 11-04-2020 06:25:00 5.7 C 76 % 1.81 C
2095 11-04-2020 06:30:00 5.7 C 76 % 1.81 C
2096 11-04-2020 06:35:00 5.7 C 76 % 1.81 C
2097 11-04-2020 06:40:00 5.6 C 76 % 1.71 C
2098 11-04-2020 06:45:00 5.5 C 77 % 1.8 C
2099 11-04-2020 06:50:00 5.4 C 77 % 1.7 C
2100 11-04-2020 06:55:00 5.4 C 77 % 1.7 C
Sensor: Nr:Datum:Temp:Feuchte:Taupunkt:
Aussen-T/F 2101 11-04-2020 07:00:00 5.3 C 77 % 1.6 C
2102 11-04-2020 07:05:00 5.2 C 78 % 1.69 C
2103 11-04-2020 07:10:00 5.2 C 78 % 1.69 C
2104 11-04-2020 07:15:00 5.2 C 78 % 1.69 C
2105 11-04-2020 07:20:00 5.2 C 79 % 1.86 C
2106 11-04-2020 07:25:00 5.2 C 79 % 1.86 C
2107 11-04-2020 07:30:00 5.1 C 79 % 1.77 C
2108 11-04-2020 07:35:00 5.2 C 79 % 1.86 C
2109 11-04-2020 07:40:00 5.2 C 79 % 1.86 C
2110 11-04-2020 07:45:00 5.2 C 78 % 1.69 C
2111 11-04-2020 07:50:00 5.3 C 78 % 1.78 C
2112 11-04-2020 07:55:00 5.4 C 78 % 1.88 C
2113 11-04-2020 08:00:00 5.4 C 78 % 1.88 C
2114 11-04-2020 08:05:00 5.5 C 78 % 1.98 C
2115 11-04-2020 08:10:00 5.6 C 78 % 2.07 C
2116 11-04-2020 08:15:00 5.6 C 78 % 2.07 C
2117 11-04-2020 08:20:00 5.7 C 78 % 2.17 C
2118 11-04-2020 08:25:00 5.7 C 78 % 2.17 C
2119 11-04-2020 08:30:00 5.8 C 78 % 2.27 C
2120 11-04-2020 08:35:00 5.8 C 76 % 1.91 C
2121 11-04-2020 08:40:00 5.9 C 76 % 2 C
2122 11-04-2020 08:45:00 6.1 C 77 % 2.38 C
2123 11-04-2020 08:50:00 6.2 C 76 % 2.29 C
2124 11-04-2020 08:55:00 6.3 C 77 % 2.57 C
2125 11-04-2020 09:00:00 6.4 C 75 % 2.3 C
Sensor: Nr:Datum:Temp:Feuchte:Taupunkt:
Aussen-T/F 2126 11-04-2020 09:05:00 6.6 C 74 % 2.31 C
2127 11-04-2020 09:10:00 6.7 C 74 % 2.4 C
2128 11-04-2020 09:15:00 6.9 C 74 % 2.6 C
2129 11-04-2020 09:20:00 7 C 74 % 2.69 C
2130 11-04-2020 09:25:00 7.2 C 74 % 2.89 C
2131 11-04-2020 09:30:00 7.3 C 74 % 2.98 C
2132 11-04-2020 09:35:00 7.5 C 74 % 3.17 C
2133 11-04-2020 09:40:00 7.7 C 74 % 3.37 C
2134 11-04-2020 09:45:00 7.9 C 73 % 3.37 C
2135 11-04-2020 09:50:00 8.2 C 72 % 3.46 C
2136 11-04-2020 09:55:00 8.4 C 71 % 3.46 C
2137 11-04-2020 10:00:00 8.6 C 71 % 3.65 C
2138 11-04-2020 10:05:00 8.8 C 69 % 3.44 C
2139 11-04-2020 10:10:00 9.1 C 69 % 3.72 C
2140 11-04-2020 10:15:00 9.3 C 70 % 4.12 C
2141 11-04-2020 10:20:00 9.5 C 68 % 3.9 C
2142 11-04-2020 10:25:00 9.8 C 67 % 3.97 C
2143 11-04-2020 10:30:00 10.1 C 66 % 4.05 C
2144 11-04-2020 10:35:00 10.4 C 62 % 3.44 C
2145 11-04-2020 10:40:00 10.7 C 62 % 3.73 C
2146 11-04-2020 10:45:00 11.2 C 55 % 2.51 C
2147 11-04-2020 10:50:00 11.6 C 59 % 3.87 C
2148 11-04-2020 10:55:00 11.9 C 59 % 4.15 C
2149 11-04-2020 11:00:00 12.2 C 56 % 3.69 C
2150 11-04-2020 11:05:00 12.4 C 58 % 4.38 C
Sensor: Nr:Datum:Temp:Feuchte:Taupunkt:
Aussen-T/F 2151 11-04-2020 11:10:00 12.7 C 55 % 3.9 C
2152 11-04-2020 11:15:00 13.1 C 52 % 3.48 C
2153 11-04-2020 11:20:00 13.5 C 51 % 3.57 C
2154 11-04-2020 11:25:00 14 C 51 % 4.04 C
2155 11-04-2020 11:30:00 14.4 C 49 % 3.83 C
2156 11-04-2020 11:35:00 14.8 C 47 % 3.61 C
2157 11-04-2020 11:40:00 15.2 C 46 % 3.67 C
2158 11-04-2020 11:45:00 15.6 C 48 % 4.64 C
2159 11-04-2020 11:50:00 15.8 C 45 % 3.9 C
2160 11-04-2020 11:55:00 16.2 C 44 % 3.95 C
2161 11-04-2020 12:00:00 16.6 C 43 % 3.98 C
2162 11-04-2020 12:05:00 16.9 C 43 % 4.25 C
2163 11-04-2020 12:10:00 17.2 C 42 % 4.19 C
2164 11-04-2020 12:15:00 17.5 C 41 % 4.12 C
2165 11-04-2020 12:20:00 17.8 C 40 % 4.03 C
2166 11-04-2020 12:25:00 18.1 C 38 % 3.57 C
2167 11-04-2020 12:30:00 18.3 C 38 % 3.75 C
2168 11-04-2020 12:35:00 18.6 C 40 % 4.75 C
2169 11-04-2020 12:40:00 18.7 C 39 % 4.48 C
2170 11-04-2020 12:45:00 18.8 C 37 % 3.82 C
2171 11-04-2020 12:50:00 18.8 C 37 % 3.82 C
2172 11-04-2020 12:55:00 18.9 C 37 % 3.91 C
2173 11-04-2020 13:00:00 19.1 C 36 % 3.7 C
2174 11-04-2020 13:05:00 19.2 C 36 % 3.78 C
2175 11-04-2020 13:10:00 19.4 C 36 % 3.96 C
Sensor: Nr:Datum:Temp:Feuchte:Taupunkt:
Aussen-T/F 2176 11-04-2020 13:15:00 19.5 C 36 % 4.05 C
2177 11-04-2020 13:20:00 19.6 C 35 % 3.74 C
2178 11-04-2020 13:25:00 19.6 C 36 % 4.14 C
2179 11-04-2020 13:30:00 19.8 C 37 % 4.7 C
2180 11-04-2020 13:35:00 19.9 C 36 % 4.4 C
2181 11-04-2020 13:40:00 20.1 C 36 % 4.58 C
2182 11-04-2020 13:45:00 20.2 C 36 % 4.67 C
2183 11-04-2020 13:50:00 20.3 C 36 % 4.76 C
2184 11-04-2020 13:55:00 20.4 C 36 % 4.84 C
2185 11-04-2020 14:00:00 20.6 C 37 % 5.41 C
2186 11-04-2020 14:05:00 20.6 C 37 % 5.41 C
2187 11-04-2020 14:10:00 20.7 C 36 % 5.11 C
2188 11-04-2020 14:15:00 20.9 C 36 % 5.28 C
2189 11-04-2020 14:20:00 20.9 C 37 % 5.68 C
2190 11-04-2020 14:25:00 21.2 C 37 % 5.94 C
2191 11-04-2020 14:30:00 21.4 C 36 % 5.73 C
2192 11-04-2020 14:35:00 21.4 C 35 % 5.32 C
2193 11-04-2020 14:40:00 21.5 C 35 % 5.41 C
2194 11-04-2020 14:45:00 21.7 C 34 % 5.17 C
2195 11-04-2020 14:50:00 21.8 C 36 % 6.08 C
2196 11-04-2020 14:55:00 22.1 C 35 % 5.94 C
2197 11-04-2020 15:00:00 22.1 C 34 % 5.52 C
2198 11-04-2020 15:05:00 22.1 C 36 % 6.34 C
2199 11-04-2020 15:10:00 22.1 C 35 % 5.94 C
2200 11-04-2020 15:15:00 22.2 C 34 % 5.61 C
Sensor: Nr:Datum:Temp:Feuchte:Taupunkt:
Aussen-T/F 2201 11-04-2020 15:20:00 22.2 C 35 % 6.02 C
2202 11-04-2020 15:25:00 22.1 C 35 % 5.94 C
2203 11-04-2020 15:30:00 22.1 C 35 % 5.94 C
2204 11-04-2020 15:35:00 22.1 C 35 % 5.94 C
2205 11-04-2020 15:40:00 22.1 C 35 % 5.94 C
2206 11-04-2020 15:45:00 22.2 C 36 % 6.43 C
2207 11-04-2020 15:50:00 22.2 C 35 % 6.02 C
2208 11-04-2020 15:55:00 22.2 C 35 % 6.02 C
2209 11-04-2020 16:00:00 22.2 C 36 % 6.43 C
2210 11-04-2020 16:05:00 22.2 C 37 % 6.83 C
2211 11-04-2020 16:10:00 22.4 C 36 % 6.61 C
2212 11-04-2020 16:15:00 22.7 C 35 % 6.46 C
2213 11-04-2020 16:20:00 22.8 C 35 % 6.55 C
2214 11-04-2020 16:25:00 23 C 34 % 6.31 C
2215 11-04-2020 16:30:00 23.3 C 36 % 7.4 C
2216 11-04-2020 16:35:00 23.7 C 33 % 6.49 C
2217 11-04-2020 16:40:00 24.1 C 34 % 7.27 C
2218 11-04-2020 16:45:00 24.4 C 35 % 7.96 C
2219 11-04-2020 16:50:00 24.8 C 32 % 7 C
2220 11-04-2020 16:55:00 24.9 C 33 % 7.53 C
2221 11-04-2020 17:00:00 24.8 C 31 % 6.54 C
2222 11-04-2020 17:05:00 24.7 C 32 % 6.91 C
2223 11-04-2020 17:10:00 24.6 C 32 % 6.82 C
2224 11-04-2020 17:15:00 24.6 C 32 % 6.82 C
2225 11-04-2020 17:20:00 24.4 C 33 % 7.1 C
Sensor: Nr:Datum:Temp:Feuchte:Taupunkt:
Aussen-T/F 2226 11-04-2020 17:25:00 24.6 C 33 % 7.27 C
2227 11-04-2020 17:30:00 24.6 C 32 % 6.82 C
2228 11-04-2020 17:35:00 24.2 C 33 % 6.92 C
2229 11-04-2020 17:40:00 24.1 C 33 % 6.84 C
2230 11-04-2020 17:45:00 23.9 C 34 % 7.1 C
2231 11-04-2020 17:50:00 24.1 C 33 % 6.84 C
2232 11-04-2020 17:55:00 24.1 C 32 % 6.39 C
2233 11-04-2020 18:00:00 24.2 C 33 % 6.92 C
2234 11-04-2020 18:05:00 24.1 C 33 % 6.84 C
2235 11-04-2020 18:10:00 23.9 C 33 % 6.66 C
2236 11-04-2020 18:15:00 23.8 C 33 % 6.57 C
2237 11-04-2020 18:20:00 23.8 C 33 % 6.57 C
2238 11-04-2020 18:25:00 23.9 C 33 % 6.66 C
2239 11-04-2020 18:30:00 24 C 33 % 6.75 C
2240 11-04-2020 18:35:00 24.3 C 33 % 7.01 C
2241 11-04-2020 18:40:00 24.2 C 34 % 7.36 C
2242 11-04-2020 18:45:00 24.2 C 32 % 6.48 C
2243 11-04-2020 18:50:00 24.1 C 32 % 6.39 C
2244 11-04-2020 18:55:00 23.8 C 33 % 6.57 C
2245 11-04-2020 19:00:00 23.8 C 33 % 6.57 C
2246 11-04-2020 19:05:00 23.9 C 33 % 6.66 C
2247 11-04-2020 19:10:00 23.8 C 34 % 7.01 C
2248 11-04-2020 19:15:00 23.6 C 36 % 7.67 C
2249 11-04-2020 19:20:00 23.4 C 37 % 7.89 C
2250 11-04-2020 19:25:00 23.2 C 33 % 6.05 C
Sensor: Nr:Datum:Temp:Feuchte:Taupunkt:
Aussen-T/F 2251 11-04-2020 19:30:00 22.9 C 35 % 6.64 C
2252 11-04-2020 19:35:00 22.7 C 35 % 6.46 C
2253 11-04-2020 19:40:00 22.4 C 38 % 7.4 C
2254 11-04-2020 19:45:00 22.1 C 41 % 8.24 C
2255 11-04-2020 19:50:00 21.5 C 42 % 8.06 C
2256 11-04-2020 19:55:00 20.7 C 45 % 8.35 C
2257 11-04-2020 20:00:00 19.9 C 46 % 7.95 C
2258 11-04-2020 20:05:00 19.2 C 47 % 7.63 C
2259 11-04-2020 20:10:00 18.6 C 49 % 7.69 C
2260 11-04-2020 20:15:00 18 C 50 % 7.43 C
2261 11-04-2020 20:20:00 17.6 C 51 % 7.35 C
2262 11-04-2020 20:25:00 17.1 C 53 % 7.45 C
2263 11-04-2020 20:30:00 16.8 C 53 % 7.18 C
2264 11-04-2020 20:35:00 16.5 C 53 % 6.9 C
2265 11-04-2020 20:40:00 16.3 C 54 % 6.98 C
2266 11-04-2020 20:45:00 16.1 C 54 % 6.8 C
2267 11-04-2020 20:50:00 15.9 C 55 % 6.88 C
2268 11-04-2020 20:55:00 15.8 C 55 % 6.79 C
2269 11-04-2020 21:00:00 15.7 C 53 % 6.16 C
2270 11-04-2020 21:05:00 15.6 C 56 % 6.86 C
2271 11-04-2020 21:10:00 15.5 C 56 % 6.77 C
2272 11-04-2020 21:15:00 15.4 C 56 % 6.68 C
2273 11-04-2020 21:20:00 15.3 C 56 % 6.58 C
2274 11-04-2020 21:25:00 15.3 C 56 % 6.58 C
2275 11-04-2020 21:30:00 15.2 C 57 % 6.75 C
Sensor: Nr:Datum:Temp:Feuchte:Taupunkt:
Aussen-T/F 2276 11-04-2020 21:35:00 15.1 C 58 % 6.91 C
2277 11-04-2020 21:40:00 14.9 C 57 % 6.47 C
2278 11-04-2020 21:45:00 14.8 C 57 % 6.37 C
2279 11-04-2020 21:50:00 14.8 C 58 % 6.63 C
2280 11-04-2020 21:55:00 14.6 C 60 % 6.93 C
2281 11-04-2020 22:00:00 14.4 C 59 % 6.5 C
2282 11-04-2020 22:05:00 14.3 C 60 % 6.65 C
2283 11-04-2020 22:10:00 14.2 C 60 % 6.56 C
2284 11-04-2020 22:15:00 14.1 C 60 % 6.46 C
2285 11-04-2020 22:20:00 14.1 C 60 % 6.46 C
2286 11-04-2020 22:25:00 14.1 C 61 % 6.7 C
2287 11-04-2020 22:30:00 14.1 C 62 % 6.94 C
2288 11-04-2020 22:35:00 14.1 C 63 % 7.17 C
2289 11-04-2020 22:40:00 14.1 C 63 % 7.17 C
2290 11-04-2020 22:45:00 14.2 C 63 % 7.27 C
2291 11-04-2020 22:50:00 14.2 C 64 % 7.5 C
2292 11-04-2020 22:55:00 14.2 C 65 % 7.72 C
2293 11-04-2020 23:00:00 14.2 C 64 % 7.5 C
2294 11-04-2020 23:05:00 14 C 64 % 7.31 C
2295 11-04-2020 23:10:00 13.8 C 63 % 6.89 C
2296 11-04-2020 23:15:00 13.6 C 64 % 6.93 C
2297 11-04-2020 23:20:00 13.4 C 64 % 6.74 C
2298 11-04-2020 23:25:00 13.3 C 65 % 6.87 C
2299 11-04-2020 23:30:00 13.1 C 65 % 6.68 C
2300 11-04-2020 23:35:00 12.8 C 66 % 6.61 C
Sensor: Nr:Datum:Temp:Feuchte:Taupunkt:
Aussen-T/F 2301 11-04-2020 23:40:00 12.7 C 67 % 6.74 C
2302 11-04-2020 23:45:00 12.5 C 67 % 6.55 C
2303 11-04-2020 23:50:00 12.3 C 69 % 6.78 C
2304 11-04-2020 23:55:00 12.2 C 69 % 6.69 C
2305 12-04-2020 00:00:00 12.1 C 69 % 6.59 C
2306 12-04-2020 00:05:00 12.2 C 70 % 6.9 C
2307 12-04-2020 00:10:00 12.1 C 69 % 6.59 C
2308 12-04-2020 00:15:00 12 C 69 % 6.5 C
2309 12-04-2020 00:20:00 11.9 C 70 % 6.61 C
2310 12-04-2020 00:25:00 11.8 C 71 % 6.72 C
2311 12-04-2020 00:30:00 11.7 C 71 % 6.62 C
2312 12-04-2020 00:35:00 11.6 C 72 % 6.73 C
2313 12-04-2020 00:40:00 11.6 C 71 % 6.53 C
2314 12-04-2020 00:45:00 11.6 C 71 % 6.53 C
2315 12-04-2020 00:50:00 11.7 C 70 % 6.42 C
2316 12-04-2020 00:55:00 11.7 C 70 % 6.42 C
2317 12-04-2020 01:00:00 11.6 C 70 % 6.32 C
2318 12-04-2020 01:05:00 11.5 C 70 % 6.23 C
2319 12-04-2020 01:10:00 11.4 C 71 % 6.34 C
2320 12-04-2020 01:15:00 11.3 C 71 % 6.24 C
2321 12-04-2020 01:20:00 11.1 C 70 % 5.84 C
2322 12-04-2020 01:25:00 11 C 71 % 5.95 C
2323 12-04-2020 01:30:00 10.9 C 71 % 5.86 C
2324 12-04-2020 01:35:00 10.8 C 72 % 5.96 C
2325 12-04-2020 01:40:00 10.7 C 71 % 5.66 C
Sensor: Nr:Datum:Temp:Feuchte:Taupunkt:
Aussen-T/F 2326 12-04-2020 01:45:00 10.6 C 72 % 5.77 C
2327 12-04-2020 01:50:00 10.6 C 71 % 5.57 C
2328 12-04-2020 01:55:00 10.7 C 72 % 5.87 C
2329 12-04-2020 02:00:00 10.8 C 72 % 5.96 C
2330 12-04-2020 02:05:00 10.8 C 73 % 6.16 C
2331 12-04-2020 02:10:00 10.9 C 74 % 6.45 C
2332 12-04-2020 02:15:00 10.9 C 75 % 6.65 C
2333 12-04-2020 02:20:00 10.9 C 75 % 6.65 C
2334 12-04-2020 02:25:00 10.8 C 74 % 6.36 C
2335 12-04-2020 02:30:00 10.7 C 73 % 6.07 C
2336 12-04-2020 02:35:00 10.7 C 73 % 6.07 C
2337 12-04-2020 02:40:00 10.7 C 73 % 6.07 C
2338 12-04-2020 02:45:00 10.7 C 73 % 6.07 C
2339 12-04-2020 02:50:00 10.6 C 74 % 6.17 C
2340 12-04-2020 02:55:00 10.5 C 75 % 6.26 C
2341 12-04-2020 03:00:00 10.4 C 74 % 5.97 C
2342 12-04-2020 03:05:00 10.4 C 75 % 6.17 C
2343 12-04-2020 03:10:00 10.4 C 76 % 6.36 C
2344 12-04-2020 03:15:00 10.4 C 77 % 6.55 C
2345 12-04-2020 03:20:00 10.4 C 77 % 6.55 C
2346 12-04-2020 03:25:00 10.4 C 76 % 6.36 C
2347 12-04-2020 03:30:00 10.4 C 76 % 6.36 C
2348 12-04-2020 03:35:00 10.4 C 77 % 6.55 C
2349 12-04-2020 03:40:00 10.4 C 77 % 6.55 C
2350 12-04-2020 03:45:00 10.3 C 77 % 6.45 C
Sensor: Nr:Datum:Temp:Feuchte:Taupunkt:
Aussen-T/F 2351 12-04-2020 03:50:00 10.3 C 77 % 6.45 C
2352 12-04-2020 03:55:00 10.3 C 77 % 6.45 C
2353 12-04-2020 04:00:00 10.3 C 77 % 6.45 C
2354 12-04-2020 04:05:00 10.3 C 78 % 6.64 C
2355 12-04-2020 04:10:00 10.2 C 78 % 6.54 C
2356 12-04-2020 04:15:00 10.1 C 77 % 6.26 C
2357 12-04-2020 04:20:00 9.9 C 77 % 6.06 C
2358 12-04-2020 04:25:00 9.7 C 78 % 6.06 C
2359 12-04-2020 04:30:00 9.6 C 78 % 5.96 C
2360 12-04-2020 04:35:00 9.4 C 79 % 5.95 C
2361 12-04-2020 04:40:00 9.3 C 79 % 5.85 C
2362 12-04-2020 04:45:00 9.3 C 80 % 6.03 C
2363 12-04-2020 04:50:00 9.2 C 80 % 5.94 C
2364 12-04-2020 04:55:00 9.1 C 80 % 5.84 C
2365 12-04-2020 05:00:00 8.9 C 81 % 5.82 C
2366 12-04-2020 05:05:00 8.8 C 81 % 5.72 C
2367 12-04-2020 05:10:00 8.8 C 82 % 5.9 C
2368 12-04-2020 05:15:00 8.8 C 82 % 5.9 C
2369 12-04-2020 05:20:00 8.8 C 82 % 5.9 C
2370 12-04-2020 05:25:00 8.8 C 82 % 5.9 C
2371 12-04-2020 05:30:00 8.8 C 82 % 5.9 C
2372 12-04-2020 05:35:00 8.7 C 82 % 5.8 C
2373 12-04-2020 05:40:00 8.6 C 82 % 5.71 C
2374 12-04-2020 05:45:00 8.4 C 83 % 5.69 C
2375 12-04-2020 05:50:00 8.4 C 83 % 5.69 C
Sensor: Nr:Datum:Temp:Feuchte:Taupunkt:
Aussen-T/F 2376 12-04-2020 05:55:00 8.3 C 83 % 5.59 C
2377 12-04-2020 06:00:00 8.2 C 83 % 5.49 C
2378 12-04-2020 06:05:00 8.2 C 84 % 5.66 C
2379 12-04-2020 06:10:00 8.1 C 84 % 5.56 C
2380 12-04-2020 06:15:00 8.1 C 84 % 5.56 C
2381 12-04-2020 06:20:00 7.9 C 84 % 5.37 C
2382 12-04-2020 06:25:00 7.9 C 85 % 5.54 C
2383 12-04-2020 06:30:00 7.8 C 85 % 5.44 C
2384 12-04-2020 06:35:00 7.8 C 86 % 5.61 C
2385 12-04-2020 06:40:00 7.8 C 86 % 5.61 C
2386 12-04-2020 06:45:00 7.8 C 86 % 5.61 C
2387 12-04-2020 06:50:00 7.8 C 86 % 5.61 C
2388 12-04-2020 06:55:00 7.7 C 86 % 5.51 C
2389 12-04-2020 07:00:00 7.6 C 86 % 5.41 C
2390 12-04-2020 07:05:00 7.5 C 86 % 5.31 C
2391 12-04-2020 07:10:00 7.4 C 86 % 5.22 C
2392 12-04-2020 07:15:00 7.3 C 87 % 5.28 C
2393 12-04-2020 07:20:00 7.3 C 87 % 5.28 C
2394 12-04-2020 07:25:00 7.3 C 87 % 5.28 C
2395 12-04-2020 07:30:00 7.3 C 88 % 5.45 C
2396 12-04-2020 07:35:00 7.3 C 88 % 5.45 C
2397 12-04-2020 07:40:00 7.3 C 88 % 5.45 C
2398 12-04-2020 07:45:00 7.4 C 89 % 5.71 C
2399 12-04-2020 07:50:00 7.4 C 89 % 5.71 C
2400 12-04-2020 07:55:00 7.5 C 88 % 5.64 C
Sensor: Nr:Datum:Temp:Feuchte:Taupunkt:
Aussen-T/F 2401 12-04-2020 08:00:00 7.6 C 89 % 5.91 C
2402 12-04-2020 08:05:00 7.7 C 89 % 6 C
2403 12-04-2020 08:10:00 7.9 C 88 % 6.04 C
2404 12-04-2020 08:15:00 7.9 C 88 % 6.04 C
2405 12-04-2020 08:20:00 7.9 C 88 % 6.04 C
2406 12-04-2020 08:25:00 8 C 89 % 6.3 C
2407 12-04-2020 08:30:00 8 C 89 % 6.3 C
2408 12-04-2020 08:35:00 8.1 C 89 % 6.4 C
2409 12-04-2020 08:40:00 8.1 C 89 % 6.4 C
2410 12-04-2020 08:45:00 8.2 C 89 % 6.5 C
2411 12-04-2020 08:50:00 8.3 C 89 % 6.6 C
2412 12-04-2020 08:55:00 8.4 C 89 % 6.7 C
2413 12-04-2020 09:00:00 8.6 C 89 % 6.89 C
2414 12-04-2020 09:05:00 8.7 C 89 % 6.99 C
2415 12-04-2020 09:10:00 8.8 C 89 % 7.09 C
2416 12-04-2020 09:15:00 8.9 C 89 % 7.19 C
2417 12-04-2020 09:20:00 9.1 C 89 % 7.39 C
2418 12-04-2020 09:25:00 9.3 C 89 % 7.58 C
2419 12-04-2020 09:30:00 9.4 C 89 % 7.68 C
2420 12-04-2020 09:35:00 9.6 C 89 % 7.88 C
2421 12-04-2020 09:40:00 9.7 C 88 % 7.81 C
2422 12-04-2020 09:45:00 9.9 C 88 % 8.01 C
2423 12-04-2020 09:50:00 10.2 C 88 % 8.3 C
2424 12-04-2020 09:55:00 10.3 C 88 % 8.4 C
2425 12-04-2020 10:00:00 10.7 C 87 % 8.63 C
Sensor: Nr:Datum:Temp:Feuchte:Taupunkt:
Aussen-T/F 2426 12-04-2020 10:05:00 10.9 C 86 % 8.65 C
2427 12-04-2020 10:10:00 11.2 C 86 % 8.95 C
2428 12-04-2020 10:15:00 11.4 C 85 % 8.97 C
2429 12-04-2020 10:20:00 11.7 C 85 % 9.27 C
2430 12-04-2020 10:25:00 12 C 84 % 9.38 C
2431 12-04-2020 10:30:00 12.3 C 83 % 9.5 C
2432 12-04-2020 10:35:00 12.6 C 82 % 9.61 C
2433 12-04-2020 10:40:00 13.1 C 79 % 9.54 C
2434 12-04-2020 10:45:00 13.5 C 79 % 9.93 C
2435 12-04-2020 10:50:00 13.9 C 77 % 9.94 C
2436 12-04-2020 10:55:00 14.2 C 77 % 10.23 C
2437 12-04-2020 11:00:00 14.4 C 76 % 10.23 C
2438 12-04-2020 11:05:00 14.7 C 75 % 10.32 C
2439 12-04-2020 11:10:00 15.2 C 72 % 10.19 C
2440 12-04-2020 11:15:00 15.7 C 71 % 10.46 C
2441 12-04-2020 11:20:00 16.2 C 69 % 10.51 C
2442 12-04-2020 11:25:00 16.7 C 69 % 10.99 C
2443 12-04-2020 11:30:00 17 C 68 % 11.06 C
2444 12-04-2020 11:35:00 17.3 C 66 % 10.89 C
2445 12-04-2020 11:40:00 17.6 C 62 % 10.24 C
2446 12-04-2020 11:45:00 17.9 C 60 % 10.03 C
2447 12-04-2020 11:50:00 18.3 C 57 % 9.64 C
2448 12-04-2020 11:55:00 18.6 C 56 % 9.66 C
2449 12-04-2020 12:00:00 18.9 C 56 % 9.94 C
2450 12-04-2020 12:05:00 19.3 C 53 % 9.49 C
Sensor: Nr:Datum:Temp:Feuchte:Taupunkt:
Aussen-T/F 2451 12-04-2020 12:10:00 19.7 C 54 % 10.14 C
2452 12-04-2020 12:15:00 19.9 C 52 % 9.76 C
2453 12-04-2020 12:20:00 20.1 C 51 % 9.66 C
2454 12-04-2020 12:25:00 20.3 C 49 % 9.24 C
2455 12-04-2020 12:30:00 20.4 C 50 % 9.64 C
2456 12-04-2020 12:35:00 20.6 C 47 % 8.9 C
2457 12-04-2020 12:40:00 20.6 C 45 % 8.26 C
2458 12-04-2020 12:45:00 20.7 C 45 % 8.35 C
2459 12-04-2020 12:50:00 20.8 C 44 % 8.11 C
2460 12-04-2020 12:55:00 20.8 C 42 % 7.43 C
2461 12-04-2020 13:00:00 20.9 C 42 % 7.52 C
2462 12-04-2020 13:05:00 21.1 C 37 % 5.86 C
2463 12-04-2020 13:10:00 21.3 C 36 % 5.64 C
2464 12-04-2020 13:15:00 21.3 C 37 % 6.03 C
2465 12-04-2020 13:20:00 21.5 C 38 % 6.6 C
2466 12-04-2020 13:25:00 21.7 C 38 % 6.77 C
2467 12-04-2020 13:30:00 21.8 C 37 % 6.48 C
2468 12-04-2020 13:35:00 21.8 C 36 % 6.08 C
2469 12-04-2020 13:40:00 21.9 C 36 % 6.17 C
2470 12-04-2020 13:45:00 21.9 C 34 % 5.34 C
2471 12-04-2020 13:50:00 21.9 C 33 % 4.92 C
2472 12-04-2020 13:55:00 21.9 C 33 % 4.92 C
2473 12-04-2020 14:00:00 21.9 C 33 % 4.92 C
2474 12-04-2020 14:05:00 22 C 34 % 5.43 C
2475 12-04-2020 14:10:00 22.1 C 33 % 5.09 C
Sensor: Nr:Datum:Temp:Feuchte:Taupunkt:
Aussen-T/F 2476 12-04-2020 14:15:00 22.2 C 32 % 4.74 C
2477 12-04-2020 14:20:00 22.3 C 32 % 4.82 C
2478 12-04-2020 14:25:00 22.4 C 31 % 4.46 C
2479 12-04-2020 14:30:00 22.4 C 33 % 5.35 C
2480 12-04-2020 14:35:00 22.4 C 32 % 4.91 C
2481 12-04-2020 14:40:00 22.6 C 32 % 5.08 C
2482 12-04-2020 14:45:00 22.7 C 31 % 4.72 C
2483 12-04-2020 14:50:00 22.9 C 31 % 4.89 C
2484 12-04-2020 14:55:00 23.1 C 31 % 5.06 C
2485 12-04-2020 15:00:00 23.1 C 31 % 5.06 C
2486 12-04-2020 15:05:00 23.2 C 30 % 4.68 C
2487 12-04-2020 15:10:00 23.2 C 30 % 4.68 C
2488 12-04-2020 15:15:00 23.1 C 29 % 4.11 C
2489 12-04-2020 15:20:00 23.2 C 28 % 3.7 C
2490 12-04-2020 15:25:00 23.3 C 27 % 3.27 C
2491 12-04-2020 15:30:00 23.4 C 27 % 3.35 C
2492 12-04-2020 15:35:00 23.5 C 28 % 3.96 C
2493 12-04-2020 15:40:00 23.7 C 28 % 4.13 C
2494 12-04-2020 15:45:00 23.9 C 32 % 6.21 C
2495 12-04-2020 15:50:00 23.6 C 31 % 5.5 C
2496 12-04-2020 15:55:00 23.3 C 31 % 5.24 C
2497 12-04-2020 16:00:00 23.2 C 35 % 6.9 C
2498 12-04-2020 16:05:00 23.4 C 32 % 5.78 C
2499 12-04-2020 16:10:00 23.8 C 32 % 6.13 C
2500 12-04-2020 16:15:00 24.2 C 29 % 5.06 C
Sensor: Nr:Datum:Temp:Feuchte:Taupunkt:
Aussen-T/F 2501 12-04-2020 16:20:00 24.6 C 26 % 3.84 C
2502 12-04-2020 16:25:00 24.8 C 23 % 2.28 C
2503 12-04-2020 16:30:00 24.6 C 27 % 4.38 C
2504 12-04-2020 16:35:00 24.1 C 29 % 4.97 C
2505 12-04-2020 16:40:00 23.7 C 29 % 4.63 C
2506 12-04-2020 16:45:00 23.4 C 29 % 4.37 C
2507 12-04-2020 16:50:00 23.2 C 30 % 4.68 C
2508 12-04-2020 16:55:00 23.2 C 31 % 5.15 C
2509 12-04-2020 17:00:00 23.8 C 30 % 5.2 C
2510 12-04-2020 17:05:00 24.3 C 29 % 5.14 C
2511 12-04-2020 17:10:00 24.4 C 28 % 4.73 C
2512 12-04-2020 17:15:00 24.5 C 28 % 4.81 C
2513 12-04-2020 17:20:00 24.3 C 29 % 5.14 C
2514 12-04-2020 17:25:00 24.3 C 29 % 5.14 C
2515 12-04-2020 17:30:00 24.2 C 27 % 4.04 C
2516 12-04-2020 17:35:00 24.1 C 30 % 5.46 C
2517 12-04-2020 17:40:00 24.3 C 29 % 5.14 C
2518 12-04-2020 17:45:00 24.5 C 27 % 4.29 C
2519 12-04-2020 17:50:00 24.6 C 27 % 4.38 C
2520 12-04-2020 17:55:00 24.7 C 27 % 4.46 C
2521 12-04-2020 18:00:00 24.6 C 28 % 4.9 C
2522 12-04-2020 18:05:00 24.6 C 26 % 3.84 C
2523 12-04-2020 18:10:00 24.6 C 27 % 4.38 C
2524 12-04-2020 18:15:00 24.7 C 26 % 3.93 C
2525 12-04-2020 18:20:00 24.7 C 27 % 4.46 C
Sensor: Nr:Datum:Temp:Feuchte:Taupunkt:
Aussen-T/F 2526 12-04-2020 18:25:00 24.9 C 27 % 4.63 C
2527 12-04-2020 18:30:00 24.8 C 26 % 4.01 C
2528 12-04-2020 18:35:00 24.7 C 27 % 4.46 C
2529 12-04-2020 18:40:00 24.3 C 27 % 4.12 C
2530 12-04-2020 18:45:00 24.1 C 29 % 4.97 C
2531 12-04-2020 18:50:00 24.1 C 28 % 4.47 C
2532 12-04-2020 18:55:00 23.8 C 27 % 3.7 C
2533 12-04-2020 19:00:00 23.7 C 28 % 4.13 C
2534 12-04-2020 19:05:00 23.7 C 29 % 4.63 C
2535 12-04-2020 19:10:00 23.4 C 28 % 3.87 C
2536 12-04-2020 19:15:00 23.3 C 29 % 4.28 C
2537 12-04-2020 19:20:00 23.1 C 29 % 4.11 C
2538 12-04-2020 19:25:00 22.9 C 28 % 3.44 C
2539 12-04-2020 19:30:00 22.7 C 30 % 4.25 C
2540 12-04-2020 19:35:00 22.5 C 35 % 6.29 C
2541 12-04-2020 19:40:00 22.2 C 37 % 6.83 C
2542 12-04-2020 19:45:00 21.9 C 37 % 6.56 C
2543 12-04-2020 19:50:00 21.4 C 40 % 7.25 C
2544 12-04-2020 19:55:00 20.7 C 40 % 6.63 C
2545 12-04-2020 20:00:00 20.1 C 41 % 6.45 C
2546 12-04-2020 20:05:00 19.3 C 43 % 6.42 C
2547 12-04-2020 20:10:00 18.8 C 43 % 5.97 C
2548 12-04-2020 20:15:00 18.3 C 45 % 6.17 C
2549 12-04-2020 20:20:00 17.9 C 45 % 5.81 C
2550 12-04-2020 20:25:00 17.6 C 46 % 5.86 C
Sensor: Nr:Datum:Temp:Feuchte:Taupunkt:
Aussen-T/F 2551 12-04-2020 20:30:00 17.3 C 47 % 5.89 C
2552 12-04-2020 20:35:00 17.1 C 48 % 6.01 C
2553 12-04-2020 20:40:00 16.8 C 47 % 5.44 C
2554 12-04-2020 20:45:00 16.6 C 48 % 5.56 C
2555 12-04-2020 20:50:00 16.4 C 48 % 5.37 C
2556 12-04-2020 20:55:00 16.2 C 50 % 5.78 C
2557 12-04-2020 21:00:00 16 C 51 % 5.88 C
2558 12-04-2020 21:05:00 15.8 C 53 % 6.25 C
2559 12-04-2020 21:10:00 15.4 C 54 % 6.15 C
2560 12-04-2020 21:15:00 15.2 C 55 % 6.23 C
2561 12-04-2020 21:20:00 14.8 C 57 % 6.37 C
2562 12-04-2020 21:25:00 14.5 C 57 % 6.09 C
2563 12-04-2020 21:30:00 14.2 C 60 % 6.56 C
2564 12-04-2020 21:35:00 14.1 C 58 % 5.97 C
2565 12-04-2020 21:40:00 13.9 C 60 % 6.27 C
2566 12-04-2020 21:45:00 13.9 C 58 % 5.78 C
2567 12-04-2020 21:50:00 13.8 C 60 % 6.18 C
2568 12-04-2020 21:55:00 13.7 C 60 % 6.09 C
2569 12-04-2020 22:00:00 13.6 C 62 % 6.47 C
2570 12-04-2020 22:05:00 13.6 C 61 % 6.23 C
2571 12-04-2020 22:10:00 13.5 C 62 % 6.37 C
2572 12-04-2020 22:15:00 13.4 C 61 % 6.04 C
2573 12-04-2020 22:20:00 13.3 C 61 % 5.95 C
2574 12-04-2020 22:25:00 13.2 C 60 % 5.61 C
2575 12-04-2020 22:30:00 13.2 C 60 % 5.61 C
Sensor: Nr:Datum:Temp:Feuchte:Taupunkt:
Aussen-T/F 2576 12-04-2020 22:35:00 13 C 61 % 5.66 C
2577 12-04-2020 22:40:00 12.8 C 62 % 5.71 C
2578 12-04-2020 22:45:00 12.6 C 63 % 5.75 C
2579 12-04-2020 22:50:00 12.4 C 62 % 5.33 C
2580 12-04-2020 22:55:00 12.2 C 62 % 5.14 C
2581 12-04-2020 23:00:00 12.2 C 63 % 5.37 C
2582 12-04-2020 23:05:00 12.1 C 64 % 5.51 C
2583 12-04-2020 23:10:00 11.9 C 65 % 5.54 C
2584 12-04-2020 23:15:00 11.7 C 66 % 5.57 C
2585 12-04-2020 23:20:00 11.6 C 66 % 5.47 C
2586 12-04-2020 23:25:00 11.6 C 66 % 5.47 C
2587 12-04-2020 23:30:00 11.4 C 66 % 5.28 C
2588 12-04-2020 23:35:00 11.3 C 67 % 5.4 C
2589 12-04-2020 23:40:00 11.1 C 68 % 5.43 C
2590 12-04-2020 23:45:00 10.9 C 69 % 5.44 C
2591 12-04-2020 23:50:00 10.8 C 70 % 5.56 C
2592 12-04-2020 23:55:00 10.8 C 69 % 5.35 C
2593 13-04-2020 00:00:00 10.8 C 70 % 5.56 C
2594 13-04-2020 00:05:00 10.8 C 70 % 5.56 C
2595 13-04-2020 00:10:00 10.8 C 71 % 5.76 C
2596 13-04-2020 00:15:00 10.8 C 71 % 5.76 C
2597 13-04-2020 00:20:00 10.8 C 72 % 5.96 C
2598 13-04-2020 00:25:00 10.8 C 72 % 5.96 C
2599 13-04-2020 00:30:00 10.7 C 72 % 5.87 C
2600 13-04-2020 00:35:00 10.7 C 72 % 5.87 C
Sensor: Nr:Datum:Temp:Feuchte:Taupunkt:
Aussen-T/F 2601 13-04-2020 00:40:00 10.6 C 72 % 5.77 C
2602 13-04-2020 00:45:00 10.4 C 73 % 5.78 C
2603 13-04-2020 00:50:00 10.3 C 73 % 5.68 C
2604 13-04-2020 00:55:00 10.2 C 74 % 5.78 C
2605 13-04-2020 01:00:00 10.1 C 74 % 5.68 C
2606 13-04-2020 01:05:00 9.9 C 74 % 5.49 C
2607 13-04-2020 01:10:00 9.8 C 74 % 5.39 C
2608 13-04-2020 01:15:00 9.8 C 75 % 5.59 C
2609 13-04-2020 01:20:00 9.8 C 75 % 5.59 C
2610 13-04-2020 01:25:00 9.7 C 76 % 5.68 C
2611 13-04-2020 01:30:00 9.7 C 76 % 5.68 C
2612 13-04-2020 01:35:00 9.7 C 76 % 5.68 C
2613 13-04-2020 01:40:00 9.6 C 76 % 5.58 C
2614 13-04-2020 01:45:00 9.6 C 76 % 5.58 C
2615 13-04-2020 01:50:00 9.6 C 76 % 5.58 C
2616 13-04-2020 01:55:00 9.6 C 76 % 5.58 C
2617 13-04-2020 02:00:00 9.6 C 76 % 5.58 C
2618 13-04-2020 02:05:00 9.5 C 76 % 5.49 C
2619 13-04-2020 02:10:00 9.4 C 76 % 5.39 C
2620 13-04-2020 02:15:00 9.4 C 76 % 5.39 C
2621 13-04-2020 02:20:00 9.4 C 76 % 5.39 C
2622 13-04-2020 02:25:00 9.4 C 77 % 5.58 C
2623 13-04-2020 02:30:00 9.4 C 77 % 5.58 C
2624 13-04-2020 02:35:00 9.4 C 77 % 5.58 C
2625 13-04-2020 02:40:00 9.3 C 77 % 5.48 C
Sensor: Nr:Datum:Temp:Feuchte:Taupunkt:
Aussen-T/F 2626 13-04-2020 02:45:00 9.2 C 77 % 5.38 C
2627 13-04-2020 02:50:00 9.3 C 77 % 5.48 C
2628 13-04-2020 02:55:00 9.3 C 77 % 5.48 C
2629 13-04-2020 03:00:00 9.2 C 77 % 5.38 C
2630 13-04-2020 03:05:00 9.1 C 78 % 5.47 C
2631 13-04-2020 03:10:00 8.9 C 79 % 5.46 C
2632 13-04-2020 03:15:00 8.8 C 79 % 5.36 C
2633 13-04-2020 03:20:00 8.7 C 79 % 5.27 C
2634 13-04-2020 03:25:00 8.6 C 80 % 5.35 C
2635 13-04-2020 03:30:00 8.6 C 80 % 5.35 C
2636 13-04-2020 03:35:00 8.6 C 80 % 5.35 C
2637 13-04-2020 03:40:00 8.5 C 81 % 5.43 C
2638 13-04-2020 03:45:00 8.4 C 81 % 5.33 C
2639 13-04-2020 03:50:00 8.4 C 80 % 5.16 C
2640 13-04-2020 03:55:00 8.3 C 81 % 5.24 C
2641 13-04-2020 04:00:00 8.3 C 81 % 5.24 C
2642 13-04-2020 04:05:00 8.2 C 81 % 5.14 C
2643 13-04-2020 04:10:00 8.1 C 81 % 5.04 C
2644 13-04-2020 04:15:00 7.9 C 82 % 5.02 C
2645 13-04-2020 04:20:00 7.8 C 83 % 5.1 C
2646 13-04-2020 04:25:00 7.6 C 83 % 4.9 C
2647 13-04-2020 04:30:00 7.5 C 84 % 4.98 C
2648 13-04-2020 04:35:00 7.4 C 85 % 5.05 C
2649 13-04-2020 04:40:00 7.3 C 85 % 4.95 C
2650 13-04-2020 04:45:00 7.3 C 85 % 4.95 C
Sensor: Nr:Datum:Temp:Feuchte:Taupunkt:
Aussen-T/F 2651 13-04-2020 04:50:00 7.3 C 86 % 5.12 C
2652 13-04-2020 04:55:00 7.3 C 86 % 5.12 C
2653 13-04-2020 05:00:00 7.4 C 86 % 5.22 C
2654 13-04-2020 05:05:00 7.4 C 85 % 5.05 C
2655 13-04-2020 05:10:00 7.4 C 85 % 5.05 C
2656 13-04-2020 05:15:00 7.4 C 86 % 5.22 C
2657 13-04-2020 05:20:00 7.5 C 87 % 5.48 C
2658 13-04-2020 05:25:00 7.6 C 87 % 5.58 C
2659 13-04-2020 05:30:00 7.6 C 87 % 5.58 C
2660 13-04-2020 05:35:00 7.6 C 86 % 5.41 C
2661 13-04-2020 05:40:00 7.6 C 86 % 5.41 C
2662 13-04-2020 05:45:00 7.7 C 86 % 5.51 C
2663 13-04-2020 05:50:00 7.7 C 85 % 5.34 C
2664 13-04-2020 05:55:00 7.7 C 85 % 5.34 C
2665 13-04-2020 06:00:00 7.8 C 85 % 5.44 C
2666 13-04-2020 06:05:00 7.8 C 85 % 5.44 C
2667 13-04-2020 06:10:00 7.7 C 84 % 5.17 C
2668 13-04-2020 06:15:00 7.6 C 84 % 5.07 C
2669 13-04-2020 06:20:00 7.4 C 85 % 5.05 C
2670 13-04-2020 06:25:00 7.3 C 85 % 4.95 C
2671 13-04-2020 06:30:00 7.2 C 86 % 5.02 C
2672 13-04-2020 06:35:00 7.2 C 86 % 5.02 C
2673 13-04-2020 06:40:00 7.1 C 86 % 4.92 C
2674 13-04-2020 06:45:00 6.9 C 87 % 4.89 C
2675 13-04-2020 06:50:00 6.9 C 87 % 4.89 C
Sensor: Nr:Datum:Temp:Feuchte:Taupunkt:
Aussen-T/F 2676 13-04-2020 06:55:00 6.9 C 87 % 4.89 C
2677 13-04-2020 07:00:00 6.9 C 88 % 5.05 C
2678 13-04-2020 07:05:00 7 C 88 % 5.15 C
2679 13-04-2020 07:10:00 7.1 C 88 % 5.25 C
2680 13-04-2020 07:15:00 7.2 C 88 % 5.35 C
2681 13-04-2020 07:20:00 7.3 C 88 % 5.45 C
2682 13-04-2020 07:25:00 7.4 C 88 % 5.55 C
2683 13-04-2020 07:30:00 7.6 C 88 % 5.74 C
2684 13-04-2020 07:35:00 7.8 C 88 % 5.94 C
2685 13-04-2020 07:40:00 7.9 C 87 % 5.87 C
2686 13-04-2020 07:45:00 8.1 C 86 % 5.9 C
2687 13-04-2020 07:50:00 8.2 C 86 % 6 C
2688 13-04-2020 07:55:00 8.3 C 85 % 5.93 C
2689 13-04-2020 08:00:00 8.4 C 85 % 6.03 C
2690 13-04-2020 08:05:00 8.5 C 85 % 6.13 C
2691 13-04-2020 08:10:00 8.6 C 85 % 6.23 C
2692 13-04-2020 08:15:00 8.7 C 85 % 6.32 C
2693 13-04-2020 08:20:00 8.8 C 85 % 6.42 C
2694 13-04-2020 08:25:00 8.9 C 85 % 6.52 C
2695 13-04-2020 08:30:00 9.1 C 85 % 6.72 C
2696 13-04-2020 08:35:00 9.3 C 86 % 7.08 C
2697 13-04-2020 08:40:00 9.7 C 88 % 7.81 C
2698 13-04-2020 08:45:00 10.3 C 88 % 8.4 C
2699 13-04-2020 08:50:00 10.7 C 87 % 8.63 C
2700 13-04-2020 08:55:00 10.9 C 86 % 8.65 C
Sensor: Nr:Datum:Temp:Feuchte:Taupunkt:
Aussen-T/F 2701 13-04-2020 09:00:00 11.2 C 86 % 8.95 C
2702 13-04-2020 09:05:00 11.3 C 85 % 8.87 C
2703 13-04-2020 09:10:00 11.3 C 85 % 8.87 C
2704 13-04-2020 09:15:00 11.3 C 84 % 8.7 C
2705 13-04-2020 09:20:00 11.4 C 85 % 8.97 C
2706 13-04-2020 09:25:00 11.4 C 84 % 8.8 C
2707 13-04-2020 09:30:00 11.5 C 84 % 8.89 C
2708 13-04-2020 09:35:00 11.6 C 83 % 8.81 C
2709 13-04-2020 09:40:00 11.7 C 83 % 8.91 C
2710 13-04-2020 09:45:00 11.8 C 83 % 9.01 C
2711 13-04-2020 09:50:00 11.8 C 82 % 8.83 C
2712 13-04-2020 09:55:00 11.6 C 79 % 8.09 C
2713 13-04-2020 10:00:00 11.5 C 80 % 8.17 C
2714 13-04-2020 10:05:00 11.4 C 80 % 8.08 C
2715 13-04-2020 10:10:00 11.3 C 80 % 7.98 C
2716 13-04-2020 10:15:00 11.3 C 79 % 7.8 C
2717 13-04-2020 10:20:00 11.2 C 78 % 7.51 C
2718 13-04-2020 10:25:00 11.2 C 79 % 7.7 C
2719 13-04-2020 10:30:00 11.2 C 79 % 7.7 C
2720 13-04-2020 10:35:00 11.1 C 79 % 7.6 C
2721 13-04-2020 10:40:00 11.1 C 79 % 7.6 C
2722 13-04-2020 10:45:00 11.2 C 78 % 7.51 C
2723 13-04-2020 10:50:00 11.2 C 77 % 7.32 C
2724 13-04-2020 10:55:00 11.3 C 77 % 7.42 C
2725 13-04-2020 11:00:00 11.3 C 76 % 7.23 C
Sensor: Nr:Datum:Temp:Feuchte:Taupunkt:
Aussen-T/F 2726 13-04-2020 11:05:00 11.3 C 76 % 7.23 C
2727 13-04-2020 11:10:00 11.3 C 75 % 7.04 C
2728 13-04-2020 11:15:00 11.3 C 75 % 7.04 C
2729 13-04-2020 11:20:00 11.3 C 75 % 7.04 C
2730 13-04-2020 11:25:00 11.3 C 74 % 6.84 C
2731 13-04-2020 11:30:00 11.3 C 74 % 6.84 C
2732 13-04-2020 11:35:00 11.3 C 73 % 6.64 C
2733 13-04-2020 11:40:00 11.2 C 72 % 6.35 C
2734 13-04-2020 11:45:00 11 C 73 % 6.35 C
2735 13-04-2020 11:50:00 10.8 C 72 % 5.96 C
2736 13-04-2020 11:55:00 10.8 C 72 % 5.96 C
2737 13-04-2020 12:00:00 10.7 C 73 % 6.07 C
2738 13-04-2020 12:05:00 10.7 C 73 % 6.07 C
2739 13-04-2020 12:10:00 10.6 C 76 % 6.55 C
2740 13-04-2020 12:15:00 10.4 C 76 % 6.36 C
2741 13-04-2020 12:20:00 10.2 C 77 % 6.35 C
2742 13-04-2020 12:25:00 10.1 C 77 % 6.26 C
2743 13-04-2020 12:30:00 10.2 C 78 % 6.54 C
2744 13-04-2020 12:35:00 10.3 C 77 % 6.45 C
2745 13-04-2020 12:40:00 10.3 C 76 % 6.26 C
2746 13-04-2020 12:45:00 10.4 C 77 % 6.55 C
2747 13-04-2020 12:50:00 10.3 C 76 % 6.26 C
2748 13-04-2020 12:55:00 10.2 C 76 % 6.16 C
2749 13-04-2020 13:00:00 10.1 C 77 % 6.26 C
2750 13-04-2020 13:05:00 10 C 77 % 6.16 C
Sensor: Nr:Datum:Temp:Feuchte:Taupunkt:
Aussen-T/F 2751 13-04-2020 13:10:00 9.9 C 78 % 6.25 C
2752 13-04-2020 13:15:00 9.9 C 78 % 6.25 C
2753 13-04-2020 13:20:00 9.9 C 77 % 6.06 C
2754 13-04-2020 13:25:00 9.8 C 77 % 5.97 C
2755 13-04-2020 13:30:00 9.7 C 77 % 5.87 C
2756 13-04-2020 13:35:00 9.5 C 78 % 5.86 C
2757 13-04-2020 13:40:00 9.3 C 79 % 5.85 C
2758 13-04-2020 13:45:00 9.1 C 81 % 6.02 C
2759 13-04-2020 13:50:00 8.7 C 83 % 5.98 C
2760 13-04-2020 13:55:00 8.4 C 85 % 6.03 C
2761 13-04-2020 14:00:00 8.2 C 86 % 6 C
2762 13-04-2020 14:05:00 8.1 C 87 % 6.07 C
2763 13-04-2020 14:10:00 8.1 C 86 % 5.9 C
2764 13-04-2020 14:15:00 8.1 C 86 % 5.9 C
2765 13-04-2020 14:20:00 8.2 C 85 % 5.83 C
2766 13-04-2020 14:25:00 8.3 C 84 % 5.76 C
2767 13-04-2020 14:30:00 8.4 C 82 % 5.51 C
2768 13-04-2020 14:35:00 8.6 C 83 % 5.88 C
2769 13-04-2020 14:40:00 8.8 C 81 % 5.72 C
2770 13-04-2020 14:45:00 9 C 79 % 5.56 C
2771 13-04-2020 14:50:00 9.3 C 79 % 5.85 C
2772 13-04-2020 14:55:00 9.6 C 74 % 5.2 C
2773 13-04-2020 15:00:00 9.9 C 73 % 5.29 C
2774 13-04-2020 15:05:00 10.2 C 72 % 5.39 C
2775 13-04-2020 15:10:00 10.4 C 69 % 4.97 C
Sensor: Nr:Datum:Temp:Feuchte:Taupunkt:
Aussen-T/F 2776 13-04-2020 15:15:00 10.6 C 69 % 5.16 C
2777 13-04-2020 15:20:00 10.7 C 63 % 3.95 C
2778 13-04-2020 15:25:00 10.6 C 61 % 3.4 C
2779 13-04-2020 15:30:00 10.6 C 60 % 3.17 C
2780 13-04-2020 15:35:00 10.6 C 60 % 3.17 C
2781 13-04-2020 15:40:00 10.7 C 59 % 3.03 C
2782 13-04-2020 15:45:00 10.8 C 55 % 2.13 C
2783 13-04-2020 15:50:00 10.8 C 56 % 2.39 C
2784 13-04-2020 15:55:00 10.9 C 55 % 2.23 C
2785 13-04-2020 16:00:00 10.9 C 54 % 1.97 C
2786 13-04-2020 16:05:00 10.7 C 53 % 1.52 C
2787 13-04-2020 16:10:00 10.8 C 52 % 1.35 C
2788 13-04-2020 16:15:00 10.9 C 53 % 1.71 C
2789 13-04-2020 16:20:00 10.9 C 52 % 1.44 C
2790 13-04-2020 16:25:00 11.3 C 52 % 1.81 C
2791 13-04-2020 16:30:00 11.6 C 50 % 1.54 C
2792 13-04-2020 16:35:00 11.9 C 47 % 0.96 C
2793 13-04-2020 16:40:00 11.9 C 46 % 0.66 C
2794 13-04-2020 16:45:00 11.9 C 46 % 0.66 C
2795 13-04-2020 16:50:00 12 C 46 % 0.75 C
2796 13-04-2020 16:55:00 12.3 C 46 % 1.03 C
2797 13-04-2020 17:00:00 12.3 C 44 % 0.41 C
2798 13-04-2020 17:05:00 12.3 C 45 % 0.72 C
2799 13-04-2020 17:10:00 12.4 C 45 % 0.81 C
2800 13-04-2020 17:15:00 12.6 C 45 % 1 C
Sensor: Nr:Datum:Temp:Feuchte:Taupunkt:
Aussen-T/F 2801 13-04-2020 17:20:00 12.5 C 43 % 0.28 C
2802 13-04-2020 17:25:00 12.6 C 44 % 0.69 C
2803 13-04-2020 17:30:00 12.6 C 43 % 0.37 C
2804 13-04-2020 17:35:00 12.6 C 44 % 0.69 C
2805 13-04-2020 17:40:00 12.7 C 43 % 0.46 C
2806 13-04-2020 17:45:00 12.7 C 41 % -0.2 C
2807 13-04-2020 17:50:00 12.5 C 42 % -0.05 C
2808 13-04-2020 17:55:00 12.8 C 43 % 0.55 C
2809 13-04-2020 18:00:00 13.1 C 41 % 0.16 C
2810 13-04-2020 18:05:00 13.1 C 41 % 0.16 C
2811 13-04-2020 18:10:00 12.9 C 41 % -0.02 C
2812 13-04-2020 18:15:00 12.7 C 40 % -0.53 C
2813 13-04-2020 18:20:00 12.7 C 40 % -0.53 C
2814 13-04-2020 18:25:00 12.6 C 42 % 0.04 C
2815 13-04-2020 18:30:00 12.6 C 42 % 0.04 C
2816 13-04-2020 18:35:00 12.4 C 39 % -1.15 C
2817 13-04-2020 18:40:00 12.2 C 39 % -1.33 C
2818 13-04-2020 18:45:00 12 C 39 % -1.51 C
2819 13-04-2020 18:50:00 12 C 39 % -1.51 C
2820 13-04-2020 18:55:00 11.9 C 39 % -1.6 C
2821 13-04-2020 19:00:00 11.8 C 40 % -1.34 C
2822 13-04-2020 19:05:00 11.7 C 40 % -1.43 C
2823 13-04-2020 19:10:00 11.4 C 41 % -1.37 C
2824 13-04-2020 19:15:00 11.3 C 42 % -1.13 C
2825 13-04-2020 19:20:00 11.2 C 42 % -1.22 C
Sensor: Nr:Datum:Temp:Feuchte:Taupunkt:
Aussen-T/F 2826 13-04-2020 19:25:00 10.9 C 43 % -1.17 C
2827 13-04-2020 19:30:00 10.8 C 44 % -0.95 C
2828 13-04-2020 19:35:00 10.7 C 43 % -1.35 C
2829 13-04-2020 19:40:00 10.6 C 43 % -1.44 C
2830 13-04-2020 19:45:00 10.4 C 43 % -1.62 C
2831 13-04-2020 19:50:00 10.2 C 43 % -1.8 C
2832 13-04-2020 19:55:00 10.1 C 43 % -1.89 C
2833 13-04-2020 20:00:00 9.9 C 44 % -1.76 C
2834 13-04-2020 20:05:00 9.7 C 45 % -1.64 C
2835 13-04-2020 20:10:00 9.6 C 45 % -1.73 C
2836 13-04-2020 20:15:00 9.3 C 46 % -1.71 C
2837 13-04-2020 20:20:00 9.2 C 46 % -1.8 C
2838 13-04-2020 20:25:00 9.1 C 46 % -1.89 C
2839 13-04-2020 20:30:00 9 C 45 % -2.28 C
2840 13-04-2020 20:35:00 9 C 45 % -2.28 C
2841 13-04-2020 20:40:00 8.9 C 46 % -2.07 C
2842 13-04-2020 20:45:00 8.8 C 46 % -2.17 C
2843 13-04-2020 20:50:00 8.7 C 47 % -1.97 C
2844 13-04-2020 20:55:00 8.5 C 47 % -2.15 C
2845 13-04-2020 21:00:00 8.3 C 47 % -2.33 C
2846 13-04-2020 21:05:00 8.3 C 47 % -2.33 C
2847 13-04-2020 21:10:00 8.2 C 47 % -2.42 C
2848 13-04-2020 21:15:00 8.2 C 48 % -2.14 C
2849 13-04-2020 21:20:00 8.1 C 48 % -2.23 C
2850 13-04-2020 21:25:00 8 C 48 % -2.32 C
Sensor: Nr:Datum:Temp:Feuchte:Taupunkt:
Aussen-T/F 2851 13-04-2020 21:30:00 7.9 C 48 % -2.42 C
2852 13-04-2020 21:35:00 7.8 C 48 % -2.51 C
2853 13-04-2020 21:40:00 7.7 C 49 % -2.32 C
2854 13-04-2020 21:45:00 7.6 C 50 % -2.14 C
2855 13-04-2020 21:50:00 7.5 C 51 % -1.97 C
2856 13-04-2020 21:55:00 7.4 C 50 % -2.33 C
2857 13-04-2020 22:00:00 7.3 C 52 % -1.89 C
2858 13-04-2020 22:05:00 7.1 C 54 % -1.56 C
2859 13-04-2020 22:10:00 6.9 C 52 % -2.26 C
2860 13-04-2020 22:15:00 6.7 C 55 % -1.69 C
2861 13-04-2020 22:20:00 6.5 C 56 % -1.63 C
2862 13-04-2020 22:25:00 6.3 C 55 % -2.06 C
2863 13-04-2020 22:30:00 6.1 C 57 % -1.76 C
2864 13-04-2020 22:35:00 5.8 C 59 % -1.58 C
2865 13-04-2020 22:40:00 5.4 C 61 % -1.5 C
2866 13-04-2020 22:45:00 5.1 C 63 % -1.35 C
2867 13-04-2020 22:50:00 4.8 C 64 % -1.42 C
2868 13-04-2020 22:55:00 4.7 C 65 % -1.3 C
2869 13-04-2020 23:00:00 4.5 C 64 % -1.7 C
2870 13-04-2020 23:05:00 4.4 C 65 % -1.59 C
2871 13-04-2020 23:10:00 4.4 C 66 % -1.38 C
2872 13-04-2020 23:15:00 4.3 C 66 % -1.48 C
2873 13-04-2020 23:20:00 4.3 C 67 % -1.27 C
2874 13-04-2020 23:25:00 4.2 C 68 % -1.17 C
2875 13-04-2020 23:30:00 4.1 C 67 % -1.46 C
Sensor: Nr:Datum:Temp:Feuchte:Taupunkt:
Aussen-T/F 2876 13-04-2020 23:35:00 4 C 67 % -1.56 C
2877 13-04-2020 23:40:00 4.2 C 65 % -1.78 C
2878 13-04-2020 23:45:00 4.3 C 64 % -1.89 C
2879 13-04-2020 23:50:00 4.4 C 64 % -1.8 C
2880 13-04-2020 23:55:00 4.4 C 64 % -1.8 C
2881 14-04-2020 00:00:00 4.3 C 64 % -1.89 C
2882 14-04-2020 00:05:00 4.2 C 64 % -1.99 C
2883 14-04-2020 00:10:00 4.1 C 65 % -1.87 C
2884 14-04-2020 00:15:00 4.2 C 65 % -1.78 C
2885 14-04-2020 00:20:00 4.1 C 65 % -1.87 C
2886 14-04-2020 00:25:00 4.1 C 65 % -1.87 C
2887 14-04-2020 00:30:00 4.1 C 64 % -2.08 C
2888 14-04-2020 00:35:00 4.1 C 65 % -1.87 C
2889 14-04-2020 00:40:00 4 C 66 % -1.76 C
2890 14-04-2020 00:45:00 3.9 C 66 % -1.86 C
2891 14-04-2020 00:50:00 3.8 C 66 % -1.95 C
2892 14-04-2020 00:55:00 3.8 C 65 % -2.16 C
2893 14-04-2020 01:00:00 3.8 C 65 % -2.16 C
2894 14-04-2020 01:05:00 3.9 C 64 % -2.27 C
2895 14-04-2020 01:10:00 4 C 65 % -1.97 C
2896 14-04-2020 01:15:00 4.1 C 65 % -1.87 C
2897 14-04-2020 01:20:00 4.1 C 65 % -1.87 C
2898 14-04-2020 01:25:00 3.9 C 67 % -1.65 C
2899 14-04-2020 01:30:00 3.6 C 67 % -1.94 C
2900 14-04-2020 01:35:00 3.4 C 68 % -1.93 C
Sensor: Nr:Datum:Temp:Feuchte:Taupunkt:
Aussen-T/F 2901 14-04-2020 01:40:00 3.3 C 69 % -1.83 C
2902 14-04-2020 01:45:00 3.1 C 70 % -1.83 C
2903 14-04-2020 01:50:00 2.8 C 71 % -1.92 C
2904 14-04-2020 01:55:00 2.6 C 72 % -1.93 C
2905 14-04-2020 02:00:00 2.4 C 73 % -1.93 C
2906 14-04-2020 02:05:00 2.4 C 73 % -1.93 C
2907 14-04-2020 02:10:00 2.3 C 73 % -2.03 C
2908 14-04-2020 02:15:00 2.3 C 74 % -1.85 C
2909 14-04-2020 02:20:00 2.2 C 74 % -1.94 C
2910 14-04-2020 02:25:00 2.1 C 74 % -2.04 C
2911 14-04-2020 02:30:00 2 C 75 % -1.95 C
2912 14-04-2020 02:35:00 1.9 C 75 % -2.05 C
2913 14-04-2020 02:40:00 1.9 C 75 % -2.05 C
2914 14-04-2020 02:45:00 1.8 C 75 % -2.15 C
2915 14-04-2020 02:50:00 1.7 C 76 % -2.07 C
2916 14-04-2020 02:55:00 1.6 C 77 % -1.99 C
2917 14-04-2020 03:00:00 1.5 C 77 % -2.08 C
2918 14-04-2020 03:05:00 1.4 C 77 % -2.18 C
2919 14-04-2020 03:10:00 1.3 C 77 % -2.28 C
2920 14-04-2020 03:15:00 1.4 C 77 % -2.18 C
2921 14-04-2020 03:20:00 1.6 C 77 % -1.99 C
2922 14-04-2020 03:25:00 1.6 C 77 % -1.99 C
2923 14-04-2020 03:30:00 1.5 C 78 % -1.91 C
2924 14-04-2020 03:35:00 1.5 C 77 % -2.08 C
2925 14-04-2020 03:40:00 1.5 C 77 % -2.08 C
Sensor: Nr:Datum:Temp:Feuchte:Taupunkt:
Aussen-T/F 2926 14-04-2020 03:45:00 1.5 C 78 % -1.91 C
2927 14-04-2020 03:50:00 1.5 C 77 % -2.08 C
2928 14-04-2020 03:55:00 1.5 C 77 % -2.08 C
2929 14-04-2020 04:00:00 1.4 C 77 % -2.18 C
2930 14-04-2020 04:05:00 1.4 C 78 % -2.01 C
2931 14-04-2020 04:10:00 1.4 C 78 % -2.01 C
2932 14-04-2020 04:15:00 1.3 C 78 % -2.1 C
2933 14-04-2020 04:20:00 1.3 C 78 % -2.1 C
2934 14-04-2020 04:25:00 1.2 C 79 % -2.03 C
2935 14-04-2020 04:30:00 1.2 C 78 % -2.2 C
2936 14-04-2020 04:35:00 1.1 C 79 % -2.12 C
2937 14-04-2020 04:40:00 1 C 78 % -2.39 C
2938 14-04-2020 04:45:00 0.9 C 78 % -2.49 C
2939 14-04-2020 04:50:00 0.9 C 79 % -2.32 C
2940 14-04-2020 04:55:00 0.9 C 79 % -2.32 C
2941 14-04-2020 05:00:00 0.9 C 79 % -2.32 C
2942 14-04-2020 05:05:00 0.8 C 80 % -2.25 C
2943 14-04-2020 05:10:00 0.7 C 80 % -2.34 C
2944 14-04-2020 05:15:00 0.6 C 80 % -2.44 C
2945 14-04-2020 05:20:00 0.6 C 81 % -2.28 C
2946 14-04-2020 05:25:00 0.6 C 81 % -2.28 C
2947 14-04-2020 05:30:00 0.7 C 82 % -2.01 C
2948 14-04-2020 05:35:00 0.8 C 82 % -1.91 C
2949 14-04-2020 05:40:00 0.8 C 82 % -1.91 C
2950 14-04-2020 05:45:00 0.9 C 82 % -1.82 C
Sensor: Nr:Datum:Temp:Feuchte:Taupunkt:
Aussen-T/F 2951 14-04-2020 05:50:00 1 C 82 % -1.72 C
2952 14-04-2020 05:55:00 0.9 C 82 % -1.82 C
2953 14-04-2020 06:00:00 0.8 C 82 % -1.91 C
2954 14-04-2020 06:05:00 0.7 C 82 % -2.01 C
2955 14-04-2020 06:10:00 0.6 C 82 % -2.11 C
2956 14-04-2020 06:15:00 0.4 C 82 % -2.3 C
2957 14-04-2020 06:20:00 0.3 C 83 % -2.24 C
2958 14-04-2020 06:25:00 0.2 C 84 % -2.18 C
2959 14-04-2020 06:30:00 0.2 C 84 % -2.18 C
2960 14-04-2020 06:35:00 0.2 C 85 % -2.02 C
2961 14-04-2020 06:40:00 0.2 C 85 % -2.02 C
2962 14-04-2020 06:45:00 0.3 C 86 % -1.76 C
2963 14-04-2020 06:50:00 0.5 C 86 % -1.56 C
2964 14-04-2020 06:55:00 0.6 C 86 % -1.46 C
2965 14-04-2020 07:00:00 0.7 C 86 % -1.37 C
2966 14-04-2020 07:05:00 0.8 C 86 % -1.27 C
2967 14-04-2020 07:10:00 0.9 C 85 % -1.33 C
2968 14-04-2020 07:15:00 0.9 C 85 % -1.33 C
2969 14-04-2020 07:20:00 1.1 C 85 % -1.13 C
2970 14-04-2020 07:25:00 1.2 C 85 % -1.03 C
2971 14-04-2020 07:30:00 1.4 C 85 % -0.84 C
2972 14-04-2020 07:35:00 1.5 C 84 % -0.9 C
2973 14-04-2020 07:40:00 1.6 C 84 % -0.8 C
2974 14-04-2020 07:45:00 1.8 C 84 % -0.61 C
2975 14-04-2020 07:50:00 1.9 C 83 % -0.67 C
Sensor: Nr:Datum:Temp:Feuchte:Taupunkt:
Aussen-T/F 2976 14-04-2020 07:55:00 2.1 C 83 % -0.48 C
2977 14-04-2020 08:00:00 2.2 C 83 % -0.38 C
2978 14-04-2020 08:05:00 2.3 C 83 % -0.28 C
2979 14-04-2020 08:10:00 2.4 C 83 % -0.18 C
2980 14-04-2020 08:15:00 2.5 C 82 % -0.25 C
2981 14-04-2020 08:20:00 2.6 C 82 % -0.16 C
2982 14-04-2020 08:25:00 2.6 C 82 % -0.16 C
2983 14-04-2020 08:30:00 2.6 C 83 % 0.01 C
2984 14-04-2020 08:35:00 2.6 C 83 % 0.01 C
2985 14-04-2020 08:40:00 2.6 C 83 % 0.01 C
2986 14-04-2020 08:45:00 2.6 C 83 % 0.01 C
2987 14-04-2020 08:50:00 2.7 C 83 % 0.11 C
2988 14-04-2020 08:55:00 2.8 C 83 % 0.21 C
2989 14-04-2020 09:00:00 2.9 C 82 % 0.14 C
2990 14-04-2020 09:05:00 3.1 C 82 % 0.33 C
2991 14-04-2020 09:10:00 3.3 C 82 % 0.53 C
2992 14-04-2020 09:15:00 3.6 C 80 % 0.48 C
2993 14-04-2020 09:20:00 3.9 C 79 % 0.6 C
2994 14-04-2020 09:25:00 4.3 C 79 % 0.99 C
2995 14-04-2020 09:30:00 4.6 C 77 % 0.92 C
2996 14-04-2020 09:35:00 4.9 C 75 % 0.85 C
2997 14-04-2020 09:40:00 5.1 C 74 % 0.86 C
2998 14-04-2020 09:45:00 5.2 C 73 % 0.77 C
2999 14-04-2020 09:50:00 5.4 C 72 % 0.77 C
3000 14-04-2020 09:55:00 5.6 C 72 % 0.96 C
Sensor: Nr:Datum:Temp:Feuchte:Taupunkt:
Aussen-T/F 3001 14-04-2020 10:00:00 5.9 C 70 % 0.86 C
3002 14-04-2020 10:05:00 6.1 C 70 % 1.05 C
3003 14-04-2020 10:10:00 6.2 C 69 % 0.95 C
3004 14-04-2020 10:15:00 6.1 C 68 % 0.65 C
3005 14-04-2020 10:20:00 6.1 C 68 % 0.65 C
3006 14-04-2020 10:25:00 6.1 C 68 % 0.65 C
3007 14-04-2020 10:30:00 6.2 C 68 % 0.75 C
3008 14-04-2020 10:35:00 6.4 C 68 % 0.94 C
3009 14-04-2020 10:40:00 6.7 C 64 % 0.38 C
3010 14-04-2020 10:45:00 6.9 C 64 % 0.57 C
3011 14-04-2020 10:50:00 7.2 C 63 % 0.64 C
3012 14-04-2020 10:55:00 7.4 C 62 % 0.61 C
3013 14-04-2020 11:00:00 7.6 C 60 % 0.35 C
3014 14-04-2020 11:05:00 7.6 C 60 % 0.35 C
3015 14-04-2020 11:10:00 7.6 C 58 % -0.12 C
3016 14-04-2020 11:15:00 7.6 C 55 % -0.85 C
3017 14-04-2020 11:20:00 7.7 C 56 % -0.51 C
3018 14-04-2020 11:25:00 7.7 C 56 % -0.51 C
3019 14-04-2020 11:30:00 7.6 C 56 % -0.6 C
3020 14-04-2020 11:35:00 7.7 C 56 % -0.51 C
3021 14-04-2020 11:40:00 8 C 53 % -0.98 C
3022 14-04-2020 11:45:00 8.2 C 53 % -0.8 C
3023 14-04-2020 11:50:00 8 C 53 % -0.98 C
3024 14-04-2020 11:55:00 7.9 C 53 % -1.07 C
3025 14-04-2020 12:00:00 7.9 C 54 % -0.82 C
Sensor: Nr:Datum:Temp:Feuchte:Taupunkt:
Aussen-T/F 3026 14-04-2020 12:05:00 8 C 54 % -0.73 C
3027 14-04-2020 12:10:00 8 C 55 % -0.47 C
3028 14-04-2020 12:15:00 8 C 56 % -0.23 C
3029 14-04-2020 12:20:00 8.1 C 56 % -0.13 C
3030 14-04-2020 12:25:00 8.1 C 55 % -0.38 C
3031 14-04-2020 12:30:00 8.1 C 54 % -0.63 C
3032 14-04-2020 12:35:00 8.1 C 55 % -0.38 C
3033 14-04-2020 12:40:00 8.3 C 54 % -0.45 C
3034 14-04-2020 12:45:00 8.4 C 53 % -0.61 C
3035 14-04-2020 12:50:00 8.6 C 53 % -0.42 C
3036 14-04-2020 12:55:00 8.7 C 52 % -0.59 C
3037 14-04-2020 13:00:00 8.7 C 51 % -0.86 C
3038 14-04-2020 13:05:00 8.8 C 53 % -0.24 C
3039 14-04-2020 13:10:00 8.9 C 53 % -0.15 C
3040 14-04-2020 13:15:00 8.9 C 53 % -0.15 C
3041 14-04-2020 13:20:00 8.9 C 54 % 0.11 C
3042 14-04-2020 13:25:00 9.1 C 54 % 0.3 C
3043 14-04-2020 13:30:00 9.2 C 52 % -0.13 C
3044 14-04-2020 13:35:00 9.2 C 52 % -0.13 C
3045 14-04-2020 13:40:00 9.3 C 53 % 0.23 C
3046 14-04-2020 13:45:00 9.3 C 50 % -0.57 C
3047 14-04-2020 13:50:00 9.1 C 50 % -0.76 C
3048 14-04-2020 13:55:00 9 C 52 % -0.31 C
3049 14-04-2020 14:00:00 9.1 C 52 % -0.22 C
3050 14-04-2020 14:05:00 9.2 C 51 % -0.4 C
Sensor: Nr:Datum:Temp:Feuchte:Taupunkt:
Aussen-T/F 3051 14-04-2020 14:10:00 9.3 C 50 % -0.57 C
3052 14-04-2020 14:15:00 9.6 C 49 % -0.57 C
3053 14-04-2020 14:20:00 9.8 C 51 % 0.16 C
3054 14-04-2020 14:25:00 10.2 C 48 % -0.31 C
3055 14-04-2020 14:30:00 10.1 C 48 % -0.4 C
3056 14-04-2020 14:35:00 10.2 C 48 % -0.31 C
3057 14-04-2020 14:40:00 10.2 C 48 % -0.31 C
3058 14-04-2020 14:45:00 10.2 C 48 % -0.31 C
3059 14-04-2020 14:50:00 10.3 C 48 % -0.21 C
3060 14-04-2020 14:55:00 10.4 C 48 % -0.12 C
3061 14-04-2020 15:00:00 10.4 C 48 % -0.12 C
3062 14-04-2020 15:05:00 10.4 C 47 % -0.41 C
3063 14-04-2020 15:10:00 10.6 C 48 % 0.06 C
3064 14-04-2020 15:15:00 10.8 C 47 % -0.04 C
3065 14-04-2020 15:20:00 10.9 C 46 % -0.25 C
3066 14-04-2020 15:25:00 10.8 C 46 % -0.34 C
3067 14-04-2020 15:30:00 10.7 C 45 % -0.73 C
3068 14-04-2020 15:35:00 10.9 C 47 % 0.05 C
3069 14-04-2020 15:40:00 11.2 C 47 % 0.32 C
3070 14-04-2020 15:45:00 11.2 C 45 % -0.28 C
3071 14-04-2020 15:50:00 11.2 C 45 % -0.28 C
3072 14-04-2020 15:55:00 11.1 C 45 % -0.37 C
3073 14-04-2020 16:00:00 11.2 C 46 % 0.02 C
3074 14-04-2020 16:05:00 11.3 C 45 % -0.19 C
3075 14-04-2020 16:10:00 11.3 C 46 % 0.12 C
Sensor: Nr:Datum:Temp:Feuchte:Taupunkt:
Aussen-T/F 3076 14-04-2020 16:15:00 11.6 C 46 % 0.39 C
3077 14-04-2020 16:20:00 12 C 45 % 0.45 C
3078 14-04-2020 16:25:00 12.1 C 42 % -0.41 C
3079 14-04-2020 16:30:00 11.8 C 43 % -0.36 C
3080 14-04-2020 16:35:00 11.8 C 45 % 0.27 C
3081 14-04-2020 16:40:00 11.8 C 45 % 0.27 C
3082 14-04-2020 16:45:00 11.9 C 45 % 0.36 C
3083 14-04-2020 16:50:00 12.4 C 45 % 0.81 C
3084 14-04-2020 16:55:00 12.7 C 42 % 0.13 C
3085 14-04-2020 17:00:00 12.4 C 43 % 0.19 C
3086 14-04-2020 17:05:00 11.7 C 43 % -0.45 C
3087 14-04-2020 17:10:00 11.4 C 45 % -0.09 C
3088 14-04-2020 17:15:00 11.6 C 45 % 0.09 C
3089 14-04-2020 17:20:00 12.2 C 43 % 0.01 C
3090 14-04-2020 17:25:00 12.5 C 42 % -0.05 C
3091 14-04-2020 17:30:00 12.5 C 41 % -0.38 C
3092 14-04-2020 17:35:00 12.5 C 41 % -0.38 C
3093 14-04-2020 17:40:00 12.6 C 42 % 0.04 C
3094 14-04-2020 17:45:00 12.6 C 42 % 0.04 C
3095 14-04-2020 17:50:00 12.6 C 43 % 0.37 C
3096 14-04-2020 17:55:00 12.9 C 42 % 0.31 C
3097 14-04-2020 18:00:00 13 C 42 % 0.41 C
3098 14-04-2020 18:05:00 13 C 41 % 0.07 C
3099 14-04-2020 18:10:00 12.9 C 41 % -0.02 C
3100 14-04-2020 18:15:00 12.8 C 41 % -0.11 C
Sensor: Nr:Datum:Temp:Feuchte:Taupunkt:
Aussen-T/F 3101 14-04-2020 18:20:00 12.8 C 41 % -0.11 C
3102 14-04-2020 18:25:00 12.8 C 42 % 0.22 C
3103 14-04-2020 18:30:00 12.8 C 41 % -0.11 C
3104 14-04-2020 18:35:00 12.7 C 42 % 0.13 C
3105 14-04-2020 18:40:00 12.8 C 42 % 0.22 C
3106 14-04-2020 18:45:00 12.8 C 42 % 0.22 C
3107 14-04-2020 18:50:00 12.7 C 41 % -0.2 C
3108 14-04-2020 18:55:00 12.4 C 42 % -0.14 C
3109 14-04-2020 19:00:00 12.4 C 42 % -0.14 C
3110 14-04-2020 19:05:00 12.3 C 42 % -0.23 C
3111 14-04-2020 19:10:00 12.2 C 43 % 0.01 C
3112 14-04-2020 19:15:00 11.9 C 42 % -0.59 C
3113 14-04-2020 19:20:00 11.7 C 43 % -0.45 C
3114 14-04-2020 19:25:00 11.4 C 43 % -0.72 C
3115 14-04-2020 19:30:00 11.2 C 45 % -0.28 C
3116 14-04-2020 19:35:00 11.1 C 46 % -0.07 C
3117 14-04-2020 19:40:00 10.9 C 47 % 0.05 C
3118 14-04-2020 19:45:00 10.8 C 47 % -0.04 C
3119 14-04-2020 19:50:00 10.7 C 47 % -0.14 C
3120 14-04-2020 19:55:00 10.6 C 48 % 0.06 C
3121 14-04-2020 20:00:00 10.4 C 48 % -0.12 C
3122 14-04-2020 20:05:00 10.2 C 50 % 0.26 C
3123 14-04-2020 20:10:00 10 C 49 % -0.21 C
3124 14-04-2020 20:15:00 9.8 C 50 % -0.11 C
3125 14-04-2020 20:20:00 9.7 C 54 % 0.86 C
Sensor: Nr:Datum:Temp:Feuchte:Taupunkt:
Aussen-T/F 3126 14-04-2020 20:25:00 9.3 C 55 % 0.74 C
3127 14-04-2020 20:30:00 8.8 C 56 % 0.52 C
3128 14-04-2020 20:35:00 8.3 C 58 % 0.54 C
3129 14-04-2020 20:40:00 7.9 C 61 % 0.86 C
3130 14-04-2020 20:45:00 7.4 C 61 % 0.38 C
3131 14-04-2020 20:50:00 7.2 C 62 % 0.42 C
3132 14-04-2020 20:55:00 7 C 63 % 0.45 C
3133 14-04-2020 21:00:00 6.8 C 64 % 0.48 C
3134 14-04-2020 21:05:00 6.7 C 64 % 0.38 C
3135 14-04-2020 21:10:00 6.5 C 65 % 0.41 C
3136 14-04-2020 21:15:00 6.3 C 66 % 0.43 C
3137 14-04-2020 21:20:00 6.2 C 66 % 0.33 C
3138 14-04-2020 21:25:00 6.1 C 67 % 0.44 C
3139 14-04-2020 21:30:00 6 C 68 % 0.55 C
3140 14-04-2020 21:35:00 5.9 C 69 % 0.66 C
3141 14-04-2020 21:40:00 5.8 C 69 % 0.56 C
3142 14-04-2020 21:45:00 5.7 C 69 % 0.47 C
3143 14-04-2020 21:50:00 5.7 C 69 % 0.47 C
3144 14-04-2020 21:55:00 5.6 C 69 % 0.37 C
3145 14-04-2020 22:00:00 5.6 C 69 % 0.37 C
3146 14-04-2020 22:05:00 5.6 C 70 % 0.57 C
3147 14-04-2020 22:10:00 5.5 C 70 % 0.48 C
3148 14-04-2020 22:15:00 5.4 C 70 % 0.38 C
3149 14-04-2020 22:20:00 5.3 C 70 % 0.28 C
3150 14-04-2020 22:25:00 5.4 C 71 % 0.58 C
Sensor: Nr:Datum:Temp:Feuchte:Taupunkt:
Aussen-T/F 3151 14-04-2020 22:30:00 5.4 C 70 % 0.38 C
3152 14-04-2020 22:35:00 5.4 C 70 % 0.38 C
3153 14-04-2020 22:40:00 5.3 C 70 % 0.28 C
3154 14-04-2020 22:45:00 5.3 C 71 % 0.48 C
3155 14-04-2020 22:50:00 5.2 C 71 % 0.38 C
3156 14-04-2020 22:55:00 5 C 72 % 0.38 C
3157 14-04-2020 23:00:00 4.9 C 72 % 0.29 C
3158 14-04-2020 23:05:00 4.8 C 73 % 0.38 C
3159 14-04-2020 23:10:00 4.7 C 74 % 0.47 C
3160 14-04-2020 23:15:00 4.5 C 74 % 0.28 C
3161 14-04-2020 23:20:00 4.3 C 74 % 0.09 C
3162 14-04-2020 23:25:00 4.2 C 75 % 0.17 C
3163 14-04-2020 23:30:00 4.1 C 76 % 0.26 C
3164 14-04-2020 23:35:00 3.9 C 77 % 0.25 C
3165 14-04-2020 23:40:00 3.8 C 77 % 0.15 C
3166 14-04-2020 23:45:00 3.7 C 77 % 0.05 C
3167 14-04-2020 23:50:00 3.6 C 78 % 0.13 C
3168 14-04-2020 23:55:00 3.6 C 78 % 0.13 C
3169 15-04-2020 00:00:00 3.4 C 78 % -0.06 C
3170 15-04-2020 00:05:00 3.3 C 79 % 0.02 C
3171 15-04-2020 00:10:00 3.2 C 79 % -0.08 C
3172 15-04-2020 00:15:00 3.1 C 79 % -0.18 C
3173 15-04-2020 00:20:00 3.1 C 79 % -0.18 C
3174 15-04-2020 00:25:00 2.9 C 80 % -0.2 C
3175 15-04-2020 00:30:00 2.8 C 80 % -0.3 C
Sensor: Nr:Datum:Temp:Feuchte:Taupunkt:
Aussen-T/F 3176 15-04-2020 00:35:00 2.8 C 80 % -0.3 C
3177 15-04-2020 00:40:00 2.7 C 80 % -0.4 C
3178 15-04-2020 00:45:00 2.6 C 81 % -0.32 C
3179 15-04-2020 00:50:00 2.5 C 82 % -0.25 C
3180 15-04-2020 00:55:00 2.4 C 82 % -0.35 C
3181 15-04-2020 01:00:00 2.4 C 82 % -0.35 C
3182 15-04-2020 01:05:00 2.4 C 82 % -0.35 C
3183 15-04-2020 01:10:00 2.3 C 82 % -0.45 C
3184 15-04-2020 01:15:00 2.3 C 82 % -0.45 C
3185 15-04-2020 01:20:00 2.2 C 83 % -0.38 C
3186 15-04-2020 01:25:00 2.1 C 83 % -0.48 C
3187 15-04-2020 01:30:00 2 C 83 % -0.58 C
3188 15-04-2020 01:35:00 1.9 C 83 % -0.67 C
3189 15-04-2020 01:40:00 1.9 C 84 % -0.51 C
3190 15-04-2020 01:45:00 1.9 C 84 % -0.51 C
3191 15-04-2020 01:50:00 1.8 C 84 % -0.61 C
3192 15-04-2020 01:55:00 1.7 C 84 % -0.71 C
3193 15-04-2020 02:00:00 1.7 C 84 % -0.71 C
3194 15-04-2020 02:05:00 1.6 C 84 % -0.8 C
3195 15-04-2020 02:10:00 1.6 C 85 % -0.64 C
3196 15-04-2020 02:15:00 1.6 C 85 % -0.64 C
3197 15-04-2020 02:20:00 1.5 C 85 % -0.74 C
3198 15-04-2020 02:25:00 1.4 C 85 % -0.84 C
3199 15-04-2020 02:30:00 1.4 C 86 % -0.68 C
3200 15-04-2020 02:35:00 1.3 C 86 % -0.78 C
Sensor: Nr:Datum:Temp:Feuchte:Taupunkt:
Aussen-T/F 3201 15-04-2020 02:40:00 1.3 C 86 % -0.78 C
3202 15-04-2020 02:45:00 1.3 C 86 % -0.78 C
3203 15-04-2020 02:50:00 1.2 C 86 % -0.88 C
3204 15-04-2020 02:55:00 1.1 C 86 % -0.97 C
3205 15-04-2020 03:00:00 1.1 C 87 % -0.82 C
3206 15-04-2020 03:05:00 1.1 C 87 % -0.82 C
3207 15-04-2020 03:10:00 1 C 87 % -0.91 C
3208 15-04-2020 03:15:00 0.9 C 87 % -1.01 C
3209 15-04-2020 03:20:00 0.9 C 87 % -1.01 C
3210 15-04-2020 03:25:00 0.8 C 87 % -1.11 C
3211 15-04-2020 03:30:00 0.8 C 87 % -1.11 C
3212 15-04-2020 03:35:00 0.8 C 88 % -0.96 C
3213 15-04-2020 03:40:00 0.7 C 88 % -1.05 C
3214 15-04-2020 03:45:00 0.7 C 88 % -1.05 C
3215 15-04-2020 03:50:00 0.7 C 88 % -1.05 C
3216 15-04-2020 03:55:00 0.7 C 88 % -1.05 C
3217 15-04-2020 04:00:00 0.6 C 88 % -1.15 C
3218 15-04-2020 04:05:00 0.6 C 88 % -1.15 C
3219 15-04-2020 04:10:00 0.6 C 88 % -1.15 C
3220 15-04-2020 04:15:00 0.6 C 89 % -1 C
3221 15-04-2020 04:20:00 0.6 C 89 % -1 C
3222 15-04-2020 04:25:00 0.6 C 89 % -1 C
3223 15-04-2020 04:30:00 0.6 C 89 % -1 C
3224 15-04-2020 04:35:00 0.5 C 89 % -1.1 C
3225 15-04-2020 04:40:00 0.5 C 89 % -1.1 C
Sensor: Nr:Datum:Temp:Feuchte:Taupunkt:
Aussen-T/F 3226 15-04-2020 04:45:00 0.4 C 89 % -1.2 C
3227 15-04-2020 04:50:00 0.4 C 89 % -1.2 C
3228 15-04-2020 04:55:00 0.4 C 89 % -1.2 C
3229 15-04-2020 05:00:00 0.4 C 89 % -1.2 C
3230 15-04-2020 05:05:00 0.4 C 90 % -1.04 C
3231 15-04-2020 05:10:00 0.4 C 90 % -1.04 C
3232 15-04-2020 05:15:00 0.4 C 90 % -1.04 C
3233 15-04-2020 05:20:00 0.4 C 90 % -1.04 C
3234 15-04-2020 05:25:00 0.3 C 90 % -1.14 C
3235 15-04-2020 05:30:00 0.3 C 90 % -1.14 C
3236 15-04-2020 05:35:00 0.3 C 90 % -1.14 C
3237 15-04-2020 05:40:00 0.3 C 90 % -1.14 C
3238 15-04-2020 05:45:00 0.3 C 90 % -1.14 C
3239 15-04-2020 05:50:00 0.2 C 90 % -1.24 C
3240 15-04-2020 05:55:00 0.2 C 90 % -1.24 C
3241 15-04-2020 06:00:00 0.1 C 90 % -1.34 C
3242 15-04-2020 06:05:00 0.1 C 90 % -1.34 C
3243 15-04-2020 06:10:00 0.1 C 90 % -1.34 C
3244 15-04-2020 06:15:00 0.1 C 90 % -1.34 C
3245 15-04-2020 06:20:00 0.1 C 91 % -1.19 C
3246 15-04-2020 06:25:00 0.2 C 91 % -1.09 C
3247 15-04-2020 06:30:00 0.2 C 91 % -1.09 C
3248 15-04-2020 06:35:00 0.2 C 91 % -1.09 C
3249 15-04-2020 06:40:00 0.1 C 91 % -1.19 C
3250 15-04-2020 06:45:00 0.1 C 91 % -1.19 C
Sensor: Nr:Datum:Temp:Feuchte:Taupunkt:
Aussen-T/F 3251 15-04-2020 06:50:00 0 C 91 % -1.29 C
3252 15-04-2020 06:55:00 -0.1 C 91 % -1.39 C
3253 15-04-2020 07:00:00 -0.1 C 91 % -1.39 C
3254 15-04-2020 07:05:00 -0.1 C 91 % -1.39 C
3255 15-04-2020 07:10:00 -0.1 C 91 % -1.39 C
3256 15-04-2020 07:15:00 0 C 92 % -1.14 C
3257 15-04-2020 07:20:00 0.1 C 92 % -1.04 C
3258 15-04-2020 07:25:00 0.1 C 92 % -1.04 C
3259 15-04-2020 07:30:00 0.2 C 92 % -0.94 C
3260 15-04-2020 07:35:00 0.3 C 92 % -0.84 C
3261 15-04-2020 07:40:00 0.4 C 92 % -0.74 C
3262 15-04-2020 07:45:00 0.5 C 92 % -0.65 C
3263 15-04-2020 07:50:00 0.6 C 92 % -0.55 C
3264 15-04-2020 07:55:00 0.7 C 92 % -0.45 C
3265 15-04-2020 08:00:00 0.8 C 92 % -0.35 C
3266 15-04-2020 08:05:00 0.9 C 92 % -0.25 C
3267 15-04-2020 08:10:00 1.1 C 92 % -0.05 C
3268 15-04-2020 08:15:00 1.2 C 92 % 0.05 C
3269 15-04-2020 08:20:00 1.3 C 91 % 0 C
3270 15-04-2020 08:25:00 1.4 C 91 % 0.1 C
3271 15-04-2020 08:30:00 1.5 C 91 % 0.19 C
3272 15-04-2020 08:35:00 1.6 C 91 % 0.29 C
3273 15-04-2020 08:40:00 1.8 C 90 % 0.34 C
3274 15-04-2020 08:45:00 1.9 C 90 % 0.44 C
3275 15-04-2020 08:50:00 2.1 C 89 % 0.48 C
Sensor: Nr:Datum:Temp:Feuchte:Taupunkt:
Aussen-T/F 3276 15-04-2020 08:55:00 2.2 C 89 % 0.58 C
3277 15-04-2020 09:00:00 2.4 C 88 % 0.62 C
3278 15-04-2020 09:05:00 2.6 C 87 % 0.66 C
3279 15-04-2020 09:10:00 2.7 C 86 % 0.6 C
3280 15-04-2020 09:15:00 2.8 C 86 % 0.7 C
3281 15-04-2020 09:20:00 3 C 86 % 0.89 C
3282 15-04-2020 09:25:00 3.2 C 85 % 0.93 C
3283 15-04-2020 09:30:00 3.3 C 85 % 1.03 C
3284 15-04-2020 09:35:00 3.5 C 84 % 1.06 C
3285 15-04-2020 09:40:00 3.7 C 83 % 1.09 C
3286 15-04-2020 09:45:00 3.9 C 83 % 1.28 C
3287 15-04-2020 09:50:00 4.1 C 82 % 1.31 C
3288 15-04-2020 09:55:00 4.3 C 81 % 1.34 C
3289 15-04-2020 10:00:00 4.6 C 81 % 1.63 C
3290 15-04-2020 10:05:00 4.8 C 80 % 1.65 C
3291 15-04-2020 10:10:00 4.9 C 80 % 1.75 C
3292 15-04-2020 10:15:00 5.2 C 78 % 1.69 C
3293 15-04-2020 10:20:00 5.4 C 78 % 1.88 C
3294 15-04-2020 10:25:00 5.7 C 78 % 2.17 C
3295 15-04-2020 10:30:00 5.9 C 77 % 2.19 C
3296 15-04-2020 10:35:00 6.2 C 77 % 2.48 C
3297 15-04-2020 10:40:00 6.4 C 74 % 2.11 C
3298 15-04-2020 10:45:00 6.6 C 75 % 2.49 C
3299 15-04-2020 10:50:00 6.9 C 73 % 2.4 C
3300 15-04-2020 10:55:00 7.2 C 73 % 2.69 C
Sensor: Nr:Datum:Temp:Feuchte:Taupunkt:
Aussen-T/F 3301 15-04-2020 11:00:00 7.4 C 72 % 2.69 C
3302 15-04-2020 11:05:00 7.8 C 72 % 3.08 C
3303 15-04-2020 11:10:00 8.1 C 70 % 2.97 C
3304 15-04-2020 11:15:00 8.4 C 70 % 3.26 C
3305 15-04-2020 11:20:00 8.8 C 68 % 3.23 C
3306 15-04-2020 11:25:00 9.1 C 67 % 3.31 C
3307 15-04-2020 11:30:00 9.4 C 67 % 3.59 C
3308 15-04-2020 11:35:00 9.8 C 62 % 2.88 C
3309 15-04-2020 11:40:00 10.2 C 60 % 2.79 C
3310 15-04-2020 11:45:00 10.6 C 54 % 1.69 C
3311 15-04-2020 11:50:00 10.9 C 52 % 1.44 C
3312 15-04-2020 11:55:00 11.3 C 50 % 1.27 C
3313 15-04-2020 12:00:00 11.7 C 50 % 1.64 C
3314 15-04-2020 12:05:00 11.9 C 47 % 0.96 C
3315 15-04-2020 12:10:00 12.2 C 47 % 1.24 C
3316 15-04-2020 12:15:00 12.3 C 46 % 1.03 C
3317 15-04-2020 12:20:00 12.4 C 47 % 1.42 C
3318 15-04-2020 12:25:00 12.6 C 46 % 1.3 C
3319 15-04-2020 12:30:00 12.7 C 46 % 1.39 C
3320 15-04-2020 12:35:00 12.9 C 47 % 1.87 C
3321 15-04-2020 12:40:00 13.1 C 46 % 1.76 C
3322 15-04-2020 12:45:00 13.2 C 47 % 2.15 C
3323 15-04-2020 12:50:00 13.3 C 47 % 2.24 C
3324 15-04-2020 12:55:00 13.3 C 46 % 1.94 C
3325 15-04-2020 13:00:00 13.3 C 46 % 1.94 C
Sensor: Nr:Datum:Temp:Feuchte:Taupunkt:
Aussen-T/F 3326 15-04-2020 13:05:00 13.4 C 45 % 1.72 C
3327 15-04-2020 13:10:00 13.4 C 45 % 1.72 C
3328 15-04-2020 13:15:00 13.6 C 44 % 1.59 C
3329 15-04-2020 13:20:00 13.6 C 44 % 1.59 C
3330 15-04-2020 13:25:00 13.7 C 44 % 1.68 C
3331 15-04-2020 13:30:00 13.9 C 44 % 1.86 C
3332 15-04-2020 13:35:00 14.2 C 43 % 1.81 C
3333 15-04-2020 13:40:00 14.3 C 42 % 1.58 C
3334 15-04-2020 13:45:00 14.4 C 41 % 1.33 C
3335 15-04-2020 13:50:00 14.6 C 41 % 1.51 C
3336 15-04-2020 13:55:00 14.6 C 42 % 1.85 C
3337 15-04-2020 14:00:00 14.7 C 41 % 1.6 C
3338 15-04-2020 14:05:00 14.9 C 41 % 1.78 C
3339 15-04-2020 14:10:00 15.1 C 39 % 1.26 C
3340 15-04-2020 14:15:00 15.2 C 40 % 1.71 C
3341 15-04-2020 14:20:00 15.4 C 38 % 1.17 C
3342 15-04-2020 14:25:00 15.4 C 40 % 1.89 C
3343 15-04-2020 14:30:00 15.6 C 39 % 1.71 C
3344 15-04-2020 14:35:00 15.7 C 39 % 1.8 C
3345 15-04-2020 14:40:00 15.9 C 38 % 1.62 C
3346 15-04-2020 14:45:00 16.1 C 39 % 2.16 C
3347 15-04-2020 14:50:00 16.2 C 37 % 1.51 C
3348 15-04-2020 14:55:00 16.3 C 38 % 1.97 C
3349 15-04-2020 15:00:00 16.5 C 38 % 2.15 C
3350 15-04-2020 15:05:00 16.6 C 37 % 1.87 C
Sensor: Nr:Datum:Temp:Feuchte:Taupunkt:
Aussen-T/F 3351 15-04-2020 15:10:00 16.6 C 36 % 1.49 C
3352 15-04-2020 15:15:00 16.6 C 37 % 1.87 C
3353 15-04-2020 15:20:00 16.7 C 36 % 1.57 C
3354 15-04-2020 15:25:00 16.9 C 39 % 2.87 C
3355 15-04-2020 15:30:00 17.3 C 39 % 3.23 C
3356 15-04-2020 15:35:00 17.5 C 37 % 2.67 C
3357 15-04-2020 15:40:00 17.5 C 36 % 2.28 C
3358 15-04-2020 15:45:00 17.6 C 38 % 3.13 C
3359 15-04-2020 15:50:00 17.7 C 37 % 2.84 C
3360 15-04-2020 15:55:00 17.7 C 36 % 2.46 C
3361 15-04-2020 16:00:00 17.8 C 37 % 2.93 C
3362 15-04-2020 16:05:00 17.8 C 35 % 2.15 C
3363 15-04-2020 16:10:00 17.9 C 36 % 2.63 C
3364 15-04-2020 16:15:00 18.3 C 35 % 2.59 C
3365 15-04-2020 16:20:00 18.6 C 35 % 2.86 C
3366 15-04-2020 16:25:00 18.8 C 34 % 2.62 C
3367 15-04-2020 16:30:00 19.2 C 35 % 3.38 C
3368 15-04-2020 16:35:00 19.4 C 33 % 2.73 C
3369 15-04-2020 16:40:00 19.6 C 32 % 2.47 C
3370 15-04-2020 16:45:00 19.6 C 35 % 3.74 C
3371 15-04-2020 16:50:00 19.8 C 32 % 2.65 C
3372 15-04-2020 16:55:00 20.1 C 30 % 2 C
3373 15-04-2020 17:00:00 20.1 C 32 % 2.91 C
3374 15-04-2020 17:05:00 20.2 C 32 % 3 C
3375 15-04-2020 17:10:00 20.3 C 32 % 3.08 C
Sensor: Nr:Datum:Temp:Feuchte:Taupunkt:
Aussen-T/F 3376 15-04-2020 17:15:00 20.4 C 31 % 2.72 C
3377 15-04-2020 17:20:00 20.6 C 31 % 2.9 C
3378 15-04-2020 17:25:00 20.6 C 31 % 2.9 C
3379 15-04-2020 17:30:00 20.5 C 32 % 3.26 C
3380 15-04-2020 17:35:00 20.5 C 30 % 2.35 C
3381 15-04-2020 17:40:00 20.6 C 31 % 2.9 C
3382 15-04-2020 17:45:00 20.6 C 30 % 2.44 C
3383 15-04-2020 17:50:00 20.6 C 31 % 2.9 C
3384 15-04-2020 17:55:00 20.7 C 34 % 4.29 C
3385 15-04-2020 18:00:00 20.9 C 32 % 3.61 C
3386 15-04-2020 18:05:00 20.8 C 34 % 4.38 C
3387 15-04-2020 18:10:00 20.3 C 31 % 2.64 C
3388 15-04-2020 18:15:00 20.3 C 36 % 4.76 C
3389 15-04-2020 18:20:00 20.2 C 32 % 3 C
3390 15-04-2020 18:25:00 19.9 C 33 % 3.17 C
3391 15-04-2020 18:30:00 19.8 C 34 % 3.5 C
3392 15-04-2020 18:35:00 19.9 C 33 % 3.17 C
3393 15-04-2020 18:40:00 20.2 C 31 % 2.55 C
3394 15-04-2020 18:45:00 20.2 C 31 % 2.55 C
3395 15-04-2020 18:50:00 20.3 C 32 % 3.08 C
3396 15-04-2020 18:55:00 20.5 C 31 % 2.81 C
3397 15-04-2020 19:00:00 20.5 C 32 % 3.26 C
3398 15-04-2020 19:05:00 20.3 C 32 % 3.08 C
3399 15-04-2020 19:10:00 20.2 C 32 % 3 C
3400 15-04-2020 19:15:00 20.2 C 33 % 3.43 C
Sensor: Nr:Datum:Temp:Feuchte:Taupunkt:
Aussen-T/F 3401 15-04-2020 19:20:00 19.9 C 33 % 3.17 C
3402 15-04-2020 19:25:00 19.6 C 32 % 2.47 C
3403 15-04-2020 19:30:00 19.2 C 34 % 2.98 C
3404 15-04-2020 19:35:00 18.8 C 37 % 3.82 C
3405 15-04-2020 19:40:00 18.5 C 34 % 2.36 C
3406 15-04-2020 19:45:00 18.1 C 36 % 2.81 C
3407 15-04-2020 19:50:00 17.7 C 40 % 3.95 C
3408 15-04-2020 19:55:00 17.2 C 43 % 4.53 C
3409 15-04-2020 20:00:00 16.6 C 44 % 4.31 C
3410 15-04-2020 20:05:00 15.9 C 46 % 4.31 C
3411 15-04-2020 20:10:00 15.2 C 47 % 3.98 C
3412 15-04-2020 20:15:00 14.7 C 48 % 3.82 C
3413 15-04-2020 20:20:00 14.2 C 48 % 3.36 C
3414 15-04-2020 20:25:00 13.8 C 50 % 3.57 C
3415 15-04-2020 20:30:00 13.5 C 51 % 3.57 C
3416 15-04-2020 20:35:00 13.2 C 52 % 3.57 C
3417 15-04-2020 20:40:00 12.9 C 51 % 3.02 C
3418 15-04-2020 20:45:00 12.7 C 51 % 2.84 C
3419 15-04-2020 20:50:00 12.5 C 52 % 2.92 C
3420 15-04-2020 20:55:00 12.4 C 53 % 3.1 C
3421 15-04-2020 21:00:00 12.2 C 55 % 3.44 C
3422 15-04-2020 21:05:00 11.9 C 56 % 3.41 C
3423 15-04-2020 21:10:00 11.7 C 57 % 3.48 C
3424 15-04-2020 21:15:00 11.4 C 57 % 3.2 C
3425 15-04-2020 21:20:00 11.3 C 58 % 3.35 C
Sensor: Nr:Datum:Temp:Feuchte:Taupunkt:
Aussen-T/F 3426 15-04-2020 21:25:00 11.2 C 58 % 3.25 C
3427 15-04-2020 21:30:00 11.1 C 60 % 3.64 C
3428 15-04-2020 21:35:00 10.9 C 60 % 3.45 C
3429 15-04-2020 21:40:00 10.7 C 61 % 3.5 C
3430 15-04-2020 21:45:00 10.4 C 61 % 3.21 C
3431 15-04-2020 21:50:00 10.3 C 63 % 3.58 C
3432 15-04-2020 21:55:00 10.1 C 64 % 3.61 C
3433 15-04-2020 22:00:00 9.8 C 65 % 3.54 C
3434 15-04-2020 22:05:00 9.6 C 65 % 3.35 C
3435 15-04-2020 22:10:00 9.5 C 66 % 3.47 C
3436 15-04-2020 22:15:00 9.4 C 67 % 3.59 C
3437 15-04-2020 22:20:00 9.3 C 67 % 3.5 C
3438 15-04-2020 22:25:00 9.2 C 68 % 3.61 C
3439 15-04-2020 22:30:00 9.1 C 68 % 3.52 C
3440 15-04-2020 22:35:00 8.9 C 68 % 3.32 C
3441 15-04-2020 22:40:00 8.8 C 67 % 3.02 C
3442 15-04-2020 22:45:00 8.7 C 67 % 2.92 C
3443 15-04-2020 22:50:00 8.6 C 68 % 3.04 C
3444 15-04-2020 22:55:00 8.4 C 69 % 3.05 C
3445 15-04-2020 23:00:00 8.3 C 70 % 3.16 C
3446 15-04-2020 23:05:00 8.1 C 69 % 2.77 C
3447 15-04-2020 23:10:00 7.9 C 70 % 2.78 C
3448 15-04-2020 23:15:00 7.8 C 70 % 2.68 C
3449 15-04-2020 23:20:00 7.8 C 70 % 2.68 C
3450 15-04-2020 23:25:00 7.7 C 70 % 2.58 C
Sensor: Nr:Datum:Temp:Feuchte:Taupunkt:
Aussen-T/F 3451 15-04-2020 23:30:00 7.6 C 72 % 2.88 C
3452 15-04-2020 23:35:00 7.5 C 71 % 2.59 C
3453 15-04-2020 23:40:00 7.3 C 71 % 2.4 C
3454 15-04-2020 23:45:00 7.3 C 72 % 2.6 C
3455 15-04-2020 23:50:00 7.2 C 73 % 2.69 C
3456 15-04-2020 23:55:00 7.1 C 73 % 2.6 C
3457 16-04-2020 00:00:00 7.1 C 73 % 2.6 C
3458 16-04-2020 00:05:00 7.1 C 74 % 2.79 C
3459 16-04-2020 00:10:00 6.9 C 75 % 2.78 C
3460 16-04-2020 00:15:00 6.8 C 75 % 2.69 C
3461 16-04-2020 00:20:00 6.7 C 75 % 2.59 C
3462 16-04-2020 00:25:00 6.6 C 75 % 2.49 C
3463 16-04-2020 00:30:00 6.4 C 76 % 2.49 C
3464 16-04-2020 00:35:00 6.4 C 76 % 2.49 C
3465 16-04-2020 00:40:00 6.2 C 77 % 2.48 C
3466 16-04-2020 00:45:00 6.1 C 77 % 2.38 C
3467 16-04-2020 00:50:00 6 C 77 % 2.28 C
3468 16-04-2020 00:55:00 5.9 C 77 % 2.19 C
3469 16-04-2020 01:00:00 5.8 C 77 % 2.09 C
3470 16-04-2020 01:05:00 5.8 C 78 % 2.27 C
3471 16-04-2020 01:10:00 5.7 C 78 % 2.17 C
3472 16-04-2020 01:15:00 5.7 C 78 % 2.17 C
3473 16-04-2020 01:20:00 5.7 C 78 % 2.17 C
3474 16-04-2020 01:25:00 5.7 C 78 % 2.17 C
3475 16-04-2020 01:30:00 5.7 C 78 % 2.17 C
Sensor: Nr:Datum:Temp:Feuchte:Taupunkt:
Aussen-T/F 3476 16-04-2020 01:35:00 5.7 C 78 % 2.17 C
3477 16-04-2020 01:40:00 5.7 C 79 % 2.35 C
3478 16-04-2020 01:45:00 5.7 C 79 % 2.35 C
3479 16-04-2020 01:50:00 5.6 C 79 % 2.25 C
3480 16-04-2020 01:55:00 5.6 C 80 % 2.43 C
3481 16-04-2020 02:00:00 5.4 C 80 % 2.23 C
3482 16-04-2020 02:05:00 5.4 C 80 % 2.23 C
3483 16-04-2020 02:10:00 5.3 C 80 % 2.14 C
3484 16-04-2020 02:15:00 5.2 C 80 % 2.04 C
3485 16-04-2020 02:20:00 5 C 81 % 2.02 C
3486 16-04-2020 02:25:00 4.9 C 81 % 1.92 C
3487 16-04-2020 02:30:00 4.8 C 81 % 1.82 C
3488 16-04-2020 02:35:00 4.7 C 82 % 1.9 C
3489 16-04-2020 02:40:00 4.6 C 82 % 1.8 C
3490 16-04-2020 02:45:00 4.6 C 83 % 1.97 C
3491 16-04-2020 02:50:00 4.5 C 83 % 1.87 C
3492 16-04-2020 02:55:00 4.4 C 83 % 1.77 C
3493 16-04-2020 03:00:00 4.3 C 83 % 1.67 C
3494 16-04-2020 03:05:00 4.3 C 84 % 1.84 C
3495 16-04-2020 03:10:00 4.3 C 84 % 1.84 C
3496 16-04-2020 03:15:00 4.2 C 84 % 1.74 C
3497 16-04-2020 03:20:00 4.1 C 84 % 1.65 C
3498 16-04-2020 03:25:00 4.1 C 84 % 1.65 C
3499 16-04-2020 03:30:00 4 C 84 % 1.55 C
3500 16-04-2020 03:35:00 4 C 85 % 1.71 C
Sensor: Nr:Datum:Temp:Feuchte:Taupunkt:
Aussen-T/F 3501 16-04-2020 03:40:00 3.9 C 85 % 1.61 C
3502 16-04-2020 03:45:00 3.9 C 85 % 1.61 C
3503 16-04-2020 03:50:00 3.8 C 85 % 1.52 C
3504 16-04-2020 03:55:00 3.8 C 85 % 1.52 C
3505 16-04-2020 04:00:00 3.7 C 85 % 1.42 C
3506 16-04-2020 04:05:00 3.7 C 86 % 1.58 C
3507 16-04-2020 04:10:00 3.8 C 86 % 1.68 C
3508 16-04-2020 04:15:00 3.7 C 86 % 1.58 C
3509 16-04-2020 04:20:00 3.7 C 86 % 1.58 C
3510 16-04-2020 04:25:00 3.6 C 86 % 1.48 C
3511 16-04-2020 04:30:00 3.6 C 86 % 1.48 C
3512 16-04-2020 04:35:00 3.5 C 86 % 1.38 C
3513 16-04-2020 04:40:00 3.6 C 87 % 1.64 C
3514 16-04-2020 04:45:00 3.6 C 87 % 1.64 C
3515 16-04-2020 04:50:00 3.5 C 87 % 1.55 C
3516 16-04-2020 04:55:00 3.4 C 87 % 1.45 C
3517 16-04-2020 05:00:00 3.4 C 87 % 1.45 C
3518 16-04-2020 05:05:00 3.4 C 87 % 1.45 C
3519 16-04-2020 05:10:00 3.3 C 88 % 1.51 C
3520 16-04-2020 05:15:00 3.3 C 88 % 1.51 C
3521 16-04-2020 05:20:00 3.2 C 88 % 1.41 C
3522 16-04-2020 05:25:00 3.2 C 88 % 1.41 C
3523 16-04-2020 05:30:00 3.2 C 88 % 1.41 C
3524 16-04-2020 05:35:00 3.1 C 88 % 1.31 C
3525 16-04-2020 05:40:00 3.1 C 88 % 1.31 C
Sensor: Nr:Datum:Temp:Feuchte:Taupunkt:
Aussen-T/F 3526 16-04-2020 05:45:00 2.9 C 88 % 1.11 C
3527 16-04-2020 05:50:00 2.8 C 88 % 1.02 C
3528 16-04-2020 05:55:00 2.8 C 89 % 1.17 C
3529 16-04-2020 06:00:00 2.9 C 89 % 1.27 C
3530 16-04-2020 06:05:00 2.9 C 89 % 1.27 C
3531 16-04-2020 06:10:00 2.8 C 89 % 1.17 C
3532 16-04-2020 06:15:00 2.8 C 89 % 1.17 C
3533 16-04-2020 06:20:00 2.7 C 89 % 1.07 C
3534 16-04-2020 06:25:00 2.7 C 89 % 1.07 C
3535 16-04-2020 06:30:00 2.6 C 89 % 0.97 C
3536 16-04-2020 06:35:00 2.5 C 89 % 0.88 C
3537 16-04-2020 06:40:00 2.4 C 89 % 0.78 C
3538 16-04-2020 06:45:00 2.4 C 90 % 0.93 C
3539 16-04-2020 06:50:00 2.4 C 90 % 0.93 C
3540 16-04-2020 06:55:00 2.4 C 90 % 0.93 C
3541 16-04-2020 07:00:00 2.4 C 90 % 0.93 C
3542 16-04-2020 07:05:00 2.4 C 90 % 0.93 C
3543 16-04-2020 07:10:00 2.4 C 90 % 0.93 C
3544 16-04-2020 07:15:00 2.4 C 91 % 1.08 C
3545 16-04-2020 07:20:00 2.6 C 91 % 1.28 C
3546 16-04-2020 07:25:00 2.6 C 91 % 1.28 C
3547 16-04-2020 07:30:00 2.6 C 91 % 1.28 C
3548 16-04-2020 07:35:00 2.7 C 91 % 1.38 C
3549 16-04-2020 07:40:00 2.7 C 91 % 1.38 C
3550 16-04-2020 07:45:00 2.7 C 91 % 1.38 C
Sensor: Nr:Datum:Temp:Feuchte:Taupunkt:
Aussen-T/F 3551 16-04-2020 07:50:00 2.7 C 91 % 1.38 C
3552 16-04-2020 07:55:00 2.8 C 91 % 1.48 C
3553 16-04-2020 08:00:00 2.9 C 91 % 1.58 C
3554 16-04-2020 08:05:00 2.9 C 91 % 1.58 C
3555 16-04-2020 08:10:00 3 C 92 % 1.83 C
3556 16-04-2020 08:15:00 3.1 C 92 % 1.93 C
3557 16-04-2020 08:20:00 3.2 C 92 % 2.03 C
3558 16-04-2020 08:25:00 3.3 C 92 % 2.13 C
3559 16-04-2020 08:30:00 3.3 C 92 % 2.13 C
3560 16-04-2020 08:35:00 3.4 C 92 % 2.23 C
3561 16-04-2020 08:40:00 3.6 C 91 % 2.27 C
3562 16-04-2020 08:45:00 3.6 C 91 % 2.27 C
3563 16-04-2020 08:50:00 3.7 C 91 % 2.37 C
3564 16-04-2020 08:55:00 3.8 C 91 % 2.47 C
3565 16-04-2020 09:00:00 3.9 C 91 % 2.57 C
3566 16-04-2020 09:05:00 4 C 91 % 2.67 C
3567 16-04-2020 09:10:00 4.1 C 91 % 2.77 C
3568 16-04-2020 09:15:00 4.3 C 91 % 2.96 C
3569 16-04-2020 09:20:00 4.4 C 91 % 3.06 C
3570 16-04-2020 09:25:00 4.6 C 91 % 3.26 C
3571 16-04-2020 09:30:00 4.8 C 90 % 3.3 C
3572 16-04-2020 09:35:00 5 C 90 % 3.5 C
3573 16-04-2020 09:40:00 5.2 C 90 % 3.7 C
3574 16-04-2020 09:45:00 5.5 C 89 % 3.84 C
3575 16-04-2020 09:50:00 5.8 C 89 % 4.13 C
Sensor: Nr:Datum:Temp:Feuchte:Taupunkt:
Aussen-T/F 3576 16-04-2020 09:55:00 6.1 C 88 % 4.27 C
3577 16-04-2020 10:00:00 6.3 C 88 % 4.46 C
3578 16-04-2020 10:05:00 6.6 C 87 % 4.6 C
3579 16-04-2020 10:10:00 6.9 C 86 % 4.72 C
3580 16-04-2020 10:15:00 7.2 C 85 % 4.85 C
3581 16-04-2020 10:20:00 7.6 C 85 % 5.24 C
3582 16-04-2020 10:25:00 7.8 C 83 % 5.1 C
3583 16-04-2020 10:30:00 8.2 C 82 % 5.32 C
3584 16-04-2020 10:35:00 8.6 C 81 % 5.53 C
3585 16-04-2020 10:40:00 8.9 C 79 % 5.46 C
3586 16-04-2020 10:45:00 9.3 C 78 % 5.67 C
3587 16-04-2020 10:50:00 9.7 C 77 % 5.87 C
3588 16-04-2020 10:55:00 10.1 C 75 % 5.88 C
3589 16-04-2020 11:00:00 10.6 C 74 % 6.17 C
3590 16-04-2020 11:05:00 11.1 C 72 % 6.25 C
3591 16-04-2020 11:10:00 11.9 C 70 % 6.61 C
3592 16-04-2020 11:15:00 13.2 C 64 % 6.55 C
3593 16-04-2020 11:20:00 14.3 C 59 % 6.41 C
3594 16-04-2020 11:25:00 15.1 C 57 % 6.65 C
3595 16-04-2020 11:30:00 15.6 C 55 % 6.6 C
3596 16-04-2020 11:35:00 16.2 C 53 % 6.62 C
3597 16-04-2020 11:40:00 16.7 C 50 % 6.24 C
3598 16-04-2020 11:45:00 17.1 C 49 % 6.31 C
3599 16-04-2020 11:50:00 17.4 C 48 % 6.29 C
3600 16-04-2020 11:55:00 17.7 C 47 % 6.26 C
Sensor: Nr:Datum:Temp:Feuchte:Taupunkt:
Aussen-T/F 3601 16-04-2020 12:00:00 17.9 C 48 % 6.75 C
3602 16-04-2020 12:05:00 18.1 C 47 % 6.62 C
3603 16-04-2020 12:10:00 18.3 C 45 % 6.17 C
3604 16-04-2020 12:15:00 18.5 C 45 % 6.36 C
3605 16-04-2020 12:20:00 18.7 C 47 % 7.17 C
3606 16-04-2020 12:25:00 18.8 C 45 % 6.63 C
3607 16-04-2020 12:30:00 19 C 46 % 7.13 C
3608 16-04-2020 12:35:00 19.2 C 45 % 6.99 C
3609 16-04-2020 12:40:00 19.3 C 44 % 6.75 C
3610 16-04-2020 12:45:00 19.4 C 44 % 6.84 C
3611 16-04-2020 12:50:00 19.5 C 44 % 6.94 C
3612 16-04-2020 12:55:00 19.6 C 44 % 7.03 C
3613 16-04-2020 13:00:00 19.8 C 43 % 6.87 C
3614 16-04-2020 13:05:00 19.9 C 43 % 6.96 C
3615 16-04-2020 13:10:00 20.1 C 42 % 6.8 C
3616 16-04-2020 13:15:00 20.2 C 42 % 6.89 C
3617 16-04-2020 13:20:00 20.4 C 41 % 6.72 C
3618 16-04-2020 13:25:00 20.6 C 41 % 6.9 C
3619 16-04-2020 13:30:00 20.8 C 41 % 7.08 C
3620 16-04-2020 13:35:00 20.9 C 38 % 6.06 C
3621 16-04-2020 13:40:00 21.1 C 38 % 6.24 C
3622 16-04-2020 13:45:00 21.2 C 39 % 6.71 C
3623 16-04-2020 13:50:00 21.3 C 37 % 6.03 C
3624 16-04-2020 13:55:00 21.4 C 36 % 5.73 C
3625 16-04-2020 14:00:00 21.6 C 37 % 6.3 C
Sensor: Nr:Datum:Temp:Feuchte:Taupunkt:
Aussen-T/F 3626 16-04-2020 14:05:00 21.7 C 35 % 5.58 C
3627 16-04-2020 14:10:00 21.7 C 36 % 5.99 C
3628 16-04-2020 14:15:00 21.8 C 36 % 6.08 C
3629 16-04-2020 14:20:00 21.8 C 35 % 5.67 C
3630 16-04-2020 14:25:00 21.8 C 35 % 5.67 C
3631 16-04-2020 14:30:00 21.8 C 37 % 6.48 C
3632 16-04-2020 14:35:00 22 C 37 % 6.65 C
3633 16-04-2020 14:40:00 22.2 C 37 % 6.83 C
3634 16-04-2020 14:45:00 22.3 C 37 % 6.92 C
3635 16-04-2020 14:50:00 22.4 C 35 % 6.2 C
3636 16-04-2020 14:55:00 22.6 C 36 % 6.78 C
3637 16-04-2020 15:00:00 22.7 C 35 % 6.46 C
3638 16-04-2020 15:05:00 22.9 C 36 % 7.05 C
3639 16-04-2020 15:10:00 22.9 C 35 % 6.64 C
3640 16-04-2020 15:15:00 23 C 35 % 6.73 C
3641 16-04-2020 15:20:00 23.2 C 35 % 6.9 C
3642 16-04-2020 15:25:00 23.3 C 35 % 6.99 C
3643 16-04-2020 15:30:00 23.4 C 35 % 7.08 C
3644 16-04-2020 15:35:00 23.6 C 36 % 7.67 C
3645 16-04-2020 15:40:00 23.6 C 34 % 6.83 C
3646 16-04-2020 15:45:00 23.4 C 35 % 7.08 C
3647 16-04-2020 15:50:00 23.4 C 36 % 7.49 C
3648 16-04-2020 15:55:00 23.6 C 36 % 7.67 C
3649 16-04-2020 16:00:00 23.8 C 36 % 7.84 C
3650 16-04-2020 16:05:00 24.1 C 36 % 8.11 C
Sensor: Nr:Datum:Temp:Feuchte:Taupunkt:
Aussen-T/F 3651 16-04-2020 16:10:00 24.3 C 35 % 7.87 C
3652 16-04-2020 16:15:00 24.4 C 35 % 7.96 C
3653 16-04-2020 16:20:00 24.4 C 33 % 7.1 C
3654 16-04-2020 16:25:00 24.4 C 32 % 6.65 C
3655 16-04-2020 16:30:00 24.4 C 32 % 6.65 C
3656 16-04-2020 16:35:00 24.5 C 31 % 6.28 C
3657 16-04-2020 16:40:00 24.5 C 32 % 6.74 C
3658 16-04-2020 16:45:00 24.6 C 31 % 6.36 C
3659 16-04-2020 16:50:00 24.2 C 33 % 6.92 C
3660 16-04-2020 16:55:00 24 C 35 % 7.61 C
3661 16-04-2020 17:00:00 23.9 C 35 % 7.52 C
3662 16-04-2020 17:05:00 23.8 C 35 % 7.43 C
3663 16-04-2020 17:10:00 23.8 C 34 % 7.01 C
3664 16-04-2020 17:15:00 24.1 C 36 % 8.11 C
3665 16-04-2020 17:20:00 24.1 C 40 % 9.67 C
3666 16-04-2020 17:25:00 24 C 38 % 8.82 C
3667 16-04-2020 17:30:00 24.3 C 36 % 8.28 C
3668 16-04-2020 17:35:00 24.4 C 34 % 7.53 C
3669 16-04-2020 17:40:00 24.4 C 36 % 8.37 C
3670 16-04-2020 17:45:00 24.6 C 35 % 8.13 C
3671 16-04-2020 17:50:00 24.6 C 37 % 8.95 C
3672 16-04-2020 17:55:00 24.8 C 35 % 8.31 C
3673 16-04-2020 18:00:00 25 C 35 % 8.48 C
3674 16-04-2020 18:05:00 25.2 C 35 % 8.66 C
3675 16-04-2020 18:10:00 25 C 34 % 8.06 C
Sensor: Nr:Datum:Temp:Feuchte:Taupunkt:
Aussen-T/F 3676 16-04-2020 18:15:00 24.9 C 35 % 8.4 C
3677 16-04-2020 18:20:00 24.8 C 35 % 8.31 C
3678 16-04-2020 18:25:00 24.8 C 35 % 8.31 C
3679 16-04-2020 18:30:00 24.8 C 34 % 7.88 C
3680 16-04-2020 18:35:00 24.8 C 34 % 7.88 C
3681 16-04-2020 18:40:00 24.7 C 36 % 8.64 C
3682 16-04-2020 18:45:00 24.4 C 35 % 7.96 C
3683 16-04-2020 18:50:00 24.4 C 35 % 7.96 C
3684 16-04-2020 18:55:00 24.2 C 35 % 7.78 C
3685 16-04-2020 19:00:00 24 C 36 % 8.02 C
3686 16-04-2020 19:05:00 23.9 C 36 % 7.93 C
3687 16-04-2020 19:10:00 23.8 C 37 % 8.25 C
3688 16-04-2020 19:15:00 23.6 C 38 % 8.46 C
3689 16-04-2020 19:20:00 23.4 C 38 % 8.28 C
3690 16-04-2020 19:25:00 23.1 C 39 % 8.4 C
3691 16-04-2020 19:30:00 22.8 C 39 % 8.13 C
3692 16-04-2020 19:35:00 22.6 C 40 % 8.33 C
3693 16-04-2020 19:40:00 22.3 C 41 % 8.42 C
3694 16-04-2020 19:45:00 22.1 C 42 % 8.6 C
3695 16-04-2020 19:50:00 21.8 C 43 % 8.67 C
3696 16-04-2020 19:55:00 21.4 C 44 % 8.65 C
3697 16-04-2020 20:00:00 21.1 C 44 % 8.38 C
3698 16-04-2020 20:05:00 20.7 C 46 % 8.67 C
3699 16-04-2020 20:10:00 20.2 C 46 % 8.22 C
3700 16-04-2020 20:15:00 19.8 C 47 % 8.17 C
Sensor: Nr:Datum:Temp:Feuchte:Taupunkt:
Aussen-T/F 3701 16-04-2020 20:20:00 19.4 C 47 % 7.81 C
3702 16-04-2020 20:25:00 19.2 C 46 % 7.31 C
3703 16-04-2020 20:30:00 19.1 C 46 % 7.22 C
3704 16-04-2020 20:35:00 18.9 C 46 % 7.04 C
3705 16-04-2020 20:40:00 18.9 C 47 % 7.35 C
3706 16-04-2020 20:45:00 18.9 C 48 % 7.66 C
3707 16-04-2020 20:50:00 18.7 C 47 % 7.17 C
3708 16-04-2020 20:55:00 18.6 C 49 % 7.69 C
3709 16-04-2020 21:00:00 18.3 C 49 % 7.41 C
3710 16-04-2020 21:05:00 18.1 C 50 % 7.52 C
3711 16-04-2020 21:10:00 17.8 C 52 % 7.82 C
3712 16-04-2020 21:15:00 17.4 C 53 % 7.73 C
3713 16-04-2020 21:20:00 17.1 C 53 % 7.45 C
3714 16-04-2020 21:25:00 16.8 C 55 % 7.72 C
3715 16-04-2020 21:30:00 16.6 C 55 % 7.53 C
3716 16-04-2020 21:35:00 16.4 C 57 % 7.87 C
3717 16-04-2020 21:40:00 16.1 C 58 % 7.84 C
3718 16-04-2020 21:45:00 15.8 C 59 % 7.81 C
3719 16-04-2020 21:50:00 15.4 C 60 % 7.68 C
3720 16-04-2020 21:55:00 15.3 C 60 % 7.59 C
3721 16-04-2020 22:00:00 15.2 C 61 % 7.74 C
3722 16-04-2020 22:05:00 15.2 C 62 % 7.98 C
3723 16-04-2020 22:10:00 14.9 C 62 % 7.69 C
3724 16-04-2020 22:15:00 14.6 C 63 % 7.64 C
3725 16-04-2020 22:20:00 14.3 C 64 % 7.59 C
Sensor: Nr:Datum:Temp:Feuchte:Taupunkt:
Aussen-T/F 3726 16-04-2020 22:25:00 14.2 C 65 % 7.72 C
3727 16-04-2020 22:30:00 14.2 C 66 % 7.95 C
3728 16-04-2020 22:35:00 14.2 C 66 % 7.95 C
3729 16-04-2020 22:40:00 13.9 C 67 % 7.88 C
3730 16-04-2020 22:45:00 13.7 C 67 % 7.69 C
3731 16-04-2020 22:50:00 13.6 C 67 % 7.6 C
3732 16-04-2020 22:55:00 13.3 C 69 % 7.74 C
3733 16-04-2020 23:00:00 13.1 C 70 % 7.76 C
3734 16-04-2020 23:05:00 13 C 71 % 7.87 C
3735 16-04-2020 23:10:00 12.9 C 71 % 7.78 C
3736 16-04-2020 23:15:00 12.8 C 72 % 7.88 C
3737 16-04-2020 23:20:00 12.6 C 72 % 7.69 C
3738 16-04-2020 23:25:00 12.4 C 72 % 7.5 C
3739 16-04-2020 23:30:00 12.3 C 73 % 7.61 C
3740 16-04-2020 23:35:00 12.2 C 73 % 7.51 C
3741 16-04-2020 23:40:00 12.2 C 73 % 7.51 C
3742 16-04-2020 23:45:00 12.1 C 73 % 7.41 C
3743 16-04-2020 23:50:00 12.1 C 73 % 7.41 C
3744 16-04-2020 23:55:00 12.1 C 73 % 7.41 C
3745 17-04-2020 00:00:00 12 C 74 % 7.52 C
3746 17-04-2020 00:05:00 11.8 C 74 % 7.32 C
3747 17-04-2020 00:10:00 11.7 C 75 % 7.42 C
3748 17-04-2020 00:15:00 11.6 C 75 % 7.33 C
3749 17-04-2020 00:20:00 11.4 C 76 % 7.33 C
3750 17-04-2020 00:25:00 11.4 C 76 % 7.33 C
Sensor: Nr:Datum:Temp:Feuchte:Taupunkt:
Aussen-T/F 3751 17-04-2020 00:30:00 11.3 C 76 % 7.23 C
3752 17-04-2020 00:35:00 11.3 C 76 % 7.23 C
3753 17-04-2020 00:40:00 11.2 C 77 % 7.32 C
3754 17-04-2020 00:45:00 11.2 C 77 % 7.32 C
3755 17-04-2020 00:50:00 11.1 C 77 % 7.23 C
3756 17-04-2020 00:55:00 10.9 C 78 % 7.22 C
3757 17-04-2020 01:00:00 10.8 C 78 % 7.12 C
3758 17-04-2020 01:05:00 10.7 C 79 % 7.21 C
3759 17-04-2020 01:10:00 10.7 C 79 % 7.21 C
3760 17-04-2020 01:15:00 10.7 C 79 % 7.21 C
3761 17-04-2020 01:20:00 10.6 C 79 % 7.11 C
3762 17-04-2020 01:25:00 10.4 C 80 % 7.1 C
3763 17-04-2020 01:30:00 10.4 C 80 % 7.1 C
3764 17-04-2020 01:35:00 10.4 C 80 % 7.1 C
3765 17-04-2020 01:40:00 10.4 C 80 % 7.1 C
3766 17-04-2020 01:45:00 10.3 C 80 % 7.01 C
3767 17-04-2020 01:50:00 10.2 C 81 % 7.09 C
3768 17-04-2020 01:55:00 10.2 C 81 % 7.09 C
3769 17-04-2020 02:00:00 10.2 C 81 % 7.09 C
3770 17-04-2020 02:05:00 10.3 C 81 % 7.19 C
3771 17-04-2020 02:10:00 10.4 C 81 % 7.28 C
3772 17-04-2020 02:15:00 10.3 C 81 % 7.19 C
3773 17-04-2020 02:20:00 10.2 C 81 % 7.09 C
3774 17-04-2020 02:25:00 10 C 81 % 6.89 C
3775 17-04-2020 02:30:00 9.8 C 82 % 6.88 C
Sensor: Nr:Datum:Temp:Feuchte:Taupunkt:
Aussen-T/F 3776 17-04-2020 02:35:00 9.7 C 82 % 6.78 C
3777 17-04-2020 02:40:00 9.6 C 83 % 6.86 C
3778 17-04-2020 02:45:00 9.4 C 83 % 6.66 C
3779 17-04-2020 02:50:00 9.3 C 83 % 6.57 C
3780 17-04-2020 02:55:00 9.1 C 84 % 6.54 C
3781 17-04-2020 03:00:00 8.9 C 85 % 6.52 C
3782 17-04-2020 03:05:00 8.7 C 85 % 6.32 C
3783 17-04-2020 03:10:00 8.7 C 86 % 6.49 C
3784 17-04-2020 03:15:00 8.6 C 86 % 6.39 C
3785 17-04-2020 03:20:00 8.6 C 86 % 6.39 C
3786 17-04-2020 03:25:00 8.4 C 86 % 6.2 C
3787 17-04-2020 03:30:00 8.4 C 87 % 6.37 C
3788 17-04-2020 03:35:00 8.4 C 87 % 6.37 C
3789 17-04-2020 03:40:00 8.4 C 88 % 6.53 C
3790 17-04-2020 03:45:00 8.3 C 88 % 6.43 C
3791 17-04-2020 03:50:00 8.4 C 88 % 6.53 C
3792 17-04-2020 03:55:00 8.4 C 88 % 6.53 C
3793 17-04-2020 04:00:00 8.5 C 88 % 6.63 C
3794 17-04-2020 04:05:00 8.5 C 88 % 6.63 C
3795 17-04-2020 04:10:00 8.5 C 88 % 6.63 C
3796 17-04-2020 04:15:00 8.5 C 88 % 6.63 C
3797 17-04-2020 04:20:00 8.5 C 88 % 6.63 C
3798 17-04-2020 04:25:00 8.4 C 88 % 6.53 C
3799 17-04-2020 04:30:00 8.4 C 88 % 6.53 C
3800 17-04-2020 04:35:00 8.4 C 88 % 6.53 C
Sensor: Nr:Datum:Temp:Feuchte:Taupunkt:
Aussen-T/F 3801 17-04-2020 04:40:00 8.4 C 88 % 6.53 C
3802 17-04-2020 04:45:00 8.4 C 89 % 6.7 C
3803 17-04-2020 04:50:00 8.3 C 88 % 6.43 C
3804 17-04-2020 04:55:00 8.2 C 88 % 6.33 C
3805 17-04-2020 05:00:00 8.2 C 88 % 6.33 C
3806 17-04-2020 05:05:00 8.2 C 88 % 6.33 C
3807 17-04-2020 05:10:00 8 C 88 % 6.14 C
3808 17-04-2020 05:15:00 7.9 C 88 % 6.04 C
3809 17-04-2020 05:20:00 7.7 C 88 % 5.84 C
3810 17-04-2020 05:25:00 7.6 C 88 % 5.74 C
3811 17-04-2020 05:30:00 7.5 C 89 % 5.81 C
3812 17-04-2020 05:35:00 7.4 C 89 % 5.71 C
3813 17-04-2020 05:40:00 7.3 C 89 % 5.61 C
3814 17-04-2020 05:45:00 7.3 C 90 % 5.77 C
3815 17-04-2020 05:50:00 7.3 C 90 % 5.77 C
3816 17-04-2020 05:55:00 7.2 C 90 % 5.67 C
3817 17-04-2020 06:00:00 7.2 C 90 % 5.67 C
3818 17-04-2020 06:05:00 7.1 C 91 % 5.73 C
3819 17-04-2020 06:10:00 7 C 91 % 5.63 C
3820 17-04-2020 06:15:00 6.9 C 91 % 5.54 C
3821 17-04-2020 06:20:00 6.9 C 91 % 5.54 C
3822 17-04-2020 06:25:00 6.8 C 91 % 5.44 C
3823 17-04-2020 06:30:00 6.7 C 91 % 5.34 C
3824 17-04-2020 06:35:00 6.7 C 91 % 5.34 C
3825 17-04-2020 06:40:00 6.7 C 92 % 5.49 C
Sensor: Nr:Datum:Temp:Feuchte:Taupunkt:
Aussen-T/F 3826 17-04-2020 06:45:00 6.6 C 92 % 5.4 C
3827 17-04-2020 06:50:00 6.6 C 92 % 5.4 C
3828 17-04-2020 06:55:00 6.6 C 92 % 5.4 C
3829 17-04-2020 07:00:00 6.6 C 92 % 5.4 C
3830 17-04-2020 07:05:00 6.6 C 92 % 5.4 C
3831 17-04-2020 07:10:00 6.6 C 92 % 5.4 C
3832 17-04-2020 07:15:00 6.6 C 93 % 5.55 C
3833 17-04-2020 07:20:00 6.6 C 93 % 5.55 C
3834 17-04-2020 07:25:00 6.7 C 93 % 5.65 C
3835 17-04-2020 07:30:00 6.7 C 93 % 5.65 C
3836 17-04-2020 07:35:00 6.8 C 93 % 5.75 C
3837 17-04-2020 07:40:00 6.9 C 93 % 5.85 C
3838 17-04-2020 07:45:00 6.9 C 93 % 5.85 C
3839 17-04-2020 07:50:00 6.9 C 93 % 5.85 C
3840 17-04-2020 07:55:00 6.9 C 93 % 5.85 C
3841 17-04-2020 08:00:00 6.9 C 93 % 5.85 C
3842 17-04-2020 08:05:00 7 C 94 % 6.1 C
3843 17-04-2020 08:10:00 7.1 C 94 % 6.2 C
3844 17-04-2020 08:15:00 7.1 C 94 % 6.2 C
3845 17-04-2020 08:20:00 7.2 C 94 % 6.3 C
3846 17-04-2020 08:25:00 7.3 C 94 % 6.4 C
3847 17-04-2020 08:30:00 7.3 C 94 % 6.4 C
3848 17-04-2020 08:35:00 7.4 C 94 % 6.5 C
3849 17-04-2020 08:40:00 7.6 C 94 % 6.7 C
3850 17-04-2020 08:45:00 7.7 C 94 % 6.8 C
Sensor: Nr:Datum:Temp:Feuchte:Taupunkt:
Aussen-T/F 3851 17-04-2020 08:50:00 7.8 C 94 % 6.9 C
3852 17-04-2020 08:55:00 8.1 C 94 % 7.19 C
3853 17-04-2020 09:00:00 8.2 C 95 % 7.45 C
3854 17-04-2020 09:05:00 8.3 C 94 % 7.39 C
3855 17-04-2020 09:10:00 8.4 C 94 % 7.49 C
3856 17-04-2020 09:15:00 8.6 C 94 % 7.69 C
3857 17-04-2020 09:20:00 8.7 C 94 % 7.79 C
3858 17-04-2020 09:25:00 8.8 C 94 % 7.89 C
3859 17-04-2020 09:30:00 8.9 C 94 % 7.99 C
3860 17-04-2020 09:35:00 9.2 C 94 % 8.29 C
3861 17-04-2020 09:40:00 9.3 C 94 % 8.39 C
3862 17-04-2020 09:45:00 9.5 C 93 % 8.43 C
3863 17-04-2020 09:50:00 9.7 C 93 % 8.62 C
3864 17-04-2020 09:55:00 9.9 C 93 % 8.82 C
3865 17-04-2020 10:00:00 10.1 C 92 % 8.86 C
3866 17-04-2020 10:05:00 10.3 C 92 % 9.06 C
3867 17-04-2020 10:10:00 10.4 C 91 % 9 C
3868 17-04-2020 10:15:00 10.6 C 90 % 9.03 C
3869 17-04-2020 10:20:00 10.9 C 90 % 9.33 C
3870 17-04-2020 10:25:00 11.2 C 89 % 9.46 C
3871 17-04-2020 10:30:00 11.4 C 89 % 9.65 C
3872 17-04-2020 10:35:00 11.7 C 88 % 9.78 C
3873 17-04-2020 10:40:00 11.9 C 87 % 9.81 C
3874 17-04-2020 10:45:00 12.2 C 87 % 10.1 C
3875 17-04-2020 10:50:00 12.4 C 85 % 9.95 C
Sensor: Nr:Datum:Temp:Feuchte:Taupunkt:
Aussen-T/F 3876 17-04-2020 10:55:00 12.8 C 84 % 10.17 C
3877 17-04-2020 11:00:00 13.2 C 82 % 10.2 C
3878 17-04-2020 11:05:00 13.7 C 80 % 10.32 C
3879 17-04-2020 11:10:00 14.1 C 77 % 10.13 C
3880 17-04-2020 11:15:00 14.6 C 76 % 10.42 C
3881 17-04-2020 11:20:00 14.9 C 74 % 10.31 C
3882 17-04-2020 11:25:00 15.3 C 72 % 10.29 C
3883 17-04-2020 11:30:00 15.7 C 72 % 10.67 C
3884 17-04-2020 11:35:00 16.1 C 72 % 11.06 C
3885 17-04-2020 11:40:00 16.3 C 69 % 10.61 C
3886 17-04-2020 11:45:00 16.6 C 67 % 10.45 C
3887 17-04-2020 11:50:00 16.9 C 65 % 10.28 C
3888 17-04-2020 11:55:00 17.2 C 64 % 10.34 C
3889 17-04-2020 12:00:00 17.5 C 65 % 10.85 C
3890 17-04-2020 12:05:00 17.8 C 63 % 10.67 C
3891 17-04-2020 12:10:00 18.2 C 61 % 10.56 C
3892 17-04-2020 12:15:00 18.5 C 60 % 10.6 C
3893 17-04-2020 12:20:00 18.8 C 57 % 10.11 C
3894 17-04-2020 12:25:00 19 C 59 % 10.81 C
3895 17-04-2020 12:30:00 19.3 C 55 % 10.04 C
3896 17-04-2020 12:35:00 19.4 C